<?xml version="1.0" encoding="UTF-8" standalone="no" ?>
<gpx xmlns="http://www.topografix.com/GPX/1/1" xmlns:xsi="http://www.w3.org/2001/XMLSchema-instance" xsi:schemaLocation="http://www.topografix.com/GPX/1/1 http://www.topografix.com/GPX/1/1/gpx.xsd" version="1.1" creator="VisuGPX - https://www.visugpx.com">
  <metadata>
    <name>Vendredi 11 septembre 26</name>
  </metadata>
  <trk>
    <name><![CDATA[Vendredi 11 septembre 26]]></name>
    <extensions>
      <line xmlns="http://www.topografix.com/GPX/gpx_style/0/2">
        <width>7</width>
      </line>
    </extensions>
    <trkseg>
      <trkpt lat="43.38633" lon="-1.66328">
        <ele>3.7</ele>
        <time>2026-08-23T12:39:56.000Z</time>
      </trkpt>
      <trkpt lat="43.38647" lon="-1.66332">
        <ele>4</ele>
        <time>2026-08-23T12:39:59.000Z</time>
      </trkpt>
      <trkpt lat="43.38651" lon="-1.66328">
        <ele>4</ele>
        <time>2026-08-23T12:39:59.000Z</time>
      </trkpt>
      <trkpt lat="43.38636" lon="-1.66325">
        <ele>3.9</ele>
        <time>2026-08-23T12:40:02.000Z</time>
      </trkpt>
      <trkpt lat="43.38617" lon="-1.66317">
        <ele>3.4</ele>
        <time>2026-08-23T12:40:06.000Z</time>
      </trkpt>
      <trkpt lat="43.386" lon="-1.66303">
        <ele>1</ele>
        <time>2026-08-23T12:40:09.000Z</time>
      </trkpt>
      <trkpt lat="43.3857" lon="-1.66267">
        <ele>2</ele>
        <time>2026-08-23T12:40:16.000Z</time>
      </trkpt>
      <trkpt lat="43.38503" lon="-1.66208">
        <ele>4</ele>
        <time>2026-08-23T12:40:30.000Z</time>
      </trkpt>
      <trkpt lat="43.38493" lon="-1.66191">
        <ele>5</ele>
        <time>2026-08-23T12:40:33.000Z</time>
      </trkpt>
      <trkpt lat="43.38487" lon="-1.66173">
        <ele>5</ele>
        <time>2026-08-23T12:40:36.000Z</time>
      </trkpt>
      <trkpt lat="43.38483" lon="-1.66174">
        <ele>5</ele>
        <time>2026-08-23T12:40:37.000Z</time>
      </trkpt>
      <trkpt lat="43.38478" lon="-1.66167">
        <ele>6</ele>
        <time>2026-08-23T12:40:38.000Z</time>
      </trkpt>
      <trkpt lat="43.38477" lon="-1.66161">
        <ele>5</ele>
        <time>2026-08-23T12:40:39.000Z</time>
      </trkpt>
      <trkpt lat="43.38479" lon="-1.66155">
        <ele>5</ele>
        <time>2026-08-23T12:40:39.000Z</time>
      </trkpt>
      <trkpt lat="43.38462" lon="-1.66121">
        <ele>5</ele>
        <time>2026-08-23T12:40:45.000Z</time>
      </trkpt>
      <trkpt lat="43.38445" lon="-1.66095">
        <ele>5</ele>
        <time>2026-08-23T12:40:49.000Z</time>
      </trkpt>
      <trkpt lat="43.38347" lon="-1.65961">
        <ele>6</ele>
        <time>2026-08-23T12:41:14.000Z</time>
      </trkpt>
      <trkpt lat="43.38335" lon="-1.65933">
        <ele>6</ele>
        <time>2026-08-23T12:41:18.000Z</time>
      </trkpt>
      <trkpt lat="43.38313" lon="-1.6591">
        <ele>5</ele>
        <time>2026-08-23T12:41:23.000Z</time>
      </trkpt>
      <trkpt lat="43.38298" lon="-1.65877">
        <ele>4</ele>
        <time>2026-08-23T12:41:28.000Z</time>
      </trkpt>
      <trkpt lat="43.38278" lon="-1.65821">
        <ele>3</ele>
        <time>2026-08-23T12:41:36.000Z</time>
      </trkpt>
      <trkpt lat="43.38278" lon="-1.65821">
        <ele>3</ele>
        <time>2026-08-23T12:41:36.000Z</time>
      </trkpt>
      <trkpt lat="43.38233" lon="-1.65699">
        <ele>4</ele>
        <time>2026-08-23T12:41:54.000Z</time>
      </trkpt>
      <trkpt lat="43.38236" lon="-1.65679">
        <ele>4</ele>
        <time>2026-08-23T12:41:56.000Z</time>
      </trkpt>
      <trkpt lat="43.38356" lon="-1.65511">
        <ele>4</ele>
        <time>2026-08-23T12:42:27.000Z</time>
      </trkpt>
      <trkpt lat="43.38327" lon="-1.65471">
        <ele>4</ele>
        <time>2026-08-23T12:42:34.000Z</time>
      </trkpt>
      <trkpt lat="43.38324" lon="-1.65461">
        <ele>4</ele>
        <time>2026-08-23T12:42:36.000Z</time>
      </trkpt>
      <trkpt lat="43.38338" lon="-1.65441">
        <ele>5</ele>
        <time>2026-08-23T12:42:39.000Z</time>
      </trkpt>
      <trkpt lat="43.3837" lon="-1.65376">
        <ele>5</ele>
        <time>2026-08-23T12:42:49.000Z</time>
      </trkpt>
      <trkpt lat="43.3839" lon="-1.65332">
        <ele>6</ele>
        <time>2026-08-23T12:42:56.000Z</time>
      </trkpt>
      <trkpt lat="43.38395" lon="-1.65315">
        <ele>8</ele>
        <time>2026-08-23T12:42:58.000Z</time>
      </trkpt>
      <trkpt lat="43.38394" lon="-1.65295">
        <ele>10</ele>
        <time>2026-08-23T12:43:01.000Z</time>
      </trkpt>
      <trkpt lat="43.38384" lon="-1.65266">
        <ele>13</ele>
        <time>2026-08-23T12:43:05.000Z</time>
      </trkpt>
      <trkpt lat="43.38366" lon="-1.65246">
        <ele>13</ele>
        <time>2026-08-23T12:43:09.000Z</time>
      </trkpt>
      <trkpt lat="43.38344" lon="-1.65206">
        <ele>12</ele>
        <time>2026-08-23T12:43:16.000Z</time>
      </trkpt>
      <trkpt lat="43.3833" lon="-1.6517">
        <ele>12</ele>
        <time>2026-08-23T12:43:21.000Z</time>
      </trkpt>
      <trkpt lat="43.38258" lon="-1.64969">
        <ele>8</ele>
        <time>2026-08-23T12:43:50.000Z</time>
      </trkpt>
      <trkpt lat="43.3825" lon="-1.64928">
        <ele>8</ele>
        <time>2026-08-23T12:43:56.000Z</time>
      </trkpt>
      <trkpt lat="43.38253" lon="-1.64877">
        <ele>9</ele>
        <time>2026-08-23T12:44:02.000Z</time>
      </trkpt>
      <trkpt lat="43.38279" lon="-1.6461">
        <ele>7</ele>
        <time>2026-08-23T12:44:37.000Z</time>
      </trkpt>
      <trkpt lat="43.38278" lon="-1.64507">
        <ele>10</ele>
        <time>2026-08-23T12:44:50.000Z</time>
      </trkpt>
      <trkpt lat="43.38272" lon="-1.64424">
        <ele>8</ele>
        <time>2026-08-23T12:45:01.000Z</time>
      </trkpt>
      <trkpt lat="43.38264" lon="-1.64383">
        <ele>7</ele>
        <time>2026-08-23T12:45:07.000Z</time>
      </trkpt>
      <trkpt lat="43.3825" lon="-1.64341">
        <ele>5</ele>
        <time>2026-08-23T12:45:13.000Z</time>
      </trkpt>
      <trkpt lat="43.38232" lon="-1.64309">
        <ele>5</ele>
        <time>2026-08-23T12:45:18.000Z</time>
      </trkpt>
      <trkpt lat="43.38212" lon="-1.64283">
        <ele>5</ele>
        <time>2026-08-23T12:45:23.000Z</time>
      </trkpt>
      <trkpt lat="43.38155" lon="-1.6423">
        <ele>6</ele>
        <time>2026-08-23T12:45:35.000Z</time>
      </trkpt>
      <trkpt lat="43.3812" lon="-1.64193">
        <ele>6</ele>
        <time>2026-08-23T12:45:43.000Z</time>
      </trkpt>
      <trkpt lat="43.38056" lon="-1.64058">
        <ele>9</ele>
        <time>2026-08-23T12:46:04.000Z</time>
      </trkpt>
      <trkpt lat="43.37906" lon="-1.63917">
        <ele>6</ele>
        <time>2026-08-23T12:46:36.000Z</time>
      </trkpt>
      <trkpt lat="43.37776" lon="-1.63786">
        <ele>8</ele>
        <time>2026-08-23T12:47:05.000Z</time>
      </trkpt>
      <trkpt lat="43.37759" lon="-1.63774">
        <ele>8</ele>
        <time>2026-08-23T12:47:08.000Z</time>
      </trkpt>
      <trkpt lat="43.37738" lon="-1.63772">
        <ele>8</ele>
        <time>2026-08-23T12:47:12.000Z</time>
      </trkpt>
      <trkpt lat="43.37642" lon="-1.63776">
        <ele>6</ele>
        <time>2026-08-23T12:47:29.000Z</time>
      </trkpt>
      <trkpt lat="43.37604" lon="-1.63785">
        <ele>6</ele>
        <time>2026-08-23T12:47:36.000Z</time>
      </trkpt>
      <trkpt lat="43.37541" lon="-1.63786">
        <ele>5</ele>
        <time>2026-08-23T12:47:47.000Z</time>
      </trkpt>
      <trkpt lat="43.37526" lon="-1.63781">
        <ele>5</ele>
        <time>2026-08-23T12:47:50.000Z</time>
      </trkpt>
      <trkpt lat="43.37517" lon="-1.6379">
        <ele>4</ele>
        <time>2026-08-23T12:47:52.000Z</time>
      </trkpt>
      <trkpt lat="43.3751" lon="-1.63791">
        <ele>4</ele>
        <time>2026-08-23T12:47:53.000Z</time>
      </trkpt>
      <trkpt lat="43.37445" lon="-1.63794">
        <ele>4</ele>
        <time>2026-08-23T12:48:04.000Z</time>
      </trkpt>
      <trkpt lat="43.37409" lon="-1.63788">
        <ele>4</ele>
        <time>2026-08-23T12:48:11.000Z</time>
      </trkpt>
      <trkpt lat="43.37111" lon="-1.63806">
        <ele>5</ele>
        <time>2026-08-23T12:49:04.000Z</time>
      </trkpt>
      <trkpt lat="43.37085" lon="-1.63801">
        <ele>6</ele>
        <time>2026-08-23T12:49:09.000Z</time>
      </trkpt>
      <trkpt lat="43.37063" lon="-1.63793">
        <ele>6</ele>
        <time>2026-08-23T12:49:13.000Z</time>
      </trkpt>
      <trkpt lat="43.36745" lon="-1.63592">
        <ele>7</ele>
        <time>2026-08-23T12:50:15.000Z</time>
      </trkpt>
      <trkpt lat="43.36707" lon="-1.63575">
        <ele>8</ele>
        <time>2026-08-23T12:50:22.000Z</time>
      </trkpt>
      <trkpt lat="43.36676" lon="-1.63572">
        <ele>8</ele>
        <time>2026-08-23T12:50:28.000Z</time>
      </trkpt>
      <trkpt lat="43.36676" lon="-1.63572">
        <ele>8</ele>
        <time>2026-08-23T12:50:28.000Z</time>
      </trkpt>
      <trkpt lat="43.36639" lon="-1.63578">
        <ele>7</ele>
        <time>2026-08-23T12:50:34.000Z</time>
      </trkpt>
      <trkpt lat="43.36317" lon="-1.63673">
        <ele>7</ele>
        <time>2026-08-23T12:51:33.000Z</time>
      </trkpt>
      <trkpt lat="43.36273" lon="-1.63671">
        <ele>6</ele>
        <time>2026-08-23T12:51:41.000Z</time>
      </trkpt>
      <trkpt lat="43.36233" lon="-1.63654">
        <ele>6</ele>
        <time>2026-08-23T12:51:48.000Z</time>
      </trkpt>
      <trkpt lat="43.36111" lon="-1.63609">
        <ele>5</ele>
        <time>2026-08-23T12:52:11.000Z</time>
      </trkpt>
      <trkpt lat="43.36075" lon="-1.63589">
        <ele>5</ele>
        <time>2026-08-23T12:52:18.000Z</time>
      </trkpt>
      <trkpt lat="43.36061" lon="-1.63577">
        <ele>5</ele>
        <time>2026-08-23T12:52:20.000Z</time>
      </trkpt>
      <trkpt lat="43.36042" lon="-1.63555">
        <ele>6</ele>
        <time>2026-08-23T12:52:25.000Z</time>
      </trkpt>
      <trkpt lat="43.36029" lon="-1.63532">
        <ele>6</ele>
        <time>2026-08-23T12:52:29.000Z</time>
      </trkpt>
      <trkpt lat="43.36011" lon="-1.63495">
        <ele>6</ele>
        <time>2026-08-23T12:52:34.000Z</time>
      </trkpt>
      <trkpt lat="43.35991" lon="-1.63443">
        <ele>8</ele>
        <time>2026-08-23T12:52:42.000Z</time>
      </trkpt>
      <trkpt lat="43.35932" lon="-1.63351">
        <ele>9</ele>
        <time>2026-08-23T12:52:58.000Z</time>
      </trkpt>
      <trkpt lat="43.35827" lon="-1.63249">
        <ele>8</ele>
        <time>2026-08-23T12:53:21.000Z</time>
      </trkpt>
      <trkpt lat="43.35789" lon="-1.63219">
        <ele>9</ele>
        <time>2026-08-23T12:53:29.000Z</time>
      </trkpt>
      <trkpt lat="43.35749" lon="-1.63192">
        <ele>7</ele>
        <time>2026-08-23T12:53:36.000Z</time>
      </trkpt>
      <trkpt lat="43.35679" lon="-1.63165">
        <ele>6</ele>
        <time>2026-08-23T12:53:49.000Z</time>
      </trkpt>
      <trkpt lat="43.35667" lon="-1.63163">
        <ele>6</ele>
        <time>2026-08-23T12:53:52.000Z</time>
      </trkpt>
      <trkpt lat="43.35663" lon="-1.63166">
        <ele>6</ele>
        <time>2026-08-23T12:53:52.000Z</time>
      </trkpt>
      <trkpt lat="43.35657" lon="-1.63166">
        <ele>6</ele>
        <time>2026-08-23T12:53:53.000Z</time>
      </trkpt>
      <trkpt lat="43.35638" lon="-1.63154">
        <ele>6</ele>
        <time>2026-08-23T12:53:57.000Z</time>
      </trkpt>
      <trkpt lat="43.35403" lon="-1.63082">
        <ele>7</ele>
        <time>2026-08-23T12:54:40.000Z</time>
      </trkpt>
      <trkpt lat="43.35365" lon="-1.63059">
        <ele>7</ele>
        <time>2026-08-23T12:54:47.000Z</time>
      </trkpt>
      <trkpt lat="43.35332" lon="-1.63028">
        <ele>7</ele>
        <time>2026-08-23T12:54:54.000Z</time>
      </trkpt>
      <trkpt lat="43.35291" lon="-1.62977">
        <ele>6</ele>
        <time>2026-08-23T12:55:04.000Z</time>
      </trkpt>
      <trkpt lat="43.35279" lon="-1.62957">
        <ele>6</ele>
        <time>2026-08-23T12:55:08.000Z</time>
      </trkpt>
      <trkpt lat="43.35258" lon="-1.62906">
        <ele>6</ele>
        <time>2026-08-23T12:55:15.000Z</time>
      </trkpt>
      <trkpt lat="43.35207" lon="-1.62759">
        <ele>8</ele>
        <time>2026-08-23T12:55:36.000Z</time>
      </trkpt>
      <trkpt lat="43.35115" lon="-1.62529">
        <ele>11</ele>
        <time>2026-08-23T12:56:10.000Z</time>
      </trkpt>
      <trkpt lat="43.3511" lon="-1.62496">
        <ele>11</ele>
        <time>2026-08-23T12:56:15.000Z</time>
      </trkpt>
      <trkpt lat="43.35104" lon="-1.62447">
        <ele>11</ele>
        <time>2026-08-23T12:56:21.000Z</time>
      </trkpt>
      <trkpt lat="43.35104" lon="-1.62406">
        <ele>11</ele>
        <time>2026-08-23T12:56:26.000Z</time>
      </trkpt>
      <trkpt lat="43.35111" lon="-1.62332">
        <ele>11</ele>
        <time>2026-08-23T12:56:36.000Z</time>
      </trkpt>
      <trkpt lat="43.35116" lon="-1.62311">
        <ele>11</ele>
        <time>2026-08-23T12:56:39.000Z</time>
      </trkpt>
      <trkpt lat="43.35127" lon="-1.62289">
        <ele>11</ele>
        <time>2026-08-23T12:56:42.000Z</time>
      </trkpt>
      <trkpt lat="43.35181" lon="-1.62184">
        <ele>11</ele>
        <time>2026-08-23T12:56:59.000Z</time>
      </trkpt>
      <trkpt lat="43.35201" lon="-1.62156">
        <ele>12</ele>
        <time>2026-08-23T12:57:04.000Z</time>
      </trkpt>
      <trkpt lat="43.3523" lon="-1.62131">
        <ele>13</ele>
        <time>2026-08-23T12:57:10.000Z</time>
      </trkpt>
      <trkpt lat="43.35298" lon="-1.62102">
        <ele>17</ele>
        <time>2026-08-23T12:57:23.000Z</time>
      </trkpt>
      <trkpt lat="43.35384" lon="-1.6207">
        <ele>21</ele>
        <time>2026-08-23T12:57:39.000Z</time>
      </trkpt>
      <trkpt lat="43.35406" lon="-1.62059">
        <ele>21</ele>
        <time>2026-08-23T12:57:43.000Z</time>
      </trkpt>
      <trkpt lat="43.35449" lon="-1.62032">
        <ele>20</ele>
        <time>2026-08-23T12:57:51.000Z</time>
      </trkpt>
      <trkpt lat="43.35486" lon="-1.62001">
        <ele>18</ele>
        <time>2026-08-23T12:57:59.000Z</time>
      </trkpt>
      <trkpt lat="43.35515" lon="-1.61963">
        <ele>18</ele>
        <time>2026-08-23T12:58:06.000Z</time>
      </trkpt>
      <trkpt lat="43.35787" lon="-1.61535">
        <ele>14</ele>
        <time>2026-08-23T12:59:20.000Z</time>
      </trkpt>
      <trkpt lat="43.35815" lon="-1.61503">
        <ele>12</ele>
        <time>2026-08-23T12:59:26.000Z</time>
      </trkpt>
      <trkpt lat="43.35913" lon="-1.61419">
        <ele>16</ele>
        <time>2026-08-23T12:59:47.000Z</time>
      </trkpt>
      <trkpt lat="43.35934" lon="-1.61396">
        <ele>16</ele>
        <time>2026-08-23T12:59:51.000Z</time>
      </trkpt>
      <trkpt lat="43.36026" lon="-1.61276">
        <ele>11</ele>
        <time>2026-08-23T13:00:14.000Z</time>
      </trkpt>
      <trkpt lat="43.36042" lon="-1.61253">
        <ele>11</ele>
        <time>2026-08-23T13:00:18.000Z</time>
      </trkpt>
      <trkpt lat="43.36058" lon="-1.61224">
        <ele>11</ele>
        <time>2026-08-23T13:00:23.000Z</time>
      </trkpt>
      <trkpt lat="43.36075" lon="-1.61188">
        <ele>12</ele>
        <time>2026-08-23T13:00:28.000Z</time>
      </trkpt>
      <trkpt lat="43.36091" lon="-1.61139">
        <ele>13</ele>
        <time>2026-08-23T13:00:35.000Z</time>
      </trkpt>
      <trkpt lat="43.361" lon="-1.61078">
        <ele>15</ele>
        <time>2026-08-23T13:00:43.000Z</time>
      </trkpt>
      <trkpt lat="43.36105" lon="-1.61018">
        <ele>17</ele>
        <time>2026-08-23T13:00:51.000Z</time>
      </trkpt>
      <trkpt lat="43.36113" lon="-1.60838">
        <ele>16</ele>
        <time>2026-08-23T13:01:15.000Z</time>
      </trkpt>
      <trkpt lat="43.36112" lon="-1.6083">
        <ele>16</ele>
        <time>2026-08-23T13:01:16.000Z</time>
      </trkpt>
      <trkpt lat="43.36119" lon="-1.6075">
        <ele>18</ele>
        <time>2026-08-23T13:01:26.000Z</time>
      </trkpt>
      <trkpt lat="43.36118" lon="-1.607">
        <ele>18</ele>
        <time>2026-08-23T13:01:32.000Z</time>
      </trkpt>
      <trkpt lat="43.36104" lon="-1.60586">
        <ele>18</ele>
        <time>2026-08-23T13:01:47.000Z</time>
      </trkpt>
      <trkpt lat="43.36102" lon="-1.60521">
        <ele>17</ele>
        <time>2026-08-23T13:01:56.000Z</time>
      </trkpt>
      <trkpt lat="43.36109" lon="-1.60457">
        <ele>16</ele>
        <time>2026-08-23T13:02:04.000Z</time>
      </trkpt>
      <trkpt lat="43.36125" lon="-1.6041">
        <ele>15</ele>
        <time>2026-08-23T13:02:11.000Z</time>
      </trkpt>
      <trkpt lat="43.36152" lon="-1.60365">
        <ele>14</ele>
        <time>2026-08-23T13:02:18.000Z</time>
      </trkpt>
      <trkpt lat="43.36173" lon="-1.60338">
        <ele>13</ele>
        <time>2026-08-23T13:02:24.000Z</time>
      </trkpt>
      <trkpt lat="43.36203" lon="-1.60308">
        <ele>15</ele>
        <time>2026-08-23T13:02:30.000Z</time>
      </trkpt>
      <trkpt lat="43.36265" lon="-1.60257">
        <ele>19</ele>
        <time>2026-08-23T13:02:43.000Z</time>
      </trkpt>
      <trkpt lat="43.36299" lon="-1.60225">
        <ele>21</ele>
        <time>2026-08-23T13:02:50.000Z</time>
      </trkpt>
      <trkpt lat="43.36326" lon="-1.60185">
        <ele>18</ele>
        <time>2026-08-23T13:02:57.000Z</time>
      </trkpt>
      <trkpt lat="43.36345" lon="-1.6014">
        <ele>16</ele>
        <time>2026-08-23T13:03:04.000Z</time>
      </trkpt>
      <trkpt lat="43.36369" lon="-1.60073">
        <ele>15</ele>
        <time>2026-08-23T13:03:14.000Z</time>
      </trkpt>
      <trkpt lat="43.36392" lon="-1.60032">
        <ele>14</ele>
        <time>2026-08-23T13:03:21.000Z</time>
      </trkpt>
      <trkpt lat="43.36426" lon="-1.59985">
        <ele>13</ele>
        <time>2026-08-23T13:03:29.000Z</time>
      </trkpt>
      <trkpt lat="43.36476" lon="-1.5994">
        <ele>14</ele>
        <time>2026-08-23T13:03:40.000Z</time>
      </trkpt>
      <trkpt lat="43.36533" lon="-1.59897">
        <ele>16</ele>
        <time>2026-08-23T13:03:51.000Z</time>
      </trkpt>
      <trkpt lat="43.36549" lon="-1.59873">
        <ele>17</ele>
        <time>2026-08-23T13:03:56.000Z</time>
      </trkpt>
      <trkpt lat="43.36562" lon="-1.59843">
        <ele>18</ele>
        <time>2026-08-23T13:04:00.000Z</time>
      </trkpt>
      <trkpt lat="43.36567" lon="-1.59809">
        <ele>18</ele>
        <time>2026-08-23T13:04:05.000Z</time>
      </trkpt>
      <trkpt lat="43.36588" lon="-1.59546">
        <ele>11</ele>
        <time>2026-08-23T13:04:39.000Z</time>
      </trkpt>
      <trkpt lat="43.36592" lon="-1.59482">
        <ele>9</ele>
        <time>2026-08-23T13:04:47.000Z</time>
      </trkpt>
      <trkpt lat="43.36589" lon="-1.5943">
        <ele>9</ele>
        <time>2026-08-23T13:04:54.000Z</time>
      </trkpt>
      <trkpt lat="43.36581" lon="-1.59376">
        <ele>9</ele>
        <time>2026-08-23T13:05:01.000Z</time>
      </trkpt>
      <trkpt lat="43.36482" lon="-1.59044">
        <ele>9</ele>
        <time>2026-08-23T13:05:47.000Z</time>
      </trkpt>
      <trkpt lat="43.3646" lon="-1.58976">
        <ele>11</ele>
        <time>2026-08-23T13:05:57.000Z</time>
      </trkpt>
      <trkpt lat="43.36444" lon="-1.58941">
        <ele>12</ele>
        <time>2026-08-23T13:06:02.000Z</time>
      </trkpt>
      <trkpt lat="43.36427" lon="-1.58913">
        <ele>13</ele>
        <time>2026-08-23T13:06:07.000Z</time>
      </trkpt>
      <trkpt lat="43.36402" lon="-1.58885">
        <ele>17</ele>
        <time>2026-08-23T13:06:13.000Z</time>
      </trkpt>
      <trkpt lat="43.36308" lon="-1.58801">
        <ele>19</ele>
        <time>2026-08-23T13:06:33.000Z</time>
      </trkpt>
      <trkpt lat="43.3628" lon="-1.58766">
        <ele>18</ele>
        <time>2026-08-23T13:06:39.000Z</time>
      </trkpt>
      <trkpt lat="43.36257" lon="-1.58723">
        <ele>14</ele>
        <time>2026-08-23T13:06:46.000Z</time>
      </trkpt>
      <trkpt lat="43.36164" lon="-1.58429">
        <ele>12</ele>
        <time>2026-08-23T13:07:28.000Z</time>
      </trkpt>
      <trkpt lat="43.36139" lon="-1.58363">
        <ele>12</ele>
        <time>2026-08-23T13:07:37.000Z</time>
      </trkpt>
      <trkpt lat="43.36129" lon="-1.58341">
        <ele>12</ele>
        <time>2026-08-23T13:07:41.000Z</time>
      </trkpt>
      <trkpt lat="43.36109" lon="-1.58303">
        <ele>12</ele>
        <time>2026-08-23T13:07:47.000Z</time>
      </trkpt>
      <trkpt lat="43.36003" lon="-1.58148">
        <ele>11</ele>
        <time>2026-08-23T13:08:14.000Z</time>
      </trkpt>
      <trkpt lat="43.35894" lon="-1.57993">
        <ele>11</ele>
        <time>2026-08-23T13:08:42.000Z</time>
      </trkpt>
      <trkpt lat="43.35864" lon="-1.57937">
        <ele>12</ele>
        <time>2026-08-23T13:08:51.000Z</time>
      </trkpt>
      <trkpt lat="43.35852" lon="-1.57913">
        <ele>12</ele>
        <time>2026-08-23T13:08:55.000Z</time>
      </trkpt>
      <trkpt lat="43.35838" lon="-1.57869">
        <ele>11</ele>
        <time>2026-08-23T13:09:01.000Z</time>
      </trkpt>
      <trkpt lat="43.35807" lon="-1.5772">
        <ele>12</ele>
        <time>2026-08-23T13:09:21.000Z</time>
      </trkpt>
      <trkpt lat="43.35782" lon="-1.57586">
        <ele>13</ele>
        <time>2026-08-23T13:09:39.000Z</time>
      </trkpt>
      <trkpt lat="43.35779" lon="-1.57552">
        <ele>13</ele>
        <time>2026-08-23T13:09:44.000Z</time>
      </trkpt>
      <trkpt lat="43.35779" lon="-1.57526">
        <ele>13</ele>
        <time>2026-08-23T13:09:47.000Z</time>
      </trkpt>
      <trkpt lat="43.35774" lon="-1.5748">
        <ele>13</ele>
        <time>2026-08-23T13:09:53.000Z</time>
      </trkpt>
      <trkpt lat="43.3577" lon="-1.57476">
        <ele>13</ele>
        <time>2026-08-23T13:09:54.000Z</time>
      </trkpt>
      <trkpt lat="43.35768" lon="-1.57469">
        <ele>13</ele>
        <time>2026-08-23T13:09:55.000Z</time>
      </trkpt>
      <trkpt lat="43.35771" lon="-1.57459">
        <ele>13</ele>
        <time>2026-08-23T13:09:56.000Z</time>
      </trkpt>
      <trkpt lat="43.35763" lon="-1.57418">
        <ele>13</ele>
        <time>2026-08-23T13:10:02.000Z</time>
      </trkpt>
      <trkpt lat="43.35745" lon="-1.57225">
        <ele>14</ele>
        <time>2026-08-23T13:10:27.000Z</time>
      </trkpt>
      <trkpt lat="43.3574" lon="-1.57189">
        <ele>15</ele>
        <time>2026-08-23T13:10:32.000Z</time>
      </trkpt>
      <trkpt lat="43.35733" lon="-1.5716">
        <ele>15</ele>
        <time>2026-08-23T13:10:36.000Z</time>
      </trkpt>
      <trkpt lat="43.35723" lon="-1.5713">
        <ele>15</ele>
        <time>2026-08-23T13:10:40.000Z</time>
      </trkpt>
      <trkpt lat="43.35625" lon="-1.56922">
        <ele>17</ele>
        <time>2026-08-23T13:11:12.000Z</time>
      </trkpt>
      <trkpt lat="43.35608" lon="-1.56893">
        <ele>17</ele>
        <time>2026-08-23T13:11:17.000Z</time>
      </trkpt>
      <trkpt lat="43.35593" lon="-1.56864">
        <ele>17</ele>
        <time>2026-08-23T13:11:21.000Z</time>
      </trkpt>
      <trkpt lat="43.35588" lon="-1.56851">
        <ele>17</ele>
        <time>2026-08-23T13:11:23.000Z</time>
      </trkpt>
      <trkpt lat="43.35585" lon="-1.56823">
        <ele>17</ele>
        <time>2026-08-23T13:11:27.000Z</time>
      </trkpt>
      <trkpt lat="43.35587" lon="-1.56801">
        <ele>17</ele>
        <time>2026-08-23T13:11:30.000Z</time>
      </trkpt>
      <trkpt lat="43.35592" lon="-1.56778">
        <ele>17</ele>
        <time>2026-08-23T13:11:33.000Z</time>
      </trkpt>
      <trkpt lat="43.35617" lon="-1.56692">
        <ele>19</ele>
        <time>2026-08-23T13:11:45.000Z</time>
      </trkpt>
      <trkpt lat="43.35625" lon="-1.56642">
        <ele>19</ele>
        <time>2026-08-23T13:11:52.000Z</time>
      </trkpt>
      <trkpt lat="43.35625" lon="-1.56614">
        <ele>19</ele>
        <time>2026-08-23T13:11:55.000Z</time>
      </trkpt>
      <trkpt lat="43.35622" lon="-1.56613">
        <ele>19</ele>
        <time>2026-08-23T13:11:56.000Z</time>
      </trkpt>
      <trkpt lat="43.35617" lon="-1.56604">
        <ele>19</ele>
        <time>2026-08-23T13:11:57.000Z</time>
      </trkpt>
      <trkpt lat="43.35617" lon="-1.566">
        <ele>19</ele>
        <time>2026-08-23T13:11:58.000Z</time>
      </trkpt>
      <trkpt lat="43.35622" lon="-1.56592">
        <ele>19</ele>
        <time>2026-08-23T13:11:59.000Z</time>
      </trkpt>
      <trkpt lat="43.35625" lon="-1.56591">
        <ele>19</ele>
        <time>2026-08-23T13:12:00.000Z</time>
      </trkpt>
      <trkpt lat="43.35622" lon="-1.56558">
        <ele>19</ele>
        <time>2026-08-23T13:12:04.000Z</time>
      </trkpt>
      <trkpt lat="43.35622" lon="-1.56509">
        <ele>19</ele>
        <time>2026-08-23T13:12:10.000Z</time>
      </trkpt>
      <trkpt lat="43.35615" lon="-1.56214">
        <ele>19</ele>
        <time>2026-08-23T13:12:48.000Z</time>
      </trkpt>
      <trkpt lat="43.35617" lon="-1.5617">
        <ele>19</ele>
        <time>2026-08-23T13:12:54.000Z</time>
      </trkpt>
      <trkpt lat="43.35625" lon="-1.56126">
        <ele>18</ele>
        <time>2026-08-23T13:13:00.000Z</time>
      </trkpt>
      <trkpt lat="43.35635" lon="-1.56106">
        <ele>18</ele>
        <time>2026-08-23T13:13:03.000Z</time>
      </trkpt>
      <trkpt lat="43.35652" lon="-1.56086">
        <ele>18</ele>
        <time>2026-08-23T13:13:07.000Z</time>
      </trkpt>
      <trkpt lat="43.35627" lon="-1.56036">
        <ele>16</ele>
        <time>2026-08-23T13:13:15.000Z</time>
      </trkpt>
      <trkpt lat="43.35597" lon="-1.55988">
        <ele>15</ele>
        <time>2026-08-23T13:13:23.000Z</time>
      </trkpt>
      <trkpt lat="43.35594" lon="-1.55961">
        <ele>15</ele>
        <time>2026-08-23T13:13:27.000Z</time>
      </trkpt>
      <trkpt lat="43.35601" lon="-1.5592">
        <ele>14</ele>
        <time>2026-08-23T13:13:32.000Z</time>
      </trkpt>
      <trkpt lat="43.35596" lon="-1.55849">
        <ele>15</ele>
        <time>2026-08-23T13:13:41.000Z</time>
      </trkpt>
      <trkpt lat="43.35588" lon="-1.55806">
        <ele>15</ele>
        <time>2026-08-23T13:13:47.000Z</time>
      </trkpt>
      <trkpt lat="43.35585" lon="-1.55759">
        <ele>16</ele>
        <time>2026-08-23T13:13:53.000Z</time>
      </trkpt>
      <trkpt lat="43.35586" lon="-1.5563">
        <ele>16</ele>
        <time>2026-08-23T13:14:10.000Z</time>
      </trkpt>
      <trkpt lat="43.35583" lon="-1.55545">
        <ele>14</ele>
        <time>2026-08-23T13:14:21.000Z</time>
      </trkpt>
      <trkpt lat="43.3558" lon="-1.55498">
        <ele>13</ele>
        <time>2026-08-23T13:14:27.000Z</time>
      </trkpt>
      <trkpt lat="43.35577" lon="-1.55474">
        <ele>14</ele>
        <time>2026-08-23T13:14:30.000Z</time>
      </trkpt>
      <trkpt lat="43.35574" lon="-1.55465">
        <ele>14</ele>
        <time>2026-08-23T13:14:31.000Z</time>
      </trkpt>
      <trkpt lat="43.35563" lon="-1.55444">
        <ele>15</ele>
        <time>2026-08-23T13:14:35.000Z</time>
      </trkpt>
      <trkpt lat="43.35552" lon="-1.55434">
        <ele>15</ele>
        <time>2026-08-23T13:14:37.000Z</time>
      </trkpt>
      <trkpt lat="43.35543" lon="-1.5543">
        <ele>15</ele>
        <time>2026-08-23T13:14:39.000Z</time>
      </trkpt>
      <trkpt lat="43.35538" lon="-1.55421">
        <ele>15</ele>
        <time>2026-08-23T13:14:40.000Z</time>
      </trkpt>
      <trkpt lat="43.35537" lon="-1.55411">
        <ele>16</ele>
        <time>2026-08-23T13:14:42.000Z</time>
      </trkpt>
      <trkpt lat="43.35523" lon="-1.55388">
        <ele>16</ele>
        <time>2026-08-23T13:14:46.000Z</time>
      </trkpt>
      <trkpt lat="43.35509" lon="-1.55378">
        <ele>16</ele>
        <time>2026-08-23T13:14:48.000Z</time>
      </trkpt>
      <trkpt lat="43.35496" lon="-1.55373">
        <ele>16</ele>
        <time>2026-08-23T13:14:51.000Z</time>
      </trkpt>
      <trkpt lat="43.35483" lon="-1.5537">
        <ele>16</ele>
        <time>2026-08-23T13:14:53.000Z</time>
      </trkpt>
      <trkpt lat="43.35456" lon="-1.55371">
        <ele>16</ele>
        <time>2026-08-23T13:14:58.000Z</time>
      </trkpt>
      <trkpt lat="43.35398" lon="-1.5538">
        <ele>16</ele>
        <time>2026-08-23T13:15:08.000Z</time>
      </trkpt>
      <trkpt lat="43.35369" lon="-1.55382">
        <ele>16</ele>
        <time>2026-08-23T13:15:13.000Z</time>
      </trkpt>
      <trkpt lat="43.35338" lon="-1.55377">
        <ele>16</ele>
        <time>2026-08-23T13:15:19.000Z</time>
      </trkpt>
      <trkpt lat="43.35313" lon="-1.55363">
        <ele>17</ele>
        <time>2026-08-23T13:15:24.000Z</time>
      </trkpt>
      <trkpt lat="43.35293" lon="-1.55347">
        <ele>17</ele>
        <time>2026-08-23T13:15:28.000Z</time>
      </trkpt>
      <trkpt lat="43.35285" lon="-1.55337">
        <ele>18</ele>
        <time>2026-08-23T13:15:30.000Z</time>
      </trkpt>
      <trkpt lat="43.35285" lon="-1.55337">
        <ele>18</ele>
        <time>2026-08-23T13:15:30.000Z</time>
      </trkpt>
      <trkpt lat="43.35274" lon="-1.55324">
        <ele>18</ele>
        <time>2026-08-23T13:15:32.000Z</time>
      </trkpt>
      <trkpt lat="43.35261" lon="-1.55301">
        <ele>17</ele>
        <time>2026-08-23T13:15:36.000Z</time>
      </trkpt>
      <trkpt lat="43.35123" lon="-1.5499">
        <ele>18</ele>
        <time>2026-08-23T13:16:23.000Z</time>
      </trkpt>
      <trkpt lat="43.35117" lon="-1.54993">
        <ele>18</ele>
        <time>2026-08-23T13:16:24.000Z</time>
      </trkpt>
      <trkpt lat="43.3511" lon="-1.54994">
        <ele>18</ele>
        <time>2026-08-23T13:16:26.000Z</time>
      </trkpt>
      <trkpt lat="43.35104" lon="-1.54993">
        <ele>18</ele>
        <time>2026-08-23T13:16:27.000Z</time>
      </trkpt>
      <trkpt lat="43.35098" lon="-1.54988">
        <ele>18</ele>
        <time>2026-08-23T13:16:28.000Z</time>
      </trkpt>
      <trkpt lat="43.35078" lon="-1.54991">
        <ele>19</ele>
        <time>2026-08-23T13:16:32.000Z</time>
      </trkpt>
      <trkpt lat="43.34874" lon="-1.55162">
        <ele>21</ele>
        <time>2026-08-23T13:17:14.000Z</time>
      </trkpt>
      <trkpt lat="43.34865" lon="-1.55186">
        <ele>20</ele>
        <time>2026-08-23T13:17:18.000Z</time>
      </trkpt>
      <trkpt lat="43.34857" lon="-1.5523">
        <ele>19</ele>
        <time>2026-08-23T13:17:23.000Z</time>
      </trkpt>
      <trkpt lat="43.34847" lon="-1.55243">
        <ele>18</ele>
        <time>2026-08-23T13:17:26.000Z</time>
      </trkpt>
      <trkpt lat="43.34831" lon="-1.55248">
        <ele>18</ele>
        <time>2026-08-23T13:17:29.000Z</time>
      </trkpt>
      <trkpt lat="43.34821" lon="-1.55247">
        <ele>18</ele>
        <time>2026-08-23T13:17:31.000Z</time>
      </trkpt>
      <trkpt lat="43.34801" lon="-1.55235">
        <ele>19</ele>
        <time>2026-08-23T13:17:35.000Z</time>
      </trkpt>
      <trkpt lat="43.34597" lon="-1.55214">
        <ele>19</ele>
        <time>2026-08-23T13:18:11.000Z</time>
      </trkpt>
      <trkpt lat="43.34571" lon="-1.55205">
        <ele>19</ele>
        <time>2026-08-23T13:18:16.000Z</time>
      </trkpt>
      <trkpt lat="43.34548" lon="-1.55189">
        <ele>20</ele>
        <time>2026-08-23T13:18:20.000Z</time>
      </trkpt>
      <trkpt lat="43.3449" lon="-1.55114">
        <ele>22</ele>
        <time>2026-08-23T13:18:34.000Z</time>
      </trkpt>
      <trkpt lat="43.3434" lon="-1.5491">
        <ele>30</ele>
        <time>2026-08-23T13:19:12.000Z</time>
      </trkpt>
      <trkpt lat="43.34313" lon="-1.54884">
        <ele>30</ele>
        <time>2026-08-23T13:19:18.000Z</time>
      </trkpt>
      <trkpt lat="43.34293" lon="-1.54871">
        <ele>30</ele>
        <time>2026-08-23T13:19:22.000Z</time>
      </trkpt>
      <trkpt lat="43.34268" lon="-1.54861">
        <ele>31</ele>
        <time>2026-08-23T13:19:26.000Z</time>
      </trkpt>
      <trkpt lat="43.34239" lon="-1.54859">
        <ele>32</ele>
        <time>2026-08-23T13:19:32.000Z</time>
      </trkpt>
      <trkpt lat="43.34212" lon="-1.54863">
        <ele>33</ele>
        <time>2026-08-23T13:19:36.000Z</time>
      </trkpt>
      <trkpt lat="43.34187" lon="-1.54872">
        <ele>34</ele>
        <time>2026-08-23T13:19:41.000Z</time>
      </trkpt>
      <trkpt lat="43.33939" lon="-1.55026">
        <ele>44</ele>
        <time>2026-08-23T13:20:29.000Z</time>
      </trkpt>
      <trkpt lat="43.33917" lon="-1.55038">
        <ele>45</ele>
        <time>2026-08-23T13:20:34.000Z</time>
      </trkpt>
      <trkpt lat="43.33903" lon="-1.55043">
        <ele>44</ele>
        <time>2026-08-23T13:20:36.000Z</time>
      </trkpt>
      <trkpt lat="43.33886" lon="-1.55044">
        <ele>42</ele>
        <time>2026-08-23T13:20:39.000Z</time>
      </trkpt>
      <trkpt lat="43.33855" lon="-1.5503">
        <ele>39</ele>
        <time>2026-08-23T13:20:45.000Z</time>
      </trkpt>
      <trkpt lat="43.33689" lon="-1.54934">
        <ele>34</ele>
        <time>2026-08-23T13:21:17.000Z</time>
      </trkpt>
      <trkpt lat="43.33606" lon="-1.54902">
        <ele>38</ele>
        <time>2026-08-23T13:21:32.000Z</time>
      </trkpt>
      <trkpt lat="43.33528" lon="-1.54864">
        <ele>36</ele>
        <time>2026-08-23T13:21:47.000Z</time>
      </trkpt>
      <trkpt lat="43.33451" lon="-1.54835">
        <ele>35</ele>
        <time>2026-08-23T13:22:01.000Z</time>
      </trkpt>
      <trkpt lat="43.33342" lon="-1.5481">
        <ele>40</ele>
        <time>2026-08-23T13:22:21.000Z</time>
      </trkpt>
      <trkpt lat="43.33316" lon="-1.54798">
        <ele>42</ele>
        <time>2026-08-23T13:22:26.000Z</time>
      </trkpt>
      <trkpt lat="43.33231" lon="-1.54721">
        <ele>41</ele>
        <time>2026-08-23T13:22:44.000Z</time>
      </trkpt>
      <trkpt lat="43.3321" lon="-1.54694">
        <ele>39</ele>
        <time>2026-08-23T13:22:49.000Z</time>
      </trkpt>
      <trkpt lat="43.33195" lon="-1.54663">
        <ele>37</ele>
        <time>2026-08-23T13:22:54.000Z</time>
      </trkpt>
      <trkpt lat="43.3317" lon="-1.54594">
        <ele>35</ele>
        <time>2026-08-23T13:23:04.000Z</time>
      </trkpt>
      <trkpt lat="43.33146" lon="-1.54555">
        <ele>34</ele>
        <time>2026-08-23T13:23:11.000Z</time>
      </trkpt>
      <trkpt lat="43.331" lon="-1.54501">
        <ele>33</ele>
        <time>2026-08-23T13:23:21.000Z</time>
      </trkpt>
      <trkpt lat="43.33052" lon="-1.54449">
        <ele>32</ele>
        <time>2026-08-23T13:23:32.000Z</time>
      </trkpt>
      <trkpt lat="43.33034" lon="-1.54441">
        <ele>31</ele>
        <time>2026-08-23T13:23:36.000Z</time>
      </trkpt>
      <trkpt lat="43.33014" lon="-1.54435">
        <ele>31</ele>
        <time>2026-08-23T13:23:39.000Z</time>
      </trkpt>
      <trkpt lat="43.32992" lon="-1.54437">
        <ele>31</ele>
        <time>2026-08-23T13:23:43.000Z</time>
      </trkpt>
      <trkpt lat="43.32973" lon="-1.54445">
        <ele>31</ele>
        <time>2026-08-23T13:23:47.000Z</time>
      </trkpt>
      <trkpt lat="43.32897" lon="-1.54491">
        <ele>33</ele>
        <time>2026-08-23T13:24:01.000Z</time>
      </trkpt>
      <trkpt lat="43.32832" lon="-1.54536">
        <ele>38</ele>
        <time>2026-08-23T13:24:14.000Z</time>
      </trkpt>
      <trkpt lat="43.32568" lon="-1.5481">
        <ele>37</ele>
        <time>2026-08-23T13:25:13.000Z</time>
      </trkpt>
      <trkpt lat="43.32463" lon="-1.54892">
        <ele>34</ele>
        <time>2026-08-23T13:25:35.000Z</time>
      </trkpt>
      <trkpt lat="43.3238" lon="-1.54929">
        <ele>32</ele>
        <time>2026-08-23T13:25:50.000Z</time>
      </trkpt>
      <trkpt lat="43.32181" lon="-1.55023">
        <ele>30</ele>
        <time>2026-08-23T13:26:28.000Z</time>
      </trkpt>
      <trkpt lat="43.32152" lon="-1.55048">
        <ele>31</ele>
        <time>2026-08-23T13:26:34.000Z</time>
      </trkpt>
      <trkpt lat="43.3214" lon="-1.55075">
        <ele>32</ele>
        <time>2026-08-23T13:26:38.000Z</time>
      </trkpt>
      <trkpt lat="43.32091" lon="-1.55274">
        <ele>33</ele>
        <time>2026-08-23T13:27:05.000Z</time>
      </trkpt>
      <trkpt lat="43.32078" lon="-1.55312">
        <ele>33</ele>
        <time>2026-08-23T13:27:10.000Z</time>
      </trkpt>
      <trkpt lat="43.32064" lon="-1.55338">
        <ele>34</ele>
        <time>2026-08-23T13:27:15.000Z</time>
      </trkpt>
      <trkpt lat="43.32044" lon="-1.5536">
        <ele>34</ele>
        <time>2026-08-23T13:27:19.000Z</time>
      </trkpt>
      <trkpt lat="43.32012" lon="-1.5539">
        <ele>35</ele>
        <time>2026-08-23T13:27:26.000Z</time>
      </trkpt>
      <trkpt lat="43.32003" lon="-1.55401">
        <ele>35</ele>
        <time>2026-08-23T13:27:28.000Z</time>
      </trkpt>
      <trkpt lat="43.31993" lon="-1.55427">
        <ele>35</ele>
        <time>2026-08-23T13:27:32.000Z</time>
      </trkpt>
      <trkpt lat="43.31962" lon="-1.55573">
        <ele>37</ele>
        <time>2026-08-23T13:27:52.000Z</time>
      </trkpt>
      <trkpt lat="43.31945" lon="-1.55643">
        <ele>40</ele>
        <time>2026-08-23T13:28:01.000Z</time>
      </trkpt>
      <trkpt lat="43.31935" lon="-1.55665">
        <ele>41</ele>
        <time>2026-08-23T13:28:05.000Z</time>
      </trkpt>
      <trkpt lat="43.3192" lon="-1.55689">
        <ele>43</ele>
        <time>2026-08-23T13:28:09.000Z</time>
      </trkpt>
      <trkpt lat="43.31861" lon="-1.55769">
        <ele>46</ele>
        <time>2026-08-23T13:28:23.000Z</time>
      </trkpt>
      <trkpt lat="43.31803" lon="-1.55869">
        <ele>49</ele>
        <time>2026-08-23T13:28:40.000Z</time>
      </trkpt>
      <trkpt lat="43.3177" lon="-1.55915">
        <ele>50</ele>
        <time>2026-08-23T13:28:48.000Z</time>
      </trkpt>
      <trkpt lat="43.31763" lon="-1.55933">
        <ele>51</ele>
        <time>2026-08-23T13:28:51.000Z</time>
      </trkpt>
      <trkpt lat="43.31754" lon="-1.55974">
        <ele>52</ele>
        <time>2026-08-23T13:28:57.000Z</time>
      </trkpt>
      <trkpt lat="43.31745" lon="-1.55991">
        <ele>53</ele>
        <time>2026-08-23T13:28:59.000Z</time>
      </trkpt>
      <trkpt lat="43.31662" lon="-1.56079">
        <ele>57</ele>
        <time>2026-08-23T13:29:18.000Z</time>
      </trkpt>
      <trkpt lat="43.31642" lon="-1.56131">
        <ele>56</ele>
        <time>2026-08-23T13:29:26.000Z</time>
      </trkpt>
      <trkpt lat="43.31622" lon="-1.56198">
        <ele>57</ele>
        <time>2026-08-23T13:29:35.000Z</time>
      </trkpt>
      <trkpt lat="43.31593" lon="-1.56278">
        <ele>59</ele>
        <time>2026-08-23T13:29:47.000Z</time>
      </trkpt>
      <trkpt lat="43.3154" lon="-1.56403">
        <ele>59</ele>
        <time>2026-08-23T13:30:05.000Z</time>
      </trkpt>
      <trkpt lat="43.31526" lon="-1.56448">
        <ele>61</ele>
        <time>2026-08-23T13:30:12.000Z</time>
      </trkpt>
      <trkpt lat="43.31506" lon="-1.56527">
        <ele>61</ele>
        <time>2026-08-23T13:30:22.000Z</time>
      </trkpt>
      <trkpt lat="43.31483" lon="-1.56578">
        <ele>60</ele>
        <time>2026-08-23T13:30:30.000Z</time>
      </trkpt>
      <trkpt lat="43.31458" lon="-1.56642">
        <ele>61</ele>
        <time>2026-08-23T13:30:40.000Z</time>
      </trkpt>
      <trkpt lat="43.3144" lon="-1.56704">
        <ele>65</ele>
        <time>2026-08-23T13:30:48.000Z</time>
      </trkpt>
      <trkpt lat="43.31425" lon="-1.56729">
        <ele>67</ele>
        <time>2026-08-23T13:30:52.000Z</time>
      </trkpt>
      <trkpt lat="43.31413" lon="-1.56743">
        <ele>69</ele>
        <time>2026-08-23T13:30:55.000Z</time>
      </trkpt>
      <trkpt lat="43.31398" lon="-1.56747">
        <ele>70</ele>
        <time>2026-08-23T13:30:58.000Z</time>
      </trkpt>
      <trkpt lat="43.31393" lon="-1.56744">
        <ele>70</ele>
        <time>2026-08-23T13:30:59.000Z</time>
      </trkpt>
      <trkpt lat="43.31385" lon="-1.56735">
        <ele>69</ele>
        <time>2026-08-23T13:31:01.000Z</time>
      </trkpt>
      <trkpt lat="43.31371" lon="-1.56728">
        <ele>70</ele>
        <time>2026-08-23T13:31:03.000Z</time>
      </trkpt>
      <trkpt lat="43.31347" lon="-1.56722">
        <ele>70</ele>
        <time>2026-08-23T13:31:08.000Z</time>
      </trkpt>
      <trkpt lat="43.31317" lon="-1.56719">
        <ele>70</ele>
        <time>2026-08-23T13:31:13.000Z</time>
      </trkpt>
      <trkpt lat="43.313" lon="-1.56728">
        <ele>70</ele>
        <time>2026-08-23T13:31:16.000Z</time>
      </trkpt>
      <trkpt lat="43.31136" lon="-1.56937">
        <ele>68</ele>
        <time>2026-08-23T13:31:56.000Z</time>
      </trkpt>
      <trkpt lat="43.31105" lon="-1.56974">
        <ele>64</ele>
        <time>2026-08-23T13:32:03.000Z</time>
      </trkpt>
      <trkpt lat="43.31086" lon="-1.5699">
        <ele>63</ele>
        <time>2026-08-23T13:32:07.000Z</time>
      </trkpt>
      <trkpt lat="43.31036" lon="-1.57021">
        <ele>56</ele>
        <time>2026-08-23T13:32:17.000Z</time>
      </trkpt>
      <trkpt lat="43.31016" lon="-1.5704">
        <ele>53</ele>
        <time>2026-08-23T13:32:22.000Z</time>
      </trkpt>
      <trkpt lat="43.30968" lon="-1.57201">
        <ele>47</ele>
        <time>2026-08-23T13:32:44.000Z</time>
      </trkpt>
      <trkpt lat="43.30968" lon="-1.57222">
        <ele>47</ele>
        <time>2026-08-23T13:32:47.000Z</time>
      </trkpt>
      <trkpt lat="43.30976" lon="-1.5723">
        <ele>48</ele>
        <time>2026-08-23T13:32:49.000Z</time>
      </trkpt>
      <trkpt lat="43.31017" lon="-1.57235">
        <ele>47</ele>
        <time>2026-08-23T13:32:56.000Z</time>
      </trkpt>
      <trkpt lat="43.3105" lon="-1.57243">
        <ele>46</ele>
        <time>2026-08-23T13:33:02.000Z</time>
      </trkpt>
      <trkpt lat="43.31078" lon="-1.57256">
        <ele>44</ele>
        <time>2026-08-23T13:33:07.000Z</time>
      </trkpt>
      <trkpt lat="43.31101" lon="-1.57276">
        <ele>45</ele>
        <time>2026-08-23T13:33:12.000Z</time>
      </trkpt>
      <trkpt lat="43.31157" lon="-1.57331">
        <ele>49</ele>
        <time>2026-08-23T13:33:24.000Z</time>
      </trkpt>
      <trkpt lat="43.31256" lon="-1.57421">
        <ele>51</ele>
        <time>2026-08-23T13:33:45.000Z</time>
      </trkpt>
      <trkpt lat="43.31333" lon="-1.57478">
        <ele>53</ele>
        <time>2026-08-23T13:34:01.000Z</time>
      </trkpt>
      <trkpt lat="43.31351" lon="-1.57496">
        <ele>53</ele>
        <time>2026-08-23T13:34:05.000Z</time>
      </trkpt>
      <trkpt lat="43.31359" lon="-1.57506">
        <ele>54</ele>
        <time>2026-08-23T13:34:07.000Z</time>
      </trkpt>
      <trkpt lat="43.31383" lon="-1.57568">
        <ele>56</ele>
        <time>2026-08-23T13:34:16.000Z</time>
      </trkpt>
      <trkpt lat="43.31499" lon="-1.57987">
        <ele>55</ele>
        <time>2026-08-23T13:35:14.000Z</time>
      </trkpt>
      <trkpt lat="43.31503" lon="-1.5802">
        <ele>56</ele>
        <time>2026-08-23T13:35:18.000Z</time>
      </trkpt>
      <trkpt lat="43.31499" lon="-1.58057">
        <ele>56</ele>
        <time>2026-08-23T13:35:23.000Z</time>
      </trkpt>
      <trkpt lat="43.31492" lon="-1.58083">
        <ele>57</ele>
        <time>2026-08-23T13:35:27.000Z</time>
      </trkpt>
      <trkpt lat="43.31465" lon="-1.58148">
        <ele>58</ele>
        <time>2026-08-23T13:35:36.000Z</time>
      </trkpt>
      <trkpt lat="43.31458" lon="-1.58171">
        <ele>59</ele>
        <time>2026-08-23T13:35:40.000Z</time>
      </trkpt>
      <trkpt lat="43.31455" lon="-1.58201">
        <ele>59</ele>
        <time>2026-08-23T13:35:43.000Z</time>
      </trkpt>
      <trkpt lat="43.31454" lon="-1.58227">
        <ele>60</ele>
        <time>2026-08-23T13:35:47.000Z</time>
      </trkpt>
      <trkpt lat="43.31455" lon="-1.58249">
        <ele>60</ele>
        <time>2026-08-23T13:35:50.000Z</time>
      </trkpt>
      <trkpt lat="43.3146" lon="-1.58271">
        <ele>61</ele>
        <time>2026-08-23T13:35:53.000Z</time>
      </trkpt>
      <trkpt lat="43.31465" lon="-1.58272">
        <ele>61</ele>
        <time>2026-08-23T13:35:54.000Z</time>
      </trkpt>
      <trkpt lat="43.31471" lon="-1.58281">
        <ele>61</ele>
        <time>2026-08-23T13:35:55.000Z</time>
      </trkpt>
      <trkpt lat="43.31473" lon="-1.58293">
        <ele>61</ele>
        <time>2026-08-23T13:35:57.000Z</time>
      </trkpt>
      <trkpt lat="43.3147" lon="-1.58305">
        <ele>62</ele>
        <time>2026-08-23T13:35:58.000Z</time>
      </trkpt>
      <trkpt lat="43.31461" lon="-1.58312">
        <ele>62</ele>
        <time>2026-08-23T13:36:00.000Z</time>
      </trkpt>
      <trkpt lat="43.31452" lon="-1.5831">
        <ele>61</ele>
        <time>2026-08-23T13:36:02.000Z</time>
      </trkpt>
      <trkpt lat="43.31443" lon="-1.58319">
        <ele>61</ele>
        <time>2026-08-23T13:36:04.000Z</time>
      </trkpt>
      <trkpt lat="43.31425" lon="-1.58356">
        <ele>61</ele>
        <time>2026-08-23T13:36:10.000Z</time>
      </trkpt>
      <trkpt lat="43.31412" lon="-1.58371">
        <ele>61</ele>
        <time>2026-08-23T13:36:13.000Z</time>
      </trkpt>
      <trkpt lat="43.31351" lon="-1.58408">
        <ele>61</ele>
        <time>2026-08-23T13:36:24.000Z</time>
      </trkpt>
      <trkpt lat="43.31319" lon="-1.58425">
        <ele>61</ele>
        <time>2026-08-23T13:36:31.000Z</time>
      </trkpt>
      <trkpt lat="43.31297" lon="-1.58431">
        <ele>61</ele>
        <time>2026-08-23T13:36:35.000Z</time>
      </trkpt>
      <trkpt lat="43.31277" lon="-1.58432">
        <ele>61</ele>
        <time>2026-08-23T13:36:38.000Z</time>
      </trkpt>
      <trkpt lat="43.31249" lon="-1.58427">
        <ele>61</ele>
        <time>2026-08-23T13:36:43.000Z</time>
      </trkpt>
      <trkpt lat="43.31249" lon="-1.58427">
        <ele>61</ele>
        <time>2026-08-23T13:36:43.000Z</time>
      </trkpt>
      <trkpt lat="43.31177" lon="-1.58415">
        <ele>60</ele>
        <time>2026-08-23T13:36:56.000Z</time>
      </trkpt>
      <trkpt lat="43.31158" lon="-1.58416">
        <ele>60</ele>
        <time>2026-08-23T13:36:59.000Z</time>
      </trkpt>
      <trkpt lat="43.31139" lon="-1.5842">
        <ele>60</ele>
        <time>2026-08-23T13:37:03.000Z</time>
      </trkpt>
      <trkpt lat="43.31111" lon="-1.5843">
        <ele>59</ele>
        <time>2026-08-23T13:37:08.000Z</time>
      </trkpt>
      <trkpt lat="43.30998" lon="-1.58508">
        <ele>64</ele>
        <time>2026-08-23T13:37:30.000Z</time>
      </trkpt>
      <trkpt lat="43.30904" lon="-1.58578">
        <ele>66</ele>
        <time>2026-08-23T13:37:50.000Z</time>
      </trkpt>
      <trkpt lat="43.3087" lon="-1.58608">
        <ele>67</ele>
        <time>2026-08-23T13:37:57.000Z</time>
      </trkpt>
      <trkpt lat="43.30775" lon="-1.58762">
        <ele>73</ele>
        <time>2026-08-23T13:38:23.000Z</time>
      </trkpt>
      <trkpt lat="43.30725" lon="-1.5884">
        <ele>77</ele>
        <time>2026-08-23T13:38:36.000Z</time>
      </trkpt>
      <trkpt lat="43.30707" lon="-1.58873">
        <ele>78</ele>
        <time>2026-08-23T13:38:42.000Z</time>
      </trkpt>
      <trkpt lat="43.30697" lon="-1.589">
        <ele>80</ele>
        <time>2026-08-23T13:38:46.000Z</time>
      </trkpt>
      <trkpt lat="43.30675" lon="-1.5894">
        <ele>81</ele>
        <time>2026-08-23T13:38:52.000Z</time>
      </trkpt>
      <trkpt lat="43.3053" lon="-1.5916">
        <ele>90</ele>
        <time>2026-08-23T13:39:30.000Z</time>
      </trkpt>
      <trkpt lat="43.30488" lon="-1.59216">
        <ele>94</ele>
        <time>2026-08-23T13:39:41.000Z</time>
      </trkpt>
      <trkpt lat="43.3046" lon="-1.59244">
        <ele>97</ele>
        <time>2026-08-23T13:39:47.000Z</time>
      </trkpt>
      <trkpt lat="43.3039" lon="-1.59285">
        <ele>100</ele>
        <time>2026-08-23T13:40:01.000Z</time>
      </trkpt>
      <trkpt lat="43.30377" lon="-1.59287">
        <ele>100</ele>
        <time>2026-08-23T13:40:03.000Z</time>
      </trkpt>
      <trkpt lat="43.30294" lon="-1.59278">
        <ele>102</ele>
        <time>2026-08-23T13:40:18.000Z</time>
      </trkpt>
      <trkpt lat="43.30269" lon="-1.59269">
        <ele>102</ele>
        <time>2026-08-23T13:40:22.000Z</time>
      </trkpt>
      <trkpt lat="43.30254" lon="-1.5926">
        <ele>101</ele>
        <time>2026-08-23T13:40:25.000Z</time>
      </trkpt>
      <trkpt lat="43.30245" lon="-1.59252">
        <ele>101</ele>
        <time>2026-08-23T13:40:27.000Z</time>
      </trkpt>
      <trkpt lat="43.30234" lon="-1.59236">
        <ele>101</ele>
        <time>2026-08-23T13:40:30.000Z</time>
      </trkpt>
      <trkpt lat="43.30199" lon="-1.59173">
        <ele>101</ele>
        <time>2026-08-23T13:40:40.000Z</time>
      </trkpt>
      <trkpt lat="43.30149" lon="-1.59094">
        <ele>103</ele>
        <time>2026-08-23T13:40:54.000Z</time>
      </trkpt>
      <trkpt lat="43.30111" lon="-1.59052">
        <ele>103</ele>
        <time>2026-08-23T13:41:03.000Z</time>
      </trkpt>
      <trkpt lat="43.3013" lon="-1.59041">
        <ele>103</ele>
        <time>2026-08-23T13:41:06.000Z</time>
      </trkpt>
      <trkpt lat="43.30145" lon="-1.59029">
        <ele>103</ele>
        <time>2026-08-23T13:41:09.000Z</time>
      </trkpt>
      <trkpt lat="43.30156" lon="-1.59016">
        <ele>103</ele>
        <time>2026-08-23T13:41:12.000Z</time>
      </trkpt>
      <trkpt lat="43.30168" lon="-1.58991">
        <ele>103</ele>
        <time>2026-08-23T13:41:16.000Z</time>
      </trkpt>
      <trkpt lat="43.30187" lon="-1.5893">
        <ele>101</ele>
        <time>2026-08-23T13:41:24.000Z</time>
      </trkpt>
      <trkpt lat="43.30198" lon="-1.58869">
        <ele>98</ele>
        <time>2026-08-23T13:41:32.000Z</time>
      </trkpt>
      <trkpt lat="43.30202" lon="-1.58832">
        <ele>96</ele>
        <time>2026-08-23T13:41:37.000Z</time>
      </trkpt>
      <trkpt lat="43.30207" lon="-1.58817">
        <ele>95</ele>
        <time>2026-08-23T13:41:39.000Z</time>
      </trkpt>
      <trkpt lat="43.30214" lon="-1.58801">
        <ele>94</ele>
        <time>2026-08-23T13:41:42.000Z</time>
      </trkpt>
      <trkpt lat="43.30259" lon="-1.58746">
        <ele>92</ele>
        <time>2026-08-23T13:41:53.000Z</time>
      </trkpt>
      <trkpt lat="43.30296" lon="-1.58706">
        <ele>91</ele>
        <time>2026-08-23T13:42:01.000Z</time>
      </trkpt>
      <trkpt lat="43.30296" lon="-1.58706">
        <ele>91</ele>
        <time>2026-08-23T13:42:01.000Z</time>
      </trkpt>
      <trkpt lat="43.30308" lon="-1.58693">
        <ele>91</ele>
        <time>2026-08-23T13:42:04.000Z</time>
      </trkpt>
      <trkpt lat="43.30318" lon="-1.58645">
        <ele>92</ele>
        <time>2026-08-23T13:42:10.000Z</time>
      </trkpt>
      <trkpt lat="43.30318" lon="-1.58627">
        <ele>91</ele>
        <time>2026-08-23T13:42:12.000Z</time>
      </trkpt>
      <trkpt lat="43.30311" lon="-1.58601">
        <ele>90</ele>
        <time>2026-08-23T13:42:16.000Z</time>
      </trkpt>
      <trkpt lat="43.303" lon="-1.58593">
        <ele>89</ele>
        <time>2026-08-23T13:42:18.000Z</time>
      </trkpt>
      <trkpt lat="43.3029" lon="-1.58591">
        <ele>88</ele>
        <time>2026-08-23T13:42:20.000Z</time>
      </trkpt>
      <trkpt lat="43.3015" lon="-1.58605">
        <ele>72</ele>
        <time>2026-08-23T13:42:45.000Z</time>
      </trkpt>
      <trkpt lat="43.30082" lon="-1.58593">
        <ele>75</ele>
        <time>2026-08-23T13:42:57.000Z</time>
      </trkpt>
      <trkpt lat="43.30032" lon="-1.58596">
        <ele>83</ele>
        <time>2026-08-23T13:43:06.000Z</time>
      </trkpt>
      <trkpt lat="43.29979" lon="-1.5862">
        <ele>86</ele>
        <time>2026-08-23T13:43:16.000Z</time>
      </trkpt>
      <trkpt lat="43.29736" lon="-1.58642">
        <ele>103</ele>
        <time>2026-08-23T13:43:59.000Z</time>
      </trkpt>
      <trkpt lat="43.29723" lon="-1.58639">
        <ele>105</ele>
        <time>2026-08-23T13:44:02.000Z</time>
      </trkpt>
      <trkpt lat="43.2971" lon="-1.58629">
        <ele>108</ele>
        <time>2026-08-23T13:44:04.000Z</time>
      </trkpt>
      <trkpt lat="43.29702" lon="-1.58604">
        <ele>113</ele>
        <time>2026-08-23T13:44:08.000Z</time>
      </trkpt>
      <trkpt lat="43.29695" lon="-1.58523">
        <ele>120</ele>
        <time>2026-08-23T13:44:18.000Z</time>
      </trkpt>
      <trkpt lat="43.29695" lon="-1.58523">
        <ele>120</ele>
        <time>2026-08-23T13:44:18.000Z</time>
      </trkpt>
      <trkpt lat="43.29689" lon="-1.58475">
        <ele>119</ele>
        <time>2026-08-23T13:44:25.000Z</time>
      </trkpt>
      <trkpt lat="43.29683" lon="-1.58449">
        <ele>118</ele>
        <time>2026-08-23T13:44:28.000Z</time>
      </trkpt>
      <trkpt lat="43.29678" lon="-1.58439">
        <ele>118</ele>
        <time>2026-08-23T13:44:30.000Z</time>
      </trkpt>
      <trkpt lat="43.2965" lon="-1.58418">
        <ele>120</ele>
        <time>2026-08-23T13:44:36.000Z</time>
      </trkpt>
      <trkpt lat="43.29625" lon="-1.58386">
        <ele>122</ele>
        <time>2026-08-23T13:44:42.000Z</time>
      </trkpt>
      <trkpt lat="43.29625" lon="-1.58386">
        <ele>122</ele>
        <time>2026-08-23T13:44:42.000Z</time>
      </trkpt>
      <trkpt lat="43.29618" lon="-1.58378">
        <ele>122</ele>
        <time>2026-08-23T13:44:43.000Z</time>
      </trkpt>
      <trkpt lat="43.29606" lon="-1.58369">
        <ele>124</ele>
        <time>2026-08-23T13:44:46.000Z</time>
      </trkpt>
      <trkpt lat="43.29575" lon="-1.58358">
        <ele>128</ele>
        <time>2026-08-23T13:44:51.000Z</time>
      </trkpt>
      <trkpt lat="43.29566" lon="-1.58351">
        <ele>128</ele>
        <time>2026-08-23T13:44:53.000Z</time>
      </trkpt>
      <trkpt lat="43.29557" lon="-1.58335">
        <ele>128</ele>
        <time>2026-08-23T13:44:56.000Z</time>
      </trkpt>
      <trkpt lat="43.29549" lon="-1.58308">
        <ele>126</ele>
        <time>2026-08-23T13:45:00.000Z</time>
      </trkpt>
      <trkpt lat="43.29542" lon="-1.5829">
        <ele>124</ele>
        <time>2026-08-23T13:45:02.000Z</time>
      </trkpt>
      <trkpt lat="43.29531" lon="-1.5828">
        <ele>124</ele>
        <time>2026-08-23T13:45:05.000Z</time>
      </trkpt>
      <trkpt lat="43.29456" lon="-1.58234">
        <ele>121</ele>
        <time>2026-08-23T13:45:19.000Z</time>
      </trkpt>
      <trkpt lat="43.29446" lon="-1.58232">
        <ele>121</ele>
        <time>2026-08-23T13:45:21.000Z</time>
      </trkpt>
      <trkpt lat="43.29437" lon="-1.58234">
        <ele>121</ele>
        <time>2026-08-23T13:45:23.000Z</time>
      </trkpt>
      <trkpt lat="43.2943" lon="-1.58243">
        <ele>121</ele>
        <time>2026-08-23T13:45:24.000Z</time>
      </trkpt>
      <trkpt lat="43.29415" lon="-1.583">
        <ele>126</ele>
        <time>2026-08-23T13:45:32.000Z</time>
      </trkpt>
      <trkpt lat="43.29413" lon="-1.58316">
        <ele>127</ele>
        <time>2026-08-23T13:45:34.000Z</time>
      </trkpt>
      <trkpt lat="43.29413" lon="-1.58316">
        <ele>127</ele>
        <time>2026-08-23T13:45:34.000Z</time>
      </trkpt>
      <trkpt lat="43.2941" lon="-1.58373">
        <ele>129</ele>
        <time>2026-08-23T13:45:42.000Z</time>
      </trkpt>
      <trkpt lat="43.29413" lon="-1.58422">
        <ele>131</ele>
        <time>2026-08-23T13:45:48.000Z</time>
      </trkpt>
      <trkpt lat="43.29419" lon="-1.5846">
        <ele>129</ele>
        <time>2026-08-23T13:45:53.000Z</time>
      </trkpt>
      <trkpt lat="43.29427" lon="-1.58477">
        <ele>128</ele>
        <time>2026-08-23T13:45:56.000Z</time>
      </trkpt>
      <trkpt lat="43.29461" lon="-1.5852">
        <ele>129</ele>
        <time>2026-08-23T13:46:04.000Z</time>
      </trkpt>
      <trkpt lat="43.29478" lon="-1.5855">
        <ele>130</ele>
        <time>2026-08-23T13:46:09.000Z</time>
      </trkpt>
      <trkpt lat="43.29498" lon="-1.58609">
        <ele>131</ele>
        <time>2026-08-23T13:46:17.000Z</time>
      </trkpt>
      <trkpt lat="43.2952" lon="-1.58657">
        <ele>130</ele>
        <time>2026-08-23T13:46:25.000Z</time>
      </trkpt>
      <trkpt lat="43.29542" lon="-1.58695">
        <ele>126</ele>
        <time>2026-08-23T13:46:31.000Z</time>
      </trkpt>
      <trkpt lat="43.29547" lon="-1.58708">
        <ele>125</ele>
        <time>2026-08-23T13:46:33.000Z</time>
      </trkpt>
      <trkpt lat="43.29548" lon="-1.5872">
        <ele>124</ele>
        <time>2026-08-23T13:46:34.000Z</time>
      </trkpt>
      <trkpt lat="43.29546" lon="-1.58734">
        <ele>124</ele>
        <time>2026-08-23T13:46:36.000Z</time>
      </trkpt>
      <trkpt lat="43.2954" lon="-1.58751">
        <ele>124</ele>
        <time>2026-08-23T13:46:39.000Z</time>
      </trkpt>
      <trkpt lat="43.29531" lon="-1.58769">
        <ele>124</ele>
        <time>2026-08-23T13:46:42.000Z</time>
      </trkpt>
      <trkpt lat="43.29512" lon="-1.58793">
        <ele>127</ele>
        <time>2026-08-23T13:46:46.000Z</time>
      </trkpt>
      <trkpt lat="43.29495" lon="-1.5881">
        <ele>129</ele>
        <time>2026-08-23T13:46:50.000Z</time>
      </trkpt>
      <trkpt lat="43.29437" lon="-1.58851">
        <ele>132</ele>
        <time>2026-08-23T13:47:02.000Z</time>
      </trkpt>
      <trkpt lat="43.29428" lon="-1.58861">
        <ele>132</ele>
        <time>2026-08-23T13:47:04.000Z</time>
      </trkpt>
      <trkpt lat="43.294" lon="-1.58896">
        <ele>131</ele>
        <time>2026-08-23T13:47:10.000Z</time>
      </trkpt>
      <trkpt lat="43.29309" lon="-1.59031">
        <ele>134</ele>
        <time>2026-08-23T13:47:34.000Z</time>
      </trkpt>
      <trkpt lat="43.29296" lon="-1.59045">
        <ele>135</ele>
        <time>2026-08-23T13:47:37.000Z</time>
      </trkpt>
      <trkpt lat="43.2928" lon="-1.59061">
        <ele>137</ele>
        <time>2026-08-23T13:47:41.000Z</time>
      </trkpt>
      <trkpt lat="43.29245" lon="-1.59085">
        <ele>141</ele>
        <time>2026-08-23T13:47:48.000Z</time>
      </trkpt>
      <trkpt lat="43.29176" lon="-1.59125">
        <ele>144</ele>
        <time>2026-08-23T13:48:01.000Z</time>
      </trkpt>
      <trkpt lat="43.2914" lon="-1.59141">
        <ele>148</ele>
        <time>2026-08-23T13:48:08.000Z</time>
      </trkpt>
      <trkpt lat="43.2904" lon="-1.59174">
        <ele>152</ele>
        <time>2026-08-23T13:48:26.000Z</time>
      </trkpt>
      <trkpt lat="43.28888" lon="-1.59237">
        <ele>151</ele>
        <time>2026-08-23T13:48:54.000Z</time>
      </trkpt>
      <trkpt lat="43.28824" lon="-1.59278">
        <ele>151</ele>
        <time>2026-08-23T13:49:07.000Z</time>
      </trkpt>
      <trkpt lat="43.28799" lon="-1.59311">
        <ele>148</ele>
        <time>2026-08-23T13:49:13.000Z</time>
      </trkpt>
      <trkpt lat="43.28761" lon="-1.59368">
        <ele>146</ele>
        <time>2026-08-23T13:49:23.000Z</time>
      </trkpt>
      <trkpt lat="43.28671" lon="-1.59489">
        <ele>147</ele>
        <time>2026-08-23T13:49:45.000Z</time>
      </trkpt>
      <trkpt lat="43.28642" lon="-1.59518">
        <ele>149</ele>
        <time>2026-08-23T13:49:52.000Z</time>
      </trkpt>
      <trkpt lat="43.28569" lon="-1.59575">
        <ele>158</ele>
        <time>2026-08-23T13:50:07.000Z</time>
      </trkpt>
      <trkpt lat="43.28543" lon="-1.59592">
        <ele>156</ele>
        <time>2026-08-23T13:50:12.000Z</time>
      </trkpt>
      <trkpt lat="43.28526" lon="-1.59611">
        <ele>155</ele>
        <time>2026-08-23T13:50:16.000Z</time>
      </trkpt>
      <trkpt lat="43.28489" lon="-1.59678">
        <ele>156</ele>
        <time>2026-08-23T13:50:27.000Z</time>
      </trkpt>
      <trkpt lat="43.28468" lon="-1.59704">
        <ele>157</ele>
        <time>2026-08-23T13:50:32.000Z</time>
      </trkpt>
      <trkpt lat="43.28457" lon="-1.5971">
        <ele>156</ele>
        <time>2026-08-23T13:50:34.000Z</time>
      </trkpt>
      <trkpt lat="43.28445" lon="-1.59712">
        <ele>155</ele>
        <time>2026-08-23T13:50:36.000Z</time>
      </trkpt>
      <trkpt lat="43.28425" lon="-1.59707">
        <ele>153</ele>
        <time>2026-08-23T13:50:39.000Z</time>
      </trkpt>
      <trkpt lat="43.28349" lon="-1.59676">
        <ele>149</ele>
        <time>2026-08-23T13:50:54.000Z</time>
      </trkpt>
      <trkpt lat="43.28336" lon="-1.59667">
        <ele>149</ele>
        <time>2026-08-23T13:50:56.000Z</time>
      </trkpt>
      <trkpt lat="43.28311" lon="-1.59643">
        <ele>145</ele>
        <time>2026-08-23T13:51:02.000Z</time>
      </trkpt>
      <trkpt lat="43.28296" lon="-1.59627">
        <ele>144</ele>
        <time>2026-08-23T13:51:05.000Z</time>
      </trkpt>
      <trkpt lat="43.28279" lon="-1.59616">
        <ele>143</ele>
        <time>2026-08-23T13:51:08.000Z</time>
      </trkpt>
      <trkpt lat="43.28263" lon="-1.59612">
        <ele>143</ele>
        <time>2026-08-23T13:51:11.000Z</time>
      </trkpt>
      <trkpt lat="43.28247" lon="-1.5961">
        <ele>143</ele>
        <time>2026-08-23T13:51:14.000Z</time>
      </trkpt>
      <trkpt lat="43.28229" lon="-1.59601">
        <ele>140</ele>
        <time>2026-08-23T13:51:17.000Z</time>
      </trkpt>
      <trkpt lat="43.28216" lon="-1.59598">
        <ele>138</ele>
        <time>2026-08-23T13:51:20.000Z</time>
      </trkpt>
      <trkpt lat="43.28202" lon="-1.59598">
        <ele>136</ele>
        <time>2026-08-23T13:51:22.000Z</time>
      </trkpt>
      <trkpt lat="43.28142" lon="-1.59624">
        <ele>128</ele>
        <time>2026-08-23T13:51:33.000Z</time>
      </trkpt>
      <trkpt lat="43.28136" lon="-1.59624">
        <ele>127</ele>
        <time>2026-08-23T13:51:35.000Z</time>
      </trkpt>
      <trkpt lat="43.28129" lon="-1.59618">
        <ele>126</ele>
        <time>2026-08-23T13:51:36.000Z</time>
      </trkpt>
      <trkpt lat="43.28117" lon="-1.59594">
        <ele>123</ele>
        <time>2026-08-23T13:51:40.000Z</time>
      </trkpt>
      <trkpt lat="43.28113" lon="-1.59592">
        <ele>122</ele>
        <time>2026-08-23T13:51:41.000Z</time>
      </trkpt>
      <trkpt lat="43.28105" lon="-1.59593">
        <ele>121</ele>
        <time>2026-08-23T13:51:42.000Z</time>
      </trkpt>
      <trkpt lat="43.28057" lon="-1.59623">
        <ele>114</ele>
        <time>2026-08-23T13:51:51.000Z</time>
      </trkpt>
      <trkpt lat="43.28028" lon="-1.59643">
        <ele>110</ele>
        <time>2026-08-23T13:51:57.000Z</time>
      </trkpt>
      <trkpt lat="43.28017" lon="-1.59656">
        <ele>109</ele>
        <time>2026-08-23T13:52:00.000Z</time>
      </trkpt>
      <trkpt lat="43.27975" lon="-1.59734">
        <ele>108</ele>
        <time>2026-08-23T13:52:12.000Z</time>
      </trkpt>
      <trkpt lat="43.27953" lon="-1.59765">
        <ele>108</ele>
        <time>2026-08-23T13:52:18.000Z</time>
      </trkpt>
      <trkpt lat="43.27936" lon="-1.598">
        <ele>108</ele>
        <time>2026-08-23T13:52:23.000Z</time>
      </trkpt>
      <trkpt lat="43.27932" lon="-1.5972">
        <ele>109</ele>
        <time>2026-08-23T13:52:34.000Z</time>
      </trkpt>
      <trkpt lat="43.27926" lon="-1.59668">
        <ele>111</ele>
        <time>2026-08-23T13:52:41.000Z</time>
      </trkpt>
      <trkpt lat="43.27925" lon="-1.59631">
        <ele>112</ele>
        <time>2026-08-23T13:52:45.000Z</time>
      </trkpt>
      <trkpt lat="43.27929" lon="-1.59614">
        <ele>112</ele>
        <time>2026-08-23T13:52:48.000Z</time>
      </trkpt>
      <trkpt lat="43.27976" lon="-1.5956">
        <ele>108</ele>
        <time>2026-08-23T13:52:59.000Z</time>
      </trkpt>
      <trkpt lat="43.28029" lon="-1.59479">
        <ele>100</ele>
        <time>2026-08-23T13:53:13.000Z</time>
      </trkpt>
      <trkpt lat="43.28088" lon="-1.59396">
        <ele>96</ele>
        <time>2026-08-23T13:53:28.000Z</time>
      </trkpt>
      <trkpt lat="43.28141" lon="-1.59292">
        <ele>99</ele>
        <time>2026-08-23T13:53:44.000Z</time>
      </trkpt>
      <trkpt lat="43.28154" lon="-1.5926">
        <ele>97</ele>
        <time>2026-08-23T13:53:49.000Z</time>
      </trkpt>
      <trkpt lat="43.28158" lon="-1.59236">
        <ele>96</ele>
        <time>2026-08-23T13:53:52.000Z</time>
      </trkpt>
      <trkpt lat="43.28159" lon="-1.59185">
        <ele>93</ele>
        <time>2026-08-23T13:53:59.000Z</time>
      </trkpt>
      <trkpt lat="43.28161" lon="-1.59158">
        <ele>92</ele>
        <time>2026-08-23T13:54:02.000Z</time>
      </trkpt>
      <trkpt lat="43.28165" lon="-1.59141">
        <ele>91</ele>
        <time>2026-08-23T13:54:05.000Z</time>
      </trkpt>
      <trkpt lat="43.28171" lon="-1.59121">
        <ele>90</ele>
        <time>2026-08-23T13:54:07.000Z</time>
      </trkpt>
      <trkpt lat="43.2818" lon="-1.59103">
        <ele>90</ele>
        <time>2026-08-23T13:54:10.000Z</time>
      </trkpt>
      <trkpt lat="43.28237" lon="-1.59005">
        <ele>89</ele>
        <time>2026-08-23T13:54:26.000Z</time>
      </trkpt>
      <trkpt lat="43.28283" lon="-1.58918">
        <ele>85</ele>
        <time>2026-08-23T13:54:40.000Z</time>
      </trkpt>
      <trkpt lat="43.2834" lon="-1.58823">
        <ele>83</ele>
        <time>2026-08-23T13:54:56.000Z</time>
      </trkpt>
      <trkpt lat="43.28355" lon="-1.58791">
        <ele>84</ele>
        <time>2026-08-23T13:55:01.000Z</time>
      </trkpt>
      <trkpt lat="43.2841" lon="-1.58664">
        <ele>84</ele>
        <time>2026-08-23T13:55:20.000Z</time>
      </trkpt>
      <trkpt lat="43.28527" lon="-1.58436">
        <ele>76</ele>
        <time>2026-08-23T13:55:56.000Z</time>
      </trkpt>
      <trkpt lat="43.285" lon="-1.58408">
        <ele>76</ele>
        <time>2026-08-23T13:56:02.000Z</time>
      </trkpt>
      <trkpt lat="43.28408" lon="-1.58377">
        <ele>83</ele>
        <time>2026-08-23T13:56:19.000Z</time>
      </trkpt>
      <trkpt lat="43.28347" lon="-1.58369">
        <ele>87</ele>
        <time>2026-08-23T13:56:30.000Z</time>
      </trkpt>
      <trkpt lat="43.28318" lon="-1.58331">
        <ele>85</ele>
        <time>2026-08-23T13:56:37.000Z</time>
      </trkpt>
      <trkpt lat="43.28284" lon="-1.58298">
        <ele>87</ele>
        <time>2026-08-23T13:56:45.000Z</time>
      </trkpt>
      <trkpt lat="43.28269" lon="-1.58278">
        <ele>88</ele>
        <time>2026-08-23T13:56:48.000Z</time>
      </trkpt>
      <trkpt lat="43.28255" lon="-1.58252">
        <ele>88</ele>
        <time>2026-08-23T13:56:53.000Z</time>
      </trkpt>
      <trkpt lat="43.28252" lon="-1.58232">
        <ele>89</ele>
        <time>2026-08-23T13:56:55.000Z</time>
      </trkpt>
      <trkpt lat="43.28249" lon="-1.58169">
        <ele>94</ele>
        <time>2026-08-23T13:57:04.000Z</time>
      </trkpt>
      <trkpt lat="43.28241" lon="-1.58146">
        <ele>97</ele>
        <time>2026-08-23T13:57:07.000Z</time>
      </trkpt>
      <trkpt lat="43.28187" lon="-1.58041">
        <ele>102</ele>
        <time>2026-08-23T13:57:23.000Z</time>
      </trkpt>
      <trkpt lat="43.2816" lon="-1.57937">
        <ele>105</ele>
        <time>2026-08-23T13:57:38.000Z</time>
      </trkpt>
      <trkpt lat="43.28061" lon="-1.57774">
        <ele>106</ele>
        <time>2026-08-23T13:58:05.000Z</time>
      </trkpt>
      <trkpt lat="43.28026" lon="-1.57699">
        <ele>110</ele>
        <time>2026-08-23T13:58:17.000Z</time>
      </trkpt>
      <trkpt lat="43.28006" lon="-1.57669">
        <ele>112</ele>
        <time>2026-08-23T13:58:22.000Z</time>
      </trkpt>
      <trkpt lat="43.27809" lon="-1.57449">
        <ele>123</ele>
        <time>2026-08-23T13:59:07.000Z</time>
      </trkpt>
      <trkpt lat="43.27699" lon="-1.57406">
        <ele>131</ele>
        <time>2026-08-23T13:59:28.000Z</time>
      </trkpt>
      <trkpt lat="43.2757" lon="-1.57332">
        <ele>141</ele>
        <time>2026-08-23T13:59:52.000Z</time>
      </trkpt>
      <trkpt lat="43.27432" lon="-1.57289">
        <ele>145</ele>
        <time>2026-08-23T14:00:18.000Z</time>
      </trkpt>
      <trkpt lat="43.27357" lon="-1.57272">
        <ele>150</ele>
        <time>2026-08-23T14:00:31.000Z</time>
      </trkpt>
      <trkpt lat="43.27261" lon="-1.57256">
        <ele>155</ele>
        <time>2026-08-23T14:00:48.000Z</time>
      </trkpt>
      <trkpt lat="43.2724" lon="-1.57259">
        <ele>157</ele>
        <time>2026-08-23T14:00:52.000Z</time>
      </trkpt>
      <trkpt lat="43.27175" lon="-1.57275">
        <ele>162</ele>
        <time>2026-08-23T14:01:04.000Z</time>
      </trkpt>
      <trkpt lat="43.27134" lon="-1.57274">
        <ele>168</ele>
        <time>2026-08-23T14:01:11.000Z</time>
      </trkpt>
      <trkpt lat="43.27097" lon="-1.57261">
        <ele>173</ele>
        <time>2026-08-23T14:01:18.000Z</time>
      </trkpt>
      <trkpt lat="43.27035" lon="-1.57214">
        <ele>183</ele>
        <time>2026-08-23T14:01:31.000Z</time>
      </trkpt>
      <trkpt lat="43.26962" lon="-1.57217">
        <ele>191</ele>
        <time>2026-08-23T14:01:44.000Z</time>
      </trkpt>
      <trkpt lat="43.26902" lon="-1.57177">
        <ele>197</ele>
        <time>2026-08-23T14:01:55.000Z</time>
      </trkpt>
      <trkpt lat="43.26888" lon="-1.57155">
        <ele>200</ele>
        <time>2026-08-23T14:01:59.000Z</time>
      </trkpt>
      <trkpt lat="43.26885" lon="-1.57143">
        <ele>201</ele>
        <time>2026-08-23T14:02:01.000Z</time>
      </trkpt>
      <trkpt lat="43.26888" lon="-1.57131">
        <ele>201</ele>
        <time>2026-08-23T14:02:03.000Z</time>
      </trkpt>
      <trkpt lat="43.26913" lon="-1.57109">
        <ele>200</ele>
        <time>2026-08-23T14:02:08.000Z</time>
      </trkpt>
      <trkpt lat="43.2692" lon="-1.57096">
        <ele>201</ele>
        <time>2026-08-23T14:02:10.000Z</time>
      </trkpt>
      <trkpt lat="43.26923" lon="-1.5708">
        <ele>202</ele>
        <time>2026-08-23T14:02:12.000Z</time>
      </trkpt>
      <trkpt lat="43.26927" lon="-1.57054">
        <ele>202</ele>
        <time>2026-08-23T14:02:15.000Z</time>
      </trkpt>
      <trkpt lat="43.26924" lon="-1.56893">
        <ele>196</ele>
        <time>2026-08-23T14:02:36.000Z</time>
      </trkpt>
      <trkpt lat="43.26921" lon="-1.56793">
        <ele>190</ele>
        <time>2026-08-23T14:02:49.000Z</time>
      </trkpt>
      <trkpt lat="43.26918" lon="-1.56771">
        <ele>189</ele>
        <time>2026-08-23T14:02:52.000Z</time>
      </trkpt>
      <trkpt lat="43.26918" lon="-1.56753">
        <ele>188</ele>
        <time>2026-08-23T14:02:55.000Z</time>
      </trkpt>
      <trkpt lat="43.26934" lon="-1.567">
        <ele>186</ele>
        <time>2026-08-23T14:03:02.000Z</time>
      </trkpt>
      <trkpt lat="43.26938" lon="-1.56676">
        <ele>185</ele>
        <time>2026-08-23T14:03:05.000Z</time>
      </trkpt>
      <trkpt lat="43.26941" lon="-1.56651">
        <ele>184</ele>
        <time>2026-08-23T14:03:08.000Z</time>
      </trkpt>
      <trkpt lat="43.26944" lon="-1.56609">
        <ele>183</ele>
        <time>2026-08-23T14:03:14.000Z</time>
      </trkpt>
      <trkpt lat="43.26944" lon="-1.56562">
        <ele>181</ele>
        <time>2026-08-23T14:03:20.000Z</time>
      </trkpt>
      <trkpt lat="43.26937" lon="-1.56437">
        <ele>176</ele>
        <time>2026-08-23T14:03:36.000Z</time>
      </trkpt>
      <trkpt lat="43.26933" lon="-1.56414">
        <ele>174</ele>
        <time>2026-08-23T14:03:39.000Z</time>
      </trkpt>
      <trkpt lat="43.26929" lon="-1.56402">
        <ele>174</ele>
        <time>2026-08-23T14:03:41.000Z</time>
      </trkpt>
      <trkpt lat="43.26917" lon="-1.56391">
        <ele>174</ele>
        <time>2026-08-23T14:03:44.000Z</time>
      </trkpt>
      <trkpt lat="43.26872" lon="-1.56376">
        <ele>177</ele>
        <time>2026-08-23T14:03:52.000Z</time>
      </trkpt>
      <trkpt lat="43.26863" lon="-1.5637">
        <ele>178</ele>
        <time>2026-08-23T14:03:54.000Z</time>
      </trkpt>
      <trkpt lat="43.26858" lon="-1.56364">
        <ele>178</ele>
        <time>2026-08-23T14:03:55.000Z</time>
      </trkpt>
      <trkpt lat="43.26846" lon="-1.56339">
        <ele>179</ele>
        <time>2026-08-23T14:03:59.000Z</time>
      </trkpt>
      <trkpt lat="43.26838" lon="-1.56305">
        <ele>180</ele>
        <time>2026-08-23T14:04:03.000Z</time>
      </trkpt>
      <trkpt lat="43.26838" lon="-1.56275">
        <ele>181</ele>
        <time>2026-08-23T14:04:07.000Z</time>
      </trkpt>
      <trkpt lat="43.26857" lon="-1.56225">
        <ele>181</ele>
        <time>2026-08-23T14:04:14.000Z</time>
      </trkpt>
      <trkpt lat="43.26879" lon="-1.56203">
        <ele>179</ele>
        <time>2026-08-23T14:04:19.000Z</time>
      </trkpt>
      <trkpt lat="43.26889" lon="-1.56178">
        <ele>179</ele>
        <time>2026-08-23T14:04:23.000Z</time>
      </trkpt>
      <trkpt lat="43.26886" lon="-1.56143">
        <ele>182</ele>
        <time>2026-08-23T14:04:28.000Z</time>
      </trkpt>
      <trkpt lat="43.26883" lon="-1.56043">
        <ele>191</ele>
        <time>2026-08-23T14:04:41.000Z</time>
      </trkpt>
      <trkpt lat="43.26875" lon="-1.55907">
        <ele>204</ele>
        <time>2026-08-23T14:04:58.000Z</time>
      </trkpt>
      <trkpt lat="43.26881" lon="-1.55848">
        <ele>205</ele>
        <time>2026-08-23T14:05:06.000Z</time>
      </trkpt>
      <trkpt lat="43.26886" lon="-1.55774">
        <ele>205</ele>
        <time>2026-08-23T14:05:16.000Z</time>
      </trkpt>
      <trkpt lat="43.26881" lon="-1.55735">
        <ele>205</ele>
        <time>2026-08-23T14:05:21.000Z</time>
      </trkpt>
      <trkpt lat="43.26873" lon="-1.55703">
        <ele>205</ele>
        <time>2026-08-23T14:05:25.000Z</time>
      </trkpt>
      <trkpt lat="43.26856" lon="-1.55664">
        <ele>206</ele>
        <time>2026-08-23T14:05:31.000Z</time>
      </trkpt>
      <trkpt lat="43.26835" lon="-1.55622">
        <ele>210</ele>
        <time>2026-08-23T14:05:38.000Z</time>
      </trkpt>
      <trkpt lat="43.26828" lon="-1.55544">
        <ele>216</ele>
        <time>2026-08-23T14:05:48.000Z</time>
      </trkpt>
      <trkpt lat="43.26837" lon="-1.55536">
        <ele>214</ele>
        <time>2026-08-23T14:05:50.000Z</time>
      </trkpt>
      <trkpt lat="43.2684" lon="-1.55531">
        <ele>214</ele>
        <time>2026-08-23T14:05:51.000Z</time>
      </trkpt>
      <trkpt lat="43.26842" lon="-1.55523">
        <ele>214</ele>
        <time>2026-08-23T14:05:52.000Z</time>
      </trkpt>
      <trkpt lat="43.26835" lon="-1.55459">
        <ele>218</ele>
        <time>2026-08-23T14:06:00.000Z</time>
      </trkpt>
      <trkpt lat="43.26835" lon="-1.55437">
        <ele>218</ele>
        <time>2026-08-23T14:06:03.000Z</time>
      </trkpt>
      <trkpt lat="43.2684" lon="-1.55417">
        <ele>217</ele>
        <time>2026-08-23T14:06:06.000Z</time>
      </trkpt>
      <trkpt lat="43.26853" lon="-1.55401">
        <ele>215</ele>
        <time>2026-08-23T14:06:09.000Z</time>
      </trkpt>
      <trkpt lat="43.26867" lon="-1.55374">
        <ele>213</ele>
        <time>2026-08-23T14:06:13.000Z</time>
      </trkpt>
      <trkpt lat="43.26873" lon="-1.55354">
        <ele>212</ele>
        <time>2026-08-23T14:06:16.000Z</time>
      </trkpt>
      <trkpt lat="43.2687" lon="-1.55332">
        <ele>214</ele>
        <time>2026-08-23T14:06:19.000Z</time>
      </trkpt>
      <trkpt lat="43.26865" lon="-1.55317">
        <ele>214</ele>
        <time>2026-08-23T14:06:21.000Z</time>
      </trkpt>
      <trkpt lat="43.26844" lon="-1.55299">
        <ele>218</ele>
        <time>2026-08-23T14:06:25.000Z</time>
      </trkpt>
      <trkpt lat="43.26842" lon="-1.55268">
        <ele>217</ele>
        <time>2026-08-23T14:06:29.000Z</time>
      </trkpt>
      <trkpt lat="43.26843" lon="-1.552">
        <ele>209</ele>
        <time>2026-08-23T14:06:38.000Z</time>
      </trkpt>
      <trkpt lat="43.26836" lon="-1.55174">
        <ele>208</ele>
        <time>2026-08-23T14:06:42.000Z</time>
      </trkpt>
      <trkpt lat="43.26822" lon="-1.55159">
        <ele>208</ele>
        <time>2026-08-23T14:06:45.000Z</time>
      </trkpt>
      <trkpt lat="43.26792" lon="-1.55148">
        <ele>210</ele>
        <time>2026-08-23T14:06:50.000Z</time>
      </trkpt>
      <trkpt lat="43.26772" lon="-1.55128">
        <ele>208</ele>
        <time>2026-08-23T14:06:55.000Z</time>
      </trkpt>
      <trkpt lat="43.26758" lon="-1.55105">
        <ele>204</ele>
        <time>2026-08-23T14:06:59.000Z</time>
      </trkpt>
      <trkpt lat="43.26743" lon="-1.55093">
        <ele>203</ele>
        <time>2026-08-23T14:07:02.000Z</time>
      </trkpt>
      <trkpt lat="43.26702" lon="-1.55074">
        <ele>200</ele>
        <time>2026-08-23T14:07:09.000Z</time>
      </trkpt>
      <trkpt lat="43.26692" lon="-1.55071">
        <ele>200</ele>
        <time>2026-08-23T14:07:11.000Z</time>
      </trkpt>
      <trkpt lat="43.26679" lon="-1.55074">
        <ele>201</ele>
        <time>2026-08-23T14:07:14.000Z</time>
      </trkpt>
      <trkpt lat="43.26642" lon="-1.55103">
        <ele>210</ele>
        <time>2026-08-23T14:07:21.000Z</time>
      </trkpt>
      <trkpt lat="43.26622" lon="-1.55111">
        <ele>213</ele>
        <time>2026-08-23T14:07:25.000Z</time>
      </trkpt>
      <trkpt lat="43.26597" lon="-1.55111">
        <ele>215</ele>
        <time>2026-08-23T14:07:29.000Z</time>
      </trkpt>
      <trkpt lat="43.26589" lon="-1.55107">
        <ele>215</ele>
        <time>2026-08-23T14:07:31.000Z</time>
      </trkpt>
      <trkpt lat="43.26585" lon="-1.551">
        <ele>215</ele>
        <time>2026-08-23T14:07:32.000Z</time>
      </trkpt>
      <trkpt lat="43.26587" lon="-1.55091">
        <ele>214</ele>
        <time>2026-08-23T14:07:33.000Z</time>
      </trkpt>
      <trkpt lat="43.26598" lon="-1.55083">
        <ele>212</ele>
        <time>2026-08-23T14:07:35.000Z</time>
      </trkpt>
      <trkpt lat="43.26612" lon="-1.55056">
        <ele>211</ele>
        <time>2026-08-23T14:07:40.000Z</time>
      </trkpt>
      <trkpt lat="43.26646" lon="-1.54893">
        <ele>204</ele>
        <time>2026-08-23T14:08:02.000Z</time>
      </trkpt>
      <trkpt lat="43.26648" lon="-1.54838">
        <ele>206</ele>
        <time>2026-08-23T14:08:09.000Z</time>
      </trkpt>
      <trkpt lat="43.26665" lon="-1.54748">
        <ele>199</ele>
        <time>2026-08-23T14:08:21.000Z</time>
      </trkpt>
      <trkpt lat="43.26667" lon="-1.547">
        <ele>202</ele>
        <time>2026-08-23T14:08:27.000Z</time>
      </trkpt>
      <trkpt lat="43.26671" lon="-1.54681">
        <ele>203</ele>
        <time>2026-08-23T14:08:30.000Z</time>
      </trkpt>
      <trkpt lat="43.26686" lon="-1.54648">
        <ele>202</ele>
        <time>2026-08-23T14:08:35.000Z</time>
      </trkpt>
      <trkpt lat="43.26692" lon="-1.54617">
        <ele>204</ele>
        <time>2026-08-23T14:08:39.000Z</time>
      </trkpt>
      <trkpt lat="43.26693" lon="-1.54599">
        <ele>206</ele>
        <time>2026-08-23T14:08:41.000Z</time>
      </trkpt>
      <trkpt lat="43.26718" lon="-1.54473">
        <ele>211</ele>
        <time>2026-08-23T14:08:58.000Z</time>
      </trkpt>
      <trkpt lat="43.26718" lon="-1.54473">
        <ele>211</ele>
        <time>2026-08-23T14:08:58.000Z</time>
      </trkpt>
      <trkpt lat="43.26731" lon="-1.54372">
        <ele>210</ele>
        <time>2026-08-23T14:09:11.000Z</time>
      </trkpt>
      <trkpt lat="43.2673" lon="-1.54331">
        <ele>210</ele>
        <time>2026-08-23T14:09:17.000Z</time>
      </trkpt>
      <trkpt lat="43.26702" lon="-1.54221">
        <ele>213</ele>
        <time>2026-08-23T14:09:32.000Z</time>
      </trkpt>
      <trkpt lat="43.26651" lon="-1.54167">
        <ele>218</ele>
        <time>2026-08-23T14:09:43.000Z</time>
      </trkpt>
      <trkpt lat="43.26642" lon="-1.54155">
        <ele>220</ele>
        <time>2026-08-23T14:09:46.000Z</time>
      </trkpt>
      <trkpt lat="43.2664" lon="-1.54143">
        <ele>222</ele>
        <time>2026-08-23T14:09:47.000Z</time>
      </trkpt>
      <trkpt lat="43.26645" lon="-1.54134">
        <ele>222</ele>
        <time>2026-08-23T14:09:49.000Z</time>
      </trkpt>
      <trkpt lat="43.26662" lon="-1.54122">
        <ele>221</ele>
        <time>2026-08-23T14:09:52.000Z</time>
      </trkpt>
      <trkpt lat="43.26679" lon="-1.54093">
        <ele>222</ele>
        <time>2026-08-23T14:09:57.000Z</time>
      </trkpt>
      <trkpt lat="43.26688" lon="-1.54069">
        <ele>226</ele>
        <time>2026-08-23T14:10:00.000Z</time>
      </trkpt>
      <trkpt lat="43.26695" lon="-1.54062">
        <ele>228</ele>
        <time>2026-08-23T14:10:02.000Z</time>
      </trkpt>
      <trkpt lat="43.26715" lon="-1.54065">
        <ele>226</ele>
        <time>2026-08-23T14:10:05.000Z</time>
      </trkpt>
      <trkpt lat="43.26773" lon="-1.54081">
        <ele>222</ele>
        <time>2026-08-23T14:10:16.000Z</time>
      </trkpt>
      <trkpt lat="43.26802" lon="-1.54083">
        <ele>222</ele>
        <time>2026-08-23T14:10:21.000Z</time>
      </trkpt>
      <trkpt lat="43.26825" lon="-1.54092">
        <ele>221</ele>
        <time>2026-08-23T14:10:25.000Z</time>
      </trkpt>
      <trkpt lat="43.26853" lon="-1.54097">
        <ele>218</ele>
        <time>2026-08-23T14:10:30.000Z</time>
      </trkpt>
      <trkpt lat="43.26866" lon="-1.54104">
        <ele>216</ele>
        <time>2026-08-23T14:10:33.000Z</time>
      </trkpt>
      <trkpt lat="43.26909" lon="-1.54139">
        <ele>212</ele>
        <time>2026-08-23T14:10:42.000Z</time>
      </trkpt>
      <trkpt lat="43.26934" lon="-1.54121">
        <ele>210</ele>
        <time>2026-08-23T14:10:47.000Z</time>
      </trkpt>
      <trkpt lat="43.26934" lon="-1.541">
        <ele>211</ele>
        <time>2026-08-23T14:10:50.000Z</time>
      </trkpt>
      <trkpt lat="43.26941" lon="-1.54053">
        <ele>210</ele>
        <time>2026-08-23T14:10:56.000Z</time>
      </trkpt>
      <trkpt lat="43.26943" lon="-1.54001">
        <ele>209</ele>
        <time>2026-08-23T14:11:02.000Z</time>
      </trkpt>
      <trkpt lat="43.26952" lon="-1.5395">
        <ele>208</ele>
        <time>2026-08-23T14:11:09.000Z</time>
      </trkpt>
      <trkpt lat="43.26963" lon="-1.53914">
        <ele>208</ele>
        <time>2026-08-23T14:11:14.000Z</time>
      </trkpt>
      <trkpt lat="43.26975" lon="-1.5385">
        <ele>204</ele>
        <time>2026-08-23T14:11:23.000Z</time>
      </trkpt>
      <trkpt lat="43.26979" lon="-1.53812">
        <ele>201</ele>
        <time>2026-08-23T14:11:28.000Z</time>
      </trkpt>
      <trkpt lat="43.26979" lon="-1.53783">
        <ele>198</ele>
        <time>2026-08-23T14:11:32.000Z</time>
      </trkpt>
      <trkpt lat="43.26989" lon="-1.53736">
        <ele>193</ele>
        <time>2026-08-23T14:11:38.000Z</time>
      </trkpt>
      <trkpt lat="43.27003" lon="-1.53696">
        <ele>190</ele>
        <time>2026-08-23T14:11:44.000Z</time>
      </trkpt>
      <trkpt lat="43.27013" lon="-1.53646">
        <ele>191</ele>
        <time>2026-08-23T14:11:50.000Z</time>
      </trkpt>
      <trkpt lat="43.27089" lon="-1.53466">
        <ele>186</ele>
        <time>2026-08-23T14:12:17.000Z</time>
      </trkpt>
      <trkpt lat="43.27136" lon="-1.53396">
        <ele>181</ele>
        <time>2026-08-23T14:12:30.000Z</time>
      </trkpt>
      <trkpt lat="43.27147" lon="-1.53369">
        <ele>180</ele>
        <time>2026-08-23T14:12:34.000Z</time>
      </trkpt>
      <trkpt lat="43.2717" lon="-1.53295">
        <ele>178</ele>
        <time>2026-08-23T14:12:44.000Z</time>
      </trkpt>
      <trkpt lat="43.2717" lon="-1.53295">
        <ele>178</ele>
        <time>2026-08-23T14:12:44.000Z</time>
      </trkpt>
      <trkpt lat="43.27186" lon="-1.53243">
        <ele>179</ele>
        <time>2026-08-23T14:12:51.000Z</time>
      </trkpt>
      <trkpt lat="43.27201" lon="-1.53206">
        <ele>179</ele>
        <time>2026-08-23T14:12:57.000Z</time>
      </trkpt>
      <trkpt lat="43.27224" lon="-1.53163">
        <ele>179</ele>
        <time>2026-08-23T14:13:04.000Z</time>
      </trkpt>
      <trkpt lat="43.27284" lon="-1.53081">
        <ele>179</ele>
        <time>2026-08-23T14:13:19.000Z</time>
      </trkpt>
      <trkpt lat="43.27348" lon="-1.52976">
        <ele>173</ele>
        <time>2026-08-23T14:13:37.000Z</time>
      </trkpt>
      <trkpt lat="43.27358" lon="-1.52963">
        <ele>171</ele>
        <time>2026-08-23T14:13:39.000Z</time>
      </trkpt>
      <trkpt lat="43.27381" lon="-1.52948">
        <ele>170</ele>
        <time>2026-08-23T14:13:44.000Z</time>
      </trkpt>
      <trkpt lat="43.27418" lon="-1.52935">
        <ele>168</ele>
        <time>2026-08-23T14:13:50.000Z</time>
      </trkpt>
      <trkpt lat="43.27457" lon="-1.52913">
        <ele>166</ele>
        <time>2026-08-23T14:13:58.000Z</time>
      </trkpt>
      <trkpt lat="43.27472" lon="-1.529">
        <ele>165</ele>
        <time>2026-08-23T14:14:01.000Z</time>
      </trkpt>
      <trkpt lat="43.27497" lon="-1.52864">
        <ele>163</ele>
        <time>2026-08-23T14:14:08.000Z</time>
      </trkpt>
      <trkpt lat="43.27507" lon="-1.52837">
        <ele>162</ele>
        <time>2026-08-23T14:14:11.000Z</time>
      </trkpt>
      <trkpt lat="43.27518" lon="-1.52795">
        <ele>161</ele>
        <time>2026-08-23T14:14:17.000Z</time>
      </trkpt>
      <trkpt lat="43.27533" lon="-1.52736">
        <ele>161</ele>
        <time>2026-08-23T14:14:25.000Z</time>
      </trkpt>
      <trkpt lat="43.27544" lon="-1.52685">
        <ele>161</ele>
        <time>2026-08-23T14:14:32.000Z</time>
      </trkpt>
      <trkpt lat="43.27544" lon="-1.52685">
        <ele>161</ele>
        <time>2026-08-23T14:14:32.000Z</time>
      </trkpt>
      <trkpt lat="43.27546" lon="-1.52674">
        <ele>161</ele>
        <time>2026-08-23T14:14:34.000Z</time>
      </trkpt>
      <trkpt lat="43.27547" lon="-1.52617">
        <ele>162</ele>
        <time>2026-08-23T14:14:41.000Z</time>
      </trkpt>
      <trkpt lat="43.27541" lon="-1.52515">
        <ele>162</ele>
        <time>2026-08-23T14:14:54.000Z</time>
      </trkpt>
      <trkpt lat="43.27541" lon="-1.52477">
        <ele>162</ele>
        <time>2026-08-23T14:14:59.000Z</time>
      </trkpt>
      <trkpt lat="43.27544" lon="-1.52446">
        <ele>163</ele>
        <time>2026-08-23T14:15:03.000Z</time>
      </trkpt>
      <trkpt lat="43.27577" lon="-1.52261">
        <ele>166</ele>
        <time>2026-08-23T14:15:28.000Z</time>
      </trkpt>
      <trkpt lat="43.27589" lon="-1.52215">
        <ele>165</ele>
        <time>2026-08-23T14:15:34.000Z</time>
      </trkpt>
      <trkpt lat="43.27605" lon="-1.5218">
        <ele>164</ele>
        <time>2026-08-23T14:15:40.000Z</time>
      </trkpt>
      <trkpt lat="43.27616" lon="-1.52165">
        <ele>163</ele>
        <time>2026-08-23T14:15:42.000Z</time>
      </trkpt>
      <trkpt lat="43.2763" lon="-1.52148">
        <ele>161</ele>
        <time>2026-08-23T14:15:46.000Z</time>
      </trkpt>
      <trkpt lat="43.27624" lon="-1.52138">
        <ele>161</ele>
        <time>2026-08-23T14:15:47.000Z</time>
      </trkpt>
      <trkpt lat="43.27622" lon="-1.52126">
        <ele>160</ele>
        <time>2026-08-23T14:15:49.000Z</time>
      </trkpt>
      <trkpt lat="43.27623" lon="-1.52115">
        <ele>159</ele>
        <time>2026-08-23T14:15:50.000Z</time>
      </trkpt>
      <trkpt lat="43.27628" lon="-1.52108">
        <ele>159</ele>
        <time>2026-08-23T14:15:52.000Z</time>
      </trkpt>
      <trkpt lat="43.27648" lon="-1.52098">
        <ele>158</ele>
        <time>2026-08-23T14:15:56.000Z</time>
      </trkpt>
      <trkpt lat="43.27663" lon="-1.52077">
        <ele>156</ele>
        <time>2026-08-23T14:15:59.000Z</time>
      </trkpt>
      <trkpt lat="43.27664" lon="-1.52061">
        <ele>155</ele>
        <time>2026-08-23T14:16:01.000Z</time>
      </trkpt>
      <trkpt lat="43.27659" lon="-1.52022">
        <ele>151</ele>
        <time>2026-08-23T14:16:07.000Z</time>
      </trkpt>
      <trkpt lat="43.27658" lon="-1.52">
        <ele>149</ele>
        <time>2026-08-23T14:16:09.000Z</time>
      </trkpt>
      <trkpt lat="43.27665" lon="-1.51971">
        <ele>147</ele>
        <time>2026-08-23T14:16:13.000Z</time>
      </trkpt>
      <trkpt lat="43.27677" lon="-1.51939">
        <ele>145</ele>
        <time>2026-08-23T14:16:18.000Z</time>
      </trkpt>
      <trkpt lat="43.27692" lon="-1.51921">
        <ele>146</ele>
        <time>2026-08-23T14:16:22.000Z</time>
      </trkpt>
      <trkpt lat="43.2771" lon="-1.51905">
        <ele>147</ele>
        <time>2026-08-23T14:16:25.000Z</time>
      </trkpt>
      <trkpt lat="43.27713" lon="-1.51899">
        <ele>147</ele>
        <time>2026-08-23T14:16:26.000Z</time>
      </trkpt>
      <trkpt lat="43.27713" lon="-1.51886">
        <ele>147</ele>
        <time>2026-08-23T14:16:28.000Z</time>
      </trkpt>
      <trkpt lat="43.27709" lon="-1.51876">
        <ele>146</ele>
        <time>2026-08-23T14:16:29.000Z</time>
      </trkpt>
      <trkpt lat="43.27689" lon="-1.51862">
        <ele>142</ele>
        <time>2026-08-23T14:16:33.000Z</time>
      </trkpt>
      <trkpt lat="43.27671" lon="-1.51858">
        <ele>139</ele>
        <time>2026-08-23T14:16:37.000Z</time>
      </trkpt>
      <trkpt lat="43.27652" lon="-1.51846">
        <ele>135</ele>
        <time>2026-08-23T14:16:40.000Z</time>
      </trkpt>
      <trkpt lat="43.27637" lon="-1.51841">
        <ele>133</ele>
        <time>2026-08-23T14:16:43.000Z</time>
      </trkpt>
      <trkpt lat="43.27616" lon="-1.51823">
        <ele>129</ele>
        <time>2026-08-23T14:16:48.000Z</time>
      </trkpt>
      <trkpt lat="43.27598" lon="-1.51797">
        <ele>125</ele>
        <time>2026-08-23T14:16:52.000Z</time>
      </trkpt>
      <trkpt lat="43.27581" lon="-1.51763">
        <ele>121</ele>
        <time>2026-08-23T14:16:58.000Z</time>
      </trkpt>
      <trkpt lat="43.27572" lon="-1.51709">
        <ele>119</ele>
        <time>2026-08-23T14:17:05.000Z</time>
      </trkpt>
      <trkpt lat="43.2757" lon="-1.51679">
        <ele>119</ele>
        <time>2026-08-23T14:17:09.000Z</time>
      </trkpt>
      <trkpt lat="43.27571" lon="-1.5164">
        <ele>118</ele>
        <time>2026-08-23T14:17:14.000Z</time>
      </trkpt>
      <trkpt lat="43.27575" lon="-1.5161">
        <ele>116</ele>
        <time>2026-08-23T14:17:18.000Z</time>
      </trkpt>
      <trkpt lat="43.27584" lon="-1.51582">
        <ele>114</ele>
        <time>2026-08-23T14:17:22.000Z</time>
      </trkpt>
      <trkpt lat="43.27588" lon="-1.51561">
        <ele>113</ele>
        <time>2026-08-23T14:17:24.000Z</time>
      </trkpt>
      <trkpt lat="43.27586" lon="-1.51544">
        <ele>112</ele>
        <time>2026-08-23T14:17:27.000Z</time>
      </trkpt>
      <trkpt lat="43.27578" lon="-1.51498">
        <ele>110</ele>
        <time>2026-08-23T14:17:33.000Z</time>
      </trkpt>
      <trkpt lat="43.27575" lon="-1.5146">
        <ele>111</ele>
        <time>2026-08-23T14:17:38.000Z</time>
      </trkpt>
      <trkpt lat="43.27578" lon="-1.51424">
        <ele>110</ele>
        <time>2026-08-23T14:17:42.000Z</time>
      </trkpt>
      <trkpt lat="43.27589" lon="-1.51385">
        <ele>109</ele>
        <time>2026-08-23T14:17:48.000Z</time>
      </trkpt>
      <trkpt lat="43.27628" lon="-1.51318">
        <ele>113</ele>
        <time>2026-08-23T14:17:59.000Z</time>
      </trkpt>
      <trkpt lat="43.27639" lon="-1.51285">
        <ele>110</ele>
        <time>2026-08-23T14:18:04.000Z</time>
      </trkpt>
      <trkpt lat="43.27643" lon="-1.51256">
        <ele>107</ele>
        <time>2026-08-23T14:18:08.000Z</time>
      </trkpt>
      <trkpt lat="43.2764" lon="-1.51161">
        <ele>100</ele>
        <time>2026-08-23T14:18:20.000Z</time>
      </trkpt>
      <trkpt lat="43.27642" lon="-1.51105">
        <ele>99</ele>
        <time>2026-08-23T14:18:27.000Z</time>
      </trkpt>
      <trkpt lat="43.27639" lon="-1.51058">
        <ele>99</ele>
        <time>2026-08-23T14:18:33.000Z</time>
      </trkpt>
      <trkpt lat="43.27628" lon="-1.50999">
        <ele>98</ele>
        <time>2026-08-23T14:18:41.000Z</time>
      </trkpt>
      <trkpt lat="43.27613" lon="-1.50947">
        <ele>100</ele>
        <time>2026-08-23T14:18:48.000Z</time>
      </trkpt>
      <trkpt lat="43.27606" lon="-1.50866">
        <ele>99</ele>
        <time>2026-08-23T14:18:59.000Z</time>
      </trkpt>
      <trkpt lat="43.27598" lon="-1.50829">
        <ele>100</ele>
        <time>2026-08-23T14:19:04.000Z</time>
      </trkpt>
      <trkpt lat="43.27583" lon="-1.50793">
        <ele>99</ele>
        <time>2026-08-23T14:19:09.000Z</time>
      </trkpt>
      <trkpt lat="43.27535" lon="-1.50734">
        <ele>105</ele>
        <time>2026-08-23T14:19:21.000Z</time>
      </trkpt>
      <trkpt lat="43.27488" lon="-1.50691">
        <ele>107</ele>
        <time>2026-08-23T14:19:31.000Z</time>
      </trkpt>
      <trkpt lat="43.27455" lon="-1.50668">
        <ele>107</ele>
        <time>2026-08-23T14:19:37.000Z</time>
      </trkpt>
      <trkpt lat="43.2742" lon="-1.50655">
        <ele>108</ele>
        <time>2026-08-23T14:19:44.000Z</time>
      </trkpt>
      <trkpt lat="43.27393" lon="-1.50649">
        <ele>107</ele>
        <time>2026-08-23T14:19:49.000Z</time>
      </trkpt>
      <trkpt lat="43.27355" lon="-1.5062">
        <ele>102</ele>
        <time>2026-08-23T14:19:56.000Z</time>
      </trkpt>
      <trkpt lat="43.27355" lon="-1.5062">
        <ele>102</ele>
        <time>2026-08-23T14:19:56.000Z</time>
      </trkpt>
      <trkpt lat="43.27313" lon="-1.50573">
        <ele>95</ele>
        <time>2026-08-23T14:20:06.000Z</time>
      </trkpt>
      <trkpt lat="43.27277" lon="-1.50558">
        <ele>94</ele>
        <time>2026-08-23T14:20:13.000Z</time>
      </trkpt>
      <trkpt lat="43.27248" lon="-1.50541">
        <ele>93</ele>
        <time>2026-08-23T14:20:18.000Z</time>
      </trkpt>
      <trkpt lat="43.27225" lon="-1.50531">
        <ele>93</ele>
        <time>2026-08-23T14:20:23.000Z</time>
      </trkpt>
      <trkpt lat="43.27217" lon="-1.50523">
        <ele>93</ele>
        <time>2026-08-23T14:20:24.000Z</time>
      </trkpt>
      <trkpt lat="43.27252" lon="-1.50502">
        <ele>90</ele>
        <time>2026-08-23T14:20:31.000Z</time>
      </trkpt>
      <trkpt lat="43.27272" lon="-1.50492">
        <ele>89</ele>
        <time>2026-08-23T14:20:35.000Z</time>
      </trkpt>
      <trkpt lat="43.27322" lon="-1.50473">
        <ele>88</ele>
        <time>2026-08-23T14:20:44.000Z</time>
      </trkpt>
      <trkpt lat="43.27349" lon="-1.50459">
        <ele>93</ele>
        <time>2026-08-23T14:20:49.000Z</time>
      </trkpt>
      <trkpt lat="43.2736" lon="-1.50456">
        <ele>95</ele>
        <time>2026-08-23T14:20:51.000Z</time>
      </trkpt>
      <trkpt lat="43.27375" lon="-1.50457">
        <ele>99</ele>
        <time>2026-08-23T14:20:54.000Z</time>
      </trkpt>
      <trkpt lat="43.27445" lon="-1.5052">
        <ele>102</ele>
        <time>2026-08-23T14:21:09.000Z</time>
      </trkpt>
      <trkpt lat="43.2746" lon="-1.50529">
        <ele>103</ele>
        <time>2026-08-23T14:21:12.000Z</time>
      </trkpt>
      <trkpt lat="43.27478" lon="-1.50535">
        <ele>104</ele>
        <time>2026-08-23T14:21:15.000Z</time>
      </trkpt>
      <trkpt lat="43.27494" lon="-1.50537">
        <ele>105</ele>
        <time>2026-08-23T14:21:18.000Z</time>
      </trkpt>
      <trkpt lat="43.27515" lon="-1.50535">
        <ele>107</ele>
        <time>2026-08-23T14:21:22.000Z</time>
      </trkpt>
      <trkpt lat="43.27566" lon="-1.50524">
        <ele>111</ele>
        <time>2026-08-23T14:21:31.000Z</time>
      </trkpt>
      <trkpt lat="43.276" lon="-1.50511">
        <ele>112</ele>
        <time>2026-08-23T14:21:37.000Z</time>
      </trkpt>
      <trkpt lat="43.2762" lon="-1.50499">
        <ele>111</ele>
        <time>2026-08-23T14:21:41.000Z</time>
      </trkpt>
      <trkpt lat="43.27638" lon="-1.50484">
        <ele>111</ele>
        <time>2026-08-23T14:21:45.000Z</time>
      </trkpt>
      <trkpt lat="43.27672" lon="-1.50445">
        <ele>114</ele>
        <time>2026-08-23T14:21:53.000Z</time>
      </trkpt>
      <trkpt lat="43.27702" lon="-1.50396">
        <ele>119</ele>
        <time>2026-08-23T14:22:01.000Z</time>
      </trkpt>
      <trkpt lat="43.2771" lon="-1.50389">
        <ele>118</ele>
        <time>2026-08-23T14:22:03.000Z</time>
      </trkpt>
      <trkpt lat="43.27721" lon="-1.50384">
        <ele>117</ele>
        <time>2026-08-23T14:22:05.000Z</time>
      </trkpt>
      <trkpt lat="43.27737" lon="-1.50382">
        <ele>115</ele>
        <time>2026-08-23T14:22:08.000Z</time>
      </trkpt>
      <trkpt lat="43.27756" lon="-1.50382">
        <ele>111</ele>
        <time>2026-08-23T14:22:11.000Z</time>
      </trkpt>
      <trkpt lat="43.27767" lon="-1.50384">
        <ele>110</ele>
        <time>2026-08-23T14:22:13.000Z</time>
      </trkpt>
      <trkpt lat="43.27781" lon="-1.5039">
        <ele>108</ele>
        <time>2026-08-23T14:22:16.000Z</time>
      </trkpt>
      <trkpt lat="43.27791" lon="-1.50393">
        <ele>107</ele>
        <time>2026-08-23T14:22:17.000Z</time>
      </trkpt>
      <trkpt lat="43.27798" lon="-1.50388">
        <ele>107</ele>
        <time>2026-08-23T14:22:19.000Z</time>
      </trkpt>
      <trkpt lat="43.27803" lon="-1.50374">
        <ele>110</ele>
        <time>2026-08-23T14:22:21.000Z</time>
      </trkpt>
      <trkpt lat="43.27809" lon="-1.50349">
        <ele>114</ele>
        <time>2026-08-23T14:22:24.000Z</time>
      </trkpt>
      <trkpt lat="43.27833" lon="-1.50356">
        <ele>111</ele>
        <time>2026-08-23T14:22:29.000Z</time>
      </trkpt>
      <trkpt lat="43.27856" lon="-1.50365">
        <ele>108</ele>
        <time>2026-08-23T14:22:33.000Z</time>
      </trkpt>
      <trkpt lat="43.27878" lon="-1.5037">
        <ele>106</ele>
        <time>2026-08-23T14:22:37.000Z</time>
      </trkpt>
      <trkpt lat="43.27925" lon="-1.50377">
        <ele>104</ele>
        <time>2026-08-23T14:22:45.000Z</time>
      </trkpt>
      <trkpt lat="43.27941" lon="-1.50383">
        <ele>104</ele>
        <time>2026-08-23T14:22:48.000Z</time>
      </trkpt>
      <trkpt lat="43.27983" lon="-1.50409">
        <ele>102</ele>
        <time>2026-08-23T14:22:56.000Z</time>
      </trkpt>
      <trkpt lat="43.28114" lon="-1.50498">
        <ele>103</ele>
        <time>2026-08-23T14:23:22.000Z</time>
      </trkpt>
      <trkpt lat="43.28155" lon="-1.50519">
        <ele>103</ele>
        <time>2026-08-23T14:23:30.000Z</time>
      </trkpt>
      <trkpt lat="43.28182" lon="-1.50527">
        <ele>103</ele>
        <time>2026-08-23T14:23:35.000Z</time>
      </trkpt>
      <trkpt lat="43.28462" lon="-1.50571">
        <ele>95</ele>
        <time>2026-08-23T14:24:25.000Z</time>
      </trkpt>
      <trkpt lat="43.28462" lon="-1.50567">
        <ele>95</ele>
        <time>2026-08-23T14:24:26.000Z</time>
      </trkpt>
      <trkpt lat="43.28467" lon="-1.50559">
        <ele>95</ele>
        <time>2026-08-23T14:24:27.000Z</time>
      </trkpt>
      <trkpt lat="43.28474" lon="-1.50557">
        <ele>95</ele>
        <time>2026-08-23T14:24:28.000Z</time>
      </trkpt>
      <trkpt lat="43.28477" lon="-1.50559">
        <ele>95</ele>
        <time>2026-08-23T14:24:29.000Z</time>
      </trkpt>
      <trkpt lat="43.28482" lon="-1.50565">
        <ele>95</ele>
        <time>2026-08-23T14:24:30.000Z</time>
      </trkpt>
      <trkpt lat="43.28484" lon="-1.50575">
        <ele>95</ele>
        <time>2026-08-23T14:24:32.000Z</time>
      </trkpt>
      <trkpt lat="43.2859" lon="-1.50594">
        <ele>93</ele>
        <time>2026-08-23T14:24:51.000Z</time>
      </trkpt>
      <trkpt lat="43.28674" lon="-1.50592">
        <ele>88</ele>
        <time>2026-08-23T14:25:05.000Z</time>
      </trkpt>
      <trkpt lat="43.28689" lon="-1.50583">
        <ele>88</ele>
        <time>2026-08-23T14:25:08.000Z</time>
      </trkpt>
      <trkpt lat="43.28693" lon="-1.50578">
        <ele>89</ele>
        <time>2026-08-23T14:25:09.000Z</time>
      </trkpt>
      <trkpt lat="43.287" lon="-1.50574">
        <ele>89</ele>
        <time>2026-08-23T14:25:11.000Z</time>
      </trkpt>
      <trkpt lat="43.28707" lon="-1.50576">
        <ele>88</ele>
        <time>2026-08-23T14:25:12.000Z</time>
      </trkpt>
      <trkpt lat="43.28712" lon="-1.50585">
        <ele>86</ele>
        <time>2026-08-23T14:25:13.000Z</time>
      </trkpt>
      <trkpt lat="43.28731" lon="-1.50595">
        <ele>84</ele>
        <time>2026-08-23T14:25:17.000Z</time>
      </trkpt>
      <trkpt lat="43.28846" lon="-1.50591">
        <ele>79</ele>
        <time>2026-08-23T14:25:38.000Z</time>
      </trkpt>
      <trkpt lat="43.2891" lon="-1.50581">
        <ele>77</ele>
        <time>2026-08-23T14:25:49.000Z</time>
      </trkpt>
      <trkpt lat="43.28933" lon="-1.50576">
        <ele>77</ele>
        <time>2026-08-23T14:25:53.000Z</time>
      </trkpt>
      <trkpt lat="43.28957" lon="-1.50561">
        <ele>78</ele>
        <time>2026-08-23T14:25:58.000Z</time>
      </trkpt>
      <trkpt lat="43.28959" lon="-1.50556">
        <ele>78</ele>
        <time>2026-08-23T14:25:59.000Z</time>
      </trkpt>
      <trkpt lat="43.28965" lon="-1.5055">
        <ele>79</ele>
        <time>2026-08-23T14:26:00.000Z</time>
      </trkpt>
      <trkpt lat="43.28969" lon="-1.50549">
        <ele>79</ele>
        <time>2026-08-23T14:26:01.000Z</time>
      </trkpt>
      <trkpt lat="43.28972" lon="-1.50549">
        <ele>79</ele>
        <time>2026-08-23T14:26:01.000Z</time>
      </trkpt>
      <trkpt lat="43.28979" lon="-1.50555">
        <ele>78</ele>
        <time>2026-08-23T14:26:03.000Z</time>
      </trkpt>
      <trkpt lat="43.28998" lon="-1.50564">
        <ele>77</ele>
        <time>2026-08-23T14:26:06.000Z</time>
      </trkpt>
      <trkpt lat="43.2909" lon="-1.50558">
        <ele>72</ele>
        <time>2026-08-23T14:26:23.000Z</time>
      </trkpt>
      <trkpt lat="43.29106" lon="-1.5055">
        <ele>72</ele>
        <time>2026-08-23T14:26:26.000Z</time>
      </trkpt>
      <trkpt lat="43.29113" lon="-1.50545">
        <ele>72</ele>
        <time>2026-08-23T14:26:27.000Z</time>
      </trkpt>
      <trkpt lat="43.29117" lon="-1.50545">
        <ele>72</ele>
        <time>2026-08-23T14:26:28.000Z</time>
      </trkpt>
      <trkpt lat="43.29124" lon="-1.5055">
        <ele>72</ele>
        <time>2026-08-23T14:26:29.000Z</time>
      </trkpt>
      <trkpt lat="43.29145" lon="-1.50559">
        <ele>71</ele>
        <time>2026-08-23T14:26:33.000Z</time>
      </trkpt>
      <trkpt lat="43.29229" lon="-1.5055">
        <ele>71</ele>
        <time>2026-08-23T14:26:48.000Z</time>
      </trkpt>
      <trkpt lat="43.29236" lon="-1.50557">
        <ele>71</ele>
        <time>2026-08-23T14:26:50.000Z</time>
      </trkpt>
      <trkpt lat="43.29238" lon="-1.50567">
        <ele>71</ele>
        <time>2026-08-23T14:26:51.000Z</time>
      </trkpt>
      <trkpt lat="43.29245" lon="-1.50582">
        <ele>71</ele>
        <time>2026-08-23T14:26:53.000Z</time>
      </trkpt>
      <trkpt lat="43.2926" lon="-1.50606">
        <ele>75</ele>
        <time>2026-08-23T14:26:57.000Z</time>
      </trkpt>
      <trkpt lat="43.2926" lon="-1.50606">
        <ele>75</ele>
        <time>2026-08-23T14:26:57.000Z</time>
      </trkpt>
      <trkpt lat="43.29265" lon="-1.50614">
        <ele>76</ele>
        <time>2026-08-23T14:26:59.000Z</time>
      </trkpt>
      <trkpt lat="43.29279" lon="-1.50623">
        <ele>76</ele>
        <time>2026-08-23T14:27:01.000Z</time>
      </trkpt>
      <trkpt lat="43.29291" lon="-1.50625">
        <ele>76</ele>
        <time>2026-08-23T14:27:04.000Z</time>
      </trkpt>
      <trkpt lat="43.2934" lon="-1.50611">
        <ele>70</ele>
        <time>2026-08-23T14:27:12.000Z</time>
      </trkpt>
      <trkpt lat="43.29403" lon="-1.50616">
        <ele>70</ele>
        <time>2026-08-23T14:27:24.000Z</time>
      </trkpt>
      <trkpt lat="43.29407" lon="-1.50604">
        <ele>68</ele>
        <time>2026-08-23T14:27:25.000Z</time>
      </trkpt>
      <trkpt lat="43.29409" lon="-1.50601">
        <ele>68</ele>
        <time>2026-08-23T14:27:26.000Z</time>
      </trkpt>
      <trkpt lat="43.29413" lon="-1.50599">
        <ele>68</ele>
        <time>2026-08-23T14:27:27.000Z</time>
      </trkpt>
      <trkpt lat="43.29421" lon="-1.50599">
        <ele>68</ele>
        <time>2026-08-23T14:27:28.000Z</time>
      </trkpt>
      <trkpt lat="43.29424" lon="-1.50602">
        <ele>68</ele>
        <time>2026-08-23T14:27:29.000Z</time>
      </trkpt>
      <trkpt lat="43.29428" lon="-1.50612">
        <ele>69</ele>
        <time>2026-08-23T14:27:30.000Z</time>
      </trkpt>
      <trkpt lat="43.29427" lon="-1.50623">
        <ele>71</ele>
        <time>2026-08-23T14:27:32.000Z</time>
      </trkpt>
      <trkpt lat="43.29449" lon="-1.50636">
        <ele>72</ele>
        <time>2026-08-23T14:27:36.000Z</time>
      </trkpt>
      <trkpt lat="43.29462" lon="-1.50636">
        <ele>72</ele>
        <time>2026-08-23T14:27:38.000Z</time>
      </trkpt>
      <trkpt lat="43.29474" lon="-1.50633">
        <ele>72</ele>
        <time>2026-08-23T14:27:40.000Z</time>
      </trkpt>
      <trkpt lat="43.29546" lon="-1.50602">
        <ele>71</ele>
        <time>2026-08-23T14:27:54.000Z</time>
      </trkpt>
      <trkpt lat="43.29559" lon="-1.50605">
        <ele>71</ele>
        <time>2026-08-23T14:27:56.000Z</time>
      </trkpt>
      <trkpt lat="43.29586" lon="-1.50623">
        <ele>71</ele>
        <time>2026-08-23T14:28:02.000Z</time>
      </trkpt>
      <trkpt lat="43.29597" lon="-1.50635">
        <ele>72</ele>
        <time>2026-08-23T14:28:04.000Z</time>
      </trkpt>
      <trkpt lat="43.29631" lon="-1.50688">
        <ele>73</ele>
        <time>2026-08-23T14:28:13.000Z</time>
      </trkpt>
      <trkpt lat="43.29648" lon="-1.507">
        <ele>73</ele>
        <time>2026-08-23T14:28:17.000Z</time>
      </trkpt>
      <trkpt lat="43.29711" lon="-1.50736">
        <ele>73</ele>
        <time>2026-08-23T14:28:29.000Z</time>
      </trkpt>
      <trkpt lat="43.29752" lon="-1.50765">
        <ele>72</ele>
        <time>2026-08-23T14:28:37.000Z</time>
      </trkpt>
      <trkpt lat="43.29788" lon="-1.50796">
        <ele>72</ele>
        <time>2026-08-23T14:28:45.000Z</time>
      </trkpt>
      <trkpt lat="43.29901" lon="-1.50908">
        <ele>69</ele>
        <time>2026-08-23T14:29:09.000Z</time>
      </trkpt>
      <trkpt lat="43.29911" lon="-1.50924">
        <ele>68</ele>
        <time>2026-08-23T14:29:12.000Z</time>
      </trkpt>
      <trkpt lat="43.29911" lon="-1.50924">
        <ele>68</ele>
        <time>2026-08-23T14:29:12.000Z</time>
      </trkpt>
      <trkpt lat="43.30006" lon="-1.5108">
        <ele>66</ele>
        <time>2026-08-23T14:29:38.000Z</time>
      </trkpt>
      <trkpt lat="43.30016" lon="-1.51107">
        <ele>67</ele>
        <time>2026-08-23T14:29:42.000Z</time>
      </trkpt>
      <trkpt lat="43.30015" lon="-1.51135">
        <ele>68</ele>
        <time>2026-08-23T14:29:46.000Z</time>
      </trkpt>
      <trkpt lat="43.3" lon="-1.51177">
        <ele>71</ele>
        <time>2026-08-23T14:29:52.000Z</time>
      </trkpt>
      <trkpt lat="43.2998" lon="-1.51206">
        <ele>75</ele>
        <time>2026-08-23T14:29:57.000Z</time>
      </trkpt>
      <trkpt lat="43.29971" lon="-1.51238">
        <ele>76</ele>
        <time>2026-08-23T14:30:02.000Z</time>
      </trkpt>
      <trkpt lat="43.29974" lon="-1.5125">
        <ele>76</ele>
        <time>2026-08-23T14:30:03.000Z</time>
      </trkpt>
      <trkpt lat="43.29983" lon="-1.51259">
        <ele>75</ele>
        <time>2026-08-23T14:30:05.000Z</time>
      </trkpt>
      <trkpt lat="43.29992" lon="-1.51256">
        <ele>73</ele>
        <time>2026-08-23T14:30:07.000Z</time>
      </trkpt>
      <trkpt lat="43.30025" lon="-1.51235">
        <ele>70</ele>
        <time>2026-08-23T14:30:13.000Z</time>
      </trkpt>
      <trkpt lat="43.3004" lon="-1.51235">
        <ele>69</ele>
        <time>2026-08-23T14:30:16.000Z</time>
      </trkpt>
      <trkpt lat="43.30052" lon="-1.51244">
        <ele>68</ele>
        <time>2026-08-23T14:30:18.000Z</time>
      </trkpt>
      <trkpt lat="43.30068" lon="-1.51265">
        <ele>69</ele>
        <time>2026-08-23T14:30:22.000Z</time>
      </trkpt>
      <trkpt lat="43.30081" lon="-1.51277">
        <ele>69</ele>
        <time>2026-08-23T14:30:25.000Z</time>
      </trkpt>
      <trkpt lat="43.30098" lon="-1.51281">
        <ele>69</ele>
        <time>2026-08-23T14:30:28.000Z</time>
      </trkpt>
      <trkpt lat="43.30151" lon="-1.51282">
        <ele>66</ele>
        <time>2026-08-23T14:30:38.000Z</time>
      </trkpt>
      <trkpt lat="43.30169" lon="-1.51286">
        <ele>66</ele>
        <time>2026-08-23T14:30:41.000Z</time>
      </trkpt>
      <trkpt lat="43.30187" lon="-1.51295">
        <ele>66</ele>
        <time>2026-08-23T14:30:44.000Z</time>
      </trkpt>
      <trkpt lat="43.30211" lon="-1.51312">
        <ele>67</ele>
        <time>2026-08-23T14:30:49.000Z</time>
      </trkpt>
      <trkpt lat="43.30373" lon="-1.51474">
        <ele>74</ele>
        <time>2026-08-23T14:31:25.000Z</time>
      </trkpt>
      <trkpt lat="43.3054" lon="-1.51663">
        <ele>70</ele>
        <time>2026-08-23T14:32:03.000Z</time>
      </trkpt>
      <trkpt lat="43.30565" lon="-1.517">
        <ele>71</ele>
        <time>2026-08-23T14:32:10.000Z</time>
      </trkpt>
      <trkpt lat="43.30598" lon="-1.51764">
        <ele>71</ele>
        <time>2026-08-23T14:32:20.000Z</time>
      </trkpt>
      <trkpt lat="43.30674" lon="-1.51854">
        <ele>68</ele>
        <time>2026-08-23T14:32:38.000Z</time>
      </trkpt>
      <trkpt lat="43.30685" lon="-1.51877">
        <ele>67</ele>
        <time>2026-08-23T14:32:41.000Z</time>
      </trkpt>
      <trkpt lat="43.30709" lon="-1.51968">
        <ele>65</ele>
        <time>2026-08-23T14:32:54.000Z</time>
      </trkpt>
      <trkpt lat="43.30718" lon="-1.52015">
        <ele>64</ele>
        <time>2026-08-23T14:33:00.000Z</time>
      </trkpt>
      <trkpt lat="43.30719" lon="-1.52035">
        <ele>63</ele>
        <time>2026-08-23T14:33:03.000Z</time>
      </trkpt>
      <trkpt lat="43.30715" lon="-1.52071">
        <ele>63</ele>
        <time>2026-08-23T14:33:08.000Z</time>
      </trkpt>
      <trkpt lat="43.30701" lon="-1.52105">
        <ele>63</ele>
        <time>2026-08-23T14:33:13.000Z</time>
      </trkpt>
      <trkpt lat="43.30642" lon="-1.52178">
        <ele>62</ele>
        <time>2026-08-23T14:33:27.000Z</time>
      </trkpt>
      <trkpt lat="43.30623" lon="-1.52217">
        <ele>61</ele>
        <time>2026-08-23T14:33:33.000Z</time>
      </trkpt>
      <trkpt lat="43.30622" lon="-1.52278">
        <ele>58</ele>
        <time>2026-08-23T14:33:41.000Z</time>
      </trkpt>
      <trkpt lat="43.30624" lon="-1.52336">
        <ele>57</ele>
        <time>2026-08-23T14:33:48.000Z</time>
      </trkpt>
      <trkpt lat="43.30625" lon="-1.52436">
        <ele>60</ele>
        <time>2026-08-23T14:34:01.000Z</time>
      </trkpt>
      <trkpt lat="43.30632" lon="-1.52475">
        <ele>59</ele>
        <time>2026-08-23T14:34:06.000Z</time>
      </trkpt>
      <trkpt lat="43.30651" lon="-1.52556">
        <ele>56</ele>
        <time>2026-08-23T14:34:17.000Z</time>
      </trkpt>
      <trkpt lat="43.30674" lon="-1.52595">
        <ele>55</ele>
        <time>2026-08-23T14:34:24.000Z</time>
      </trkpt>
      <trkpt lat="43.30723" lon="-1.52653">
        <ele>57</ele>
        <time>2026-08-23T14:34:35.000Z</time>
      </trkpt>
      <trkpt lat="43.30798" lon="-1.52725">
        <ele>55</ele>
        <time>2026-08-23T14:34:52.000Z</time>
      </trkpt>
      <trkpt lat="43.3082" lon="-1.52736">
        <ele>56</ele>
        <time>2026-08-23T14:34:56.000Z</time>
      </trkpt>
      <trkpt lat="43.30866" lon="-1.52747">
        <ele>57</ele>
        <time>2026-08-23T14:35:04.000Z</time>
      </trkpt>
      <trkpt lat="43.3089" lon="-1.52756">
        <ele>58</ele>
        <time>2026-08-23T14:35:09.000Z</time>
      </trkpt>
      <trkpt lat="43.30919" lon="-1.52771">
        <ele>59</ele>
        <time>2026-08-23T14:35:14.000Z</time>
      </trkpt>
      <trkpt lat="43.30939" lon="-1.52787">
        <ele>58</ele>
        <time>2026-08-23T14:35:18.000Z</time>
      </trkpt>
      <trkpt lat="43.3095" lon="-1.52809">
        <ele>56</ele>
        <time>2026-08-23T14:35:22.000Z</time>
      </trkpt>
      <trkpt lat="43.3096" lon="-1.52853">
        <ele>54</ele>
        <time>2026-08-23T14:35:28.000Z</time>
      </trkpt>
      <trkpt lat="43.30986" lon="-1.5291">
        <ele>52</ele>
        <time>2026-08-23T14:35:36.000Z</time>
      </trkpt>
      <trkpt lat="43.31004" lon="-1.52932">
        <ele>52</ele>
        <time>2026-08-23T14:35:41.000Z</time>
      </trkpt>
      <trkpt lat="43.31023" lon="-1.52946">
        <ele>51</ele>
        <time>2026-08-23T14:35:44.000Z</time>
      </trkpt>
      <trkpt lat="43.3105" lon="-1.52956">
        <ele>51</ele>
        <time>2026-08-23T14:35:49.000Z</time>
      </trkpt>
      <trkpt lat="43.3105" lon="-1.52956">
        <ele>51</ele>
        <time>2026-08-23T14:35:49.000Z</time>
      </trkpt>
      <trkpt lat="43.31079" lon="-1.52962">
        <ele>51</ele>
        <time>2026-08-23T14:35:55.000Z</time>
      </trkpt>
      <trkpt lat="43.31097" lon="-1.52971">
        <ele>51</ele>
        <time>2026-08-23T14:35:58.000Z</time>
      </trkpt>
      <trkpt lat="43.31124" lon="-1.52993">
        <ele>50</ele>
        <time>2026-08-23T14:36:04.000Z</time>
      </trkpt>
      <trkpt lat="43.31152" lon="-1.53005">
        <ele>49</ele>
        <time>2026-08-23T14:36:09.000Z</time>
      </trkpt>
      <trkpt lat="43.31178" lon="-1.53009">
        <ele>49</ele>
        <time>2026-08-23T14:36:13.000Z</time>
      </trkpt>
      <trkpt lat="43.31203" lon="-1.53007">
        <ele>49</ele>
        <time>2026-08-23T14:36:18.000Z</time>
      </trkpt>
      <trkpt lat="43.31224" lon="-1.52997">
        <ele>50</ele>
        <time>2026-08-23T14:36:22.000Z</time>
      </trkpt>
      <trkpt lat="43.31235" lon="-1.5299">
        <ele>51</ele>
        <time>2026-08-23T14:36:24.000Z</time>
      </trkpt>
      <trkpt lat="43.31266" lon="-1.5296">
        <ele>54</ele>
        <time>2026-08-23T14:36:31.000Z</time>
      </trkpt>
      <trkpt lat="43.31284" lon="-1.52947">
        <ele>56</ele>
        <time>2026-08-23T14:36:34.000Z</time>
      </trkpt>
      <trkpt lat="43.31298" lon="-1.52942">
        <ele>57</ele>
        <time>2026-08-23T14:36:37.000Z</time>
      </trkpt>
      <trkpt lat="43.31325" lon="-1.52939">
        <ele>57</ele>
        <time>2026-08-23T14:36:42.000Z</time>
      </trkpt>
      <trkpt lat="43.31343" lon="-1.52942">
        <ele>58</ele>
        <time>2026-08-23T14:36:45.000Z</time>
      </trkpt>
      <trkpt lat="43.31365" lon="-1.52951">
        <ele>59</ele>
        <time>2026-08-23T14:36:49.000Z</time>
      </trkpt>
      <trkpt lat="43.31401" lon="-1.52976">
        <ele>60</ele>
        <time>2026-08-23T14:36:56.000Z</time>
      </trkpt>
      <trkpt lat="43.31423" lon="-1.52988">
        <ele>60</ele>
        <time>2026-08-23T14:37:01.000Z</time>
      </trkpt>
      <trkpt lat="43.31443" lon="-1.52996">
        <ele>59</ele>
        <time>2026-08-23T14:37:04.000Z</time>
      </trkpt>
      <trkpt lat="43.31492" lon="-1.53005">
        <ele>59</ele>
        <time>2026-08-23T14:37:13.000Z</time>
      </trkpt>
      <trkpt lat="43.3154" lon="-1.53003">
        <ele>59</ele>
        <time>2026-08-23T14:37:22.000Z</time>
      </trkpt>
      <trkpt lat="43.31555" lon="-1.53004">
        <ele>59</ele>
        <time>2026-08-23T14:37:24.000Z</time>
      </trkpt>
      <trkpt lat="43.31573" lon="-1.53009">
        <ele>59</ele>
        <time>2026-08-23T14:37:28.000Z</time>
      </trkpt>
      <trkpt lat="43.31606" lon="-1.53023">
        <ele>56</ele>
        <time>2026-08-23T14:37:34.000Z</time>
      </trkpt>
      <trkpt lat="43.31624" lon="-1.53036">
        <ele>54</ele>
        <time>2026-08-23T14:37:37.000Z</time>
      </trkpt>
      <trkpt lat="43.31641" lon="-1.53054">
        <ele>53</ele>
        <time>2026-08-23T14:37:41.000Z</time>
      </trkpt>
      <trkpt lat="43.31657" lon="-1.53075">
        <ele>51</ele>
        <time>2026-08-23T14:37:45.000Z</time>
      </trkpt>
      <trkpt lat="43.31773" lon="-1.53258">
        <ele>47</ele>
        <time>2026-08-23T14:38:16.000Z</time>
      </trkpt>
      <trkpt lat="43.31914" lon="-1.53472">
        <ele>41</ele>
        <time>2026-08-23T14:38:54.000Z</time>
      </trkpt>
      <trkpt lat="43.31979" lon="-1.53573">
        <ele>40</ele>
        <time>2026-08-23T14:39:11.000Z</time>
      </trkpt>
      <trkpt lat="43.31987" lon="-1.53592">
        <ele>39</ele>
        <time>2026-08-23T14:39:14.000Z</time>
      </trkpt>
      <trkpt lat="43.31993" lon="-1.53613">
        <ele>39</ele>
        <time>2026-08-23T14:39:17.000Z</time>
      </trkpt>
      <trkpt lat="43.31997" lon="-1.53637">
        <ele>40</ele>
        <time>2026-08-23T14:39:20.000Z</time>
      </trkpt>
      <trkpt lat="43.3201" lon="-1.5392">
        <ele>39</ele>
        <time>2026-08-23T14:39:57.000Z</time>
      </trkpt>
      <trkpt lat="43.32008" lon="-1.53954">
        <ele>39</ele>
        <time>2026-08-23T14:40:01.000Z</time>
      </trkpt>
      <trkpt lat="43.32" lon="-1.5399">
        <ele>38</ele>
        <time>2026-08-23T14:40:06.000Z</time>
      </trkpt>
      <trkpt lat="43.31893" lon="-1.54372">
        <ele>41</ele>
        <time>2026-08-23T14:40:59.000Z</time>
      </trkpt>
      <trkpt lat="43.31878" lon="-1.54436">
        <ele>41</ele>
        <time>2026-08-23T14:41:08.000Z</time>
      </trkpt>
      <trkpt lat="43.31876" lon="-1.54458">
        <ele>41</ele>
        <time>2026-08-23T14:41:11.000Z</time>
      </trkpt>
      <trkpt lat="43.31874" lon="-1.54494">
        <ele>40</ele>
        <time>2026-08-23T14:41:15.000Z</time>
      </trkpt>
      <trkpt lat="43.31875" lon="-1.54516">
        <ele>40</ele>
        <time>2026-08-23T14:41:18.000Z</time>
      </trkpt>
      <trkpt lat="43.31881" lon="-1.54558">
        <ele>40</ele>
        <time>2026-08-23T14:41:24.000Z</time>
      </trkpt>
      <trkpt lat="43.31896" lon="-1.54605">
        <ele>40</ele>
        <time>2026-08-23T14:41:30.000Z</time>
      </trkpt>
      <trkpt lat="43.31912" lon="-1.5464">
        <ele>39</ele>
        <time>2026-08-23T14:41:36.000Z</time>
      </trkpt>
      <trkpt lat="43.31936" lon="-1.54676">
        <ele>40</ele>
        <time>2026-08-23T14:41:42.000Z</time>
      </trkpt>
      <trkpt lat="43.32076" lon="-1.54852">
        <ele>32</ele>
        <time>2026-08-23T14:42:16.000Z</time>
      </trkpt>
      <trkpt lat="43.32076" lon="-1.54852">
        <ele>32</ele>
        <time>2026-08-23T14:42:16.000Z</time>
      </trkpt>
      <trkpt lat="43.3212" lon="-1.54908">
        <ele>30</ele>
        <time>2026-08-23T14:42:27.000Z</time>
      </trkpt>
      <trkpt lat="43.32125" lon="-1.54918">
        <ele>30</ele>
        <time>2026-08-23T14:42:28.000Z</time>
      </trkpt>
      <trkpt lat="43.32132" lon="-1.54943">
        <ele>30</ele>
        <time>2026-08-23T14:42:32.000Z</time>
      </trkpt>
      <trkpt lat="43.32143" lon="-1.55021">
        <ele>31</ele>
        <time>2026-08-23T14:42:42.000Z</time>
      </trkpt>
      <trkpt lat="43.32152" lon="-1.55048">
        <ele>31</ele>
        <time>2026-08-23T14:42:46.000Z</time>
      </trkpt>
      <trkpt lat="43.32181" lon="-1.55023">
        <ele>30</ele>
        <time>2026-08-23T14:42:52.000Z</time>
      </trkpt>
      <trkpt lat="43.3238" lon="-1.54929">
        <ele>32</ele>
        <time>2026-08-23T14:43:29.000Z</time>
      </trkpt>
      <trkpt lat="43.32463" lon="-1.54892">
        <ele>34</ele>
        <time>2026-08-23T14:43:45.000Z</time>
      </trkpt>
      <trkpt lat="43.32568" lon="-1.5481">
        <ele>37</ele>
        <time>2026-08-23T14:44:06.000Z</time>
      </trkpt>
      <trkpt lat="43.32832" lon="-1.54536">
        <ele>38</ele>
        <time>2026-08-23T14:45:05.000Z</time>
      </trkpt>
      <trkpt lat="43.32897" lon="-1.54491">
        <ele>33</ele>
        <time>2026-08-23T14:45:18.000Z</time>
      </trkpt>
      <trkpt lat="43.32973" lon="-1.54445">
        <ele>31</ele>
        <time>2026-08-23T14:45:33.000Z</time>
      </trkpt>
      <trkpt lat="43.32992" lon="-1.54437">
        <ele>31</ele>
        <time>2026-08-23T14:45:36.000Z</time>
      </trkpt>
      <trkpt lat="43.33014" lon="-1.54435">
        <ele>31</ele>
        <time>2026-08-23T14:45:40.000Z</time>
      </trkpt>
      <trkpt lat="43.33034" lon="-1.54441">
        <ele>31</ele>
        <time>2026-08-23T14:45:44.000Z</time>
      </trkpt>
      <trkpt lat="43.33052" lon="-1.54449">
        <ele>32</ele>
        <time>2026-08-23T14:45:47.000Z</time>
      </trkpt>
      <trkpt lat="43.331" lon="-1.54501">
        <ele>33</ele>
        <time>2026-08-23T14:45:58.000Z</time>
      </trkpt>
      <trkpt lat="43.33146" lon="-1.54555">
        <ele>34</ele>
        <time>2026-08-23T14:46:09.000Z</time>
      </trkpt>
      <trkpt lat="43.3317" lon="-1.54594">
        <ele>35</ele>
        <time>2026-08-23T14:46:16.000Z</time>
      </trkpt>
      <trkpt lat="43.33195" lon="-1.54663">
        <ele>37</ele>
        <time>2026-08-23T14:46:26.000Z</time>
      </trkpt>
      <trkpt lat="43.3321" lon="-1.54694">
        <ele>39</ele>
        <time>2026-08-23T14:46:30.000Z</time>
      </trkpt>
      <trkpt lat="43.33231" lon="-1.54721">
        <ele>41</ele>
        <time>2026-08-23T14:46:36.000Z</time>
      </trkpt>
      <trkpt lat="43.33316" lon="-1.54798">
        <ele>42</ele>
        <time>2026-08-23T14:46:54.000Z</time>
      </trkpt>
      <trkpt lat="43.33342" lon="-1.5481">
        <ele>40</ele>
        <time>2026-08-23T14:46:59.000Z</time>
      </trkpt>
      <trkpt lat="43.33451" lon="-1.54835">
        <ele>35</ele>
        <time>2026-08-23T14:47:18.000Z</time>
      </trkpt>
      <trkpt lat="43.33528" lon="-1.54864">
        <ele>36</ele>
        <time>2026-08-23T14:47:32.000Z</time>
      </trkpt>
      <trkpt lat="43.33606" lon="-1.54902">
        <ele>38</ele>
        <time>2026-08-23T14:47:47.000Z</time>
      </trkpt>
      <trkpt lat="43.33689" lon="-1.54934">
        <ele>34</ele>
        <time>2026-08-23T14:48:02.000Z</time>
      </trkpt>
      <trkpt lat="43.3378" lon="-1.54987">
        <ele>34</ele>
        <time>2026-08-23T14:48:20.000Z</time>
      </trkpt>
      <trkpt lat="43.3378" lon="-1.54987">
        <ele>34</ele>
        <time>2026-08-23T14:48:20.000Z</time>
      </trkpt>
      <trkpt lat="43.33855" lon="-1.5503">
        <ele>39</ele>
        <time>2026-08-23T14:48:34.000Z</time>
      </trkpt>
      <trkpt lat="43.33886" lon="-1.55044">
        <ele>42</ele>
        <time>2026-08-23T14:48:40.000Z</time>
      </trkpt>
      <trkpt lat="43.33903" lon="-1.55043">
        <ele>44</ele>
        <time>2026-08-23T14:48:43.000Z</time>
      </trkpt>
      <trkpt lat="43.33917" lon="-1.55038">
        <ele>45</ele>
        <time>2026-08-23T14:48:46.000Z</time>
      </trkpt>
      <trkpt lat="43.33939" lon="-1.55026">
        <ele>44</ele>
        <time>2026-08-23T14:48:50.000Z</time>
      </trkpt>
      <trkpt lat="43.34187" lon="-1.54872">
        <ele>34</ele>
        <time>2026-08-23T14:49:39.000Z</time>
      </trkpt>
      <trkpt lat="43.34212" lon="-1.54863">
        <ele>33</ele>
        <time>2026-08-23T14:49:43.000Z</time>
      </trkpt>
      <trkpt lat="43.34239" lon="-1.54859">
        <ele>32</ele>
        <time>2026-08-23T14:49:48.000Z</time>
      </trkpt>
      <trkpt lat="43.34268" lon="-1.54861">
        <ele>31</ele>
        <time>2026-08-23T14:49:53.000Z</time>
      </trkpt>
      <trkpt lat="43.34293" lon="-1.54871">
        <ele>30</ele>
        <time>2026-08-23T14:49:58.000Z</time>
      </trkpt>
      <trkpt lat="43.34313" lon="-1.54884">
        <ele>30</ele>
        <time>2026-08-23T14:50:02.000Z</time>
      </trkpt>
      <trkpt lat="43.3434" lon="-1.5491">
        <ele>30</ele>
        <time>2026-08-23T14:50:08.000Z</time>
      </trkpt>
      <trkpt lat="43.3449" lon="-1.55114">
        <ele>22</ele>
        <time>2026-08-23T14:50:45.000Z</time>
      </trkpt>
      <trkpt lat="43.34548" lon="-1.55189">
        <ele>20</ele>
        <time>2026-08-23T14:50:59.000Z</time>
      </trkpt>
      <trkpt lat="43.34571" lon="-1.55205">
        <ele>19</ele>
        <time>2026-08-23T14:51:04.000Z</time>
      </trkpt>
      <trkpt lat="43.34597" lon="-1.55214">
        <ele>19</ele>
        <time>2026-08-23T14:51:09.000Z</time>
      </trkpt>
      <trkpt lat="43.34801" lon="-1.55235">
        <ele>19</ele>
        <time>2026-08-23T14:51:45.000Z</time>
      </trkpt>
      <trkpt lat="43.34821" lon="-1.55247">
        <ele>18</ele>
        <time>2026-08-23T14:51:49.000Z</time>
      </trkpt>
      <trkpt lat="43.34831" lon="-1.55248">
        <ele>18</ele>
        <time>2026-08-23T14:51:51.000Z</time>
      </trkpt>
      <trkpt lat="43.34847" lon="-1.55243">
        <ele>18</ele>
        <time>2026-08-23T14:51:54.000Z</time>
      </trkpt>
      <trkpt lat="43.34857" lon="-1.5523">
        <ele>19</ele>
        <time>2026-08-23T14:51:56.000Z</time>
      </trkpt>
      <trkpt lat="43.34865" lon="-1.55186">
        <ele>20</ele>
        <time>2026-08-23T14:52:02.000Z</time>
      </trkpt>
      <trkpt lat="43.34874" lon="-1.55162">
        <ele>21</ele>
        <time>2026-08-23T14:52:05.000Z</time>
      </trkpt>
      <trkpt lat="43.35078" lon="-1.54991">
        <ele>19</ele>
        <time>2026-08-23T14:52:48.000Z</time>
      </trkpt>
      <trkpt lat="43.3509" lon="-1.54968">
        <ele>19</ele>
        <time>2026-08-23T14:52:52.000Z</time>
      </trkpt>
      <trkpt lat="43.3509" lon="-1.54959">
        <ele>19</ele>
        <time>2026-08-23T14:52:53.000Z</time>
      </trkpt>
      <trkpt lat="43.35092" lon="-1.54951">
        <ele>19</ele>
        <time>2026-08-23T14:52:54.000Z</time>
      </trkpt>
      <trkpt lat="43.35095" lon="-1.54944">
        <ele>19</ele>
        <time>2026-08-23T14:52:55.000Z</time>
      </trkpt>
      <trkpt lat="43.35106" lon="-1.54935">
        <ele>19</ele>
        <time>2026-08-23T14:52:57.000Z</time>
      </trkpt>
      <trkpt lat="43.35113" lon="-1.54934">
        <ele>19</ele>
        <time>2026-08-23T14:52:58.000Z</time>
      </trkpt>
      <trkpt lat="43.3512" lon="-1.54937">
        <ele>19</ele>
        <time>2026-08-23T14:53:00.000Z</time>
      </trkpt>
      <trkpt lat="43.35125" lon="-1.54942">
        <ele>19</ele>
        <time>2026-08-23T14:53:01.000Z</time>
      </trkpt>
      <trkpt lat="43.35132" lon="-1.54956">
        <ele>18</ele>
        <time>2026-08-23T14:53:03.000Z</time>
      </trkpt>
      <trkpt lat="43.35133" lon="-1.54964">
        <ele>18</ele>
        <time>2026-08-23T14:53:04.000Z</time>
      </trkpt>
      <trkpt lat="43.35132" lon="-1.54974">
        <ele>18</ele>
        <time>2026-08-23T14:53:05.000Z</time>
      </trkpt>
      <trkpt lat="43.35128" lon="-1.54983">
        <ele>18</ele>
        <time>2026-08-23T14:53:07.000Z</time>
      </trkpt>
      <trkpt lat="43.35123" lon="-1.5499">
        <ele>18</ele>
        <time>2026-08-23T14:53:08.000Z</time>
      </trkpt>
      <trkpt lat="43.35126" lon="-1.54997">
        <ele>18</ele>
        <time>2026-08-23T14:53:09.000Z</time>
      </trkpt>
      <trkpt lat="43.35261" lon="-1.55301">
        <ele>17</ele>
        <time>2026-08-23T14:53:55.000Z</time>
      </trkpt>
      <trkpt lat="43.35274" lon="-1.55324">
        <ele>18</ele>
        <time>2026-08-23T14:53:59.000Z</time>
      </trkpt>
      <trkpt lat="43.35293" lon="-1.55347">
        <ele>17</ele>
        <time>2026-08-23T14:54:03.000Z</time>
      </trkpt>
      <trkpt lat="43.35313" lon="-1.55363">
        <ele>17</ele>
        <time>2026-08-23T14:54:08.000Z</time>
      </trkpt>
      <trkpt lat="43.35338" lon="-1.55377">
        <ele>16</ele>
        <time>2026-08-23T14:54:12.000Z</time>
      </trkpt>
      <trkpt lat="43.35369" lon="-1.55382">
        <ele>16</ele>
        <time>2026-08-23T14:54:18.000Z</time>
      </trkpt>
      <trkpt lat="43.35398" lon="-1.5538">
        <ele>16</ele>
        <time>2026-08-23T14:54:23.000Z</time>
      </trkpt>
      <trkpt lat="43.35456" lon="-1.55371">
        <ele>16</ele>
        <time>2026-08-23T14:54:33.000Z</time>
      </trkpt>
      <trkpt lat="43.35483" lon="-1.5537">
        <ele>16</ele>
        <time>2026-08-23T14:54:38.000Z</time>
      </trkpt>
      <trkpt lat="43.35496" lon="-1.55373">
        <ele>16</ele>
        <time>2026-08-23T14:54:41.000Z</time>
      </trkpt>
      <trkpt lat="43.35509" lon="-1.55378">
        <ele>16</ele>
        <time>2026-08-23T14:54:43.000Z</time>
      </trkpt>
      <trkpt lat="43.35523" lon="-1.55388">
        <ele>16</ele>
        <time>2026-08-23T14:54:46.000Z</time>
      </trkpt>
      <trkpt lat="43.35548" lon="-1.55396">
        <ele>16</ele>
        <time>2026-08-23T14:54:50.000Z</time>
      </trkpt>
      <trkpt lat="43.35554" lon="-1.55395">
        <ele>16</ele>
        <time>2026-08-23T14:54:51.000Z</time>
      </trkpt>
      <trkpt lat="43.35561" lon="-1.554">
        <ele>16</ele>
        <time>2026-08-23T14:54:53.000Z</time>
      </trkpt>
      <trkpt lat="43.35563" lon="-1.55404">
        <ele>16</ele>
        <time>2026-08-23T14:54:53.000Z</time>
      </trkpt>
      <trkpt lat="43.35565" lon="-1.55414">
        <ele>16</ele>
        <time>2026-08-23T14:54:55.000Z</time>
      </trkpt>
      <trkpt lat="43.35564" lon="-1.55422">
        <ele>16</ele>
        <time>2026-08-23T14:54:56.000Z</time>
      </trkpt>
      <trkpt lat="43.35574" lon="-1.55455">
        <ele>15</ele>
        <time>2026-08-23T14:55:00.000Z</time>
      </trkpt>
      <trkpt lat="43.35574" lon="-1.55465">
        <ele>14</ele>
        <time>2026-08-23T14:55:02.000Z</time>
      </trkpt>
      <trkpt lat="43.35577" lon="-1.55474">
        <ele>14</ele>
        <time>2026-08-23T14:55:03.000Z</time>
      </trkpt>
      <trkpt lat="43.3558" lon="-1.55498">
        <ele>13</ele>
        <time>2026-08-23T14:55:06.000Z</time>
      </trkpt>
      <trkpt lat="43.35583" lon="-1.55545">
        <ele>14</ele>
        <time>2026-08-23T14:55:12.000Z</time>
      </trkpt>
      <trkpt lat="43.35586" lon="-1.5563">
        <ele>16</ele>
        <time>2026-08-23T14:55:23.000Z</time>
      </trkpt>
      <trkpt lat="43.35585" lon="-1.55759">
        <ele>16</ele>
        <time>2026-08-23T14:55:40.000Z</time>
      </trkpt>
      <trkpt lat="43.35588" lon="-1.55806">
        <ele>15</ele>
        <time>2026-08-23T14:55:46.000Z</time>
      </trkpt>
      <trkpt lat="43.35596" lon="-1.55849">
        <ele>15</ele>
        <time>2026-08-23T14:55:52.000Z</time>
      </trkpt>
      <trkpt lat="43.35601" lon="-1.5592">
        <ele>14</ele>
        <time>2026-08-23T14:56:01.000Z</time>
      </trkpt>
      <trkpt lat="43.35594" lon="-1.55961">
        <ele>15</ele>
        <time>2026-08-23T14:56:07.000Z</time>
      </trkpt>
      <trkpt lat="43.35597" lon="-1.55988">
        <ele>15</ele>
        <time>2026-08-23T14:56:10.000Z</time>
      </trkpt>
      <trkpt lat="43.35627" lon="-1.56036">
        <ele>16</ele>
        <time>2026-08-23T14:56:18.000Z</time>
      </trkpt>
      <trkpt lat="43.35652" lon="-1.56086">
        <ele>18</ele>
        <time>2026-08-23T14:56:26.000Z</time>
      </trkpt>
      <trkpt lat="43.35635" lon="-1.56106">
        <ele>18</ele>
        <time>2026-08-23T14:56:30.000Z</time>
      </trkpt>
      <trkpt lat="43.35625" lon="-1.56126">
        <ele>18</ele>
        <time>2026-08-23T14:56:33.000Z</time>
      </trkpt>
      <trkpt lat="43.35617" lon="-1.5617">
        <ele>19</ele>
        <time>2026-08-23T14:56:39.000Z</time>
      </trkpt>
      <trkpt lat="43.35615" lon="-1.56214">
        <ele>19</ele>
        <time>2026-08-23T14:56:45.000Z</time>
      </trkpt>
      <trkpt lat="43.35622" lon="-1.56509">
        <ele>19</ele>
        <time>2026-08-23T14:57:23.000Z</time>
      </trkpt>
      <trkpt lat="43.35622" lon="-1.56558">
        <ele>19</ele>
        <time>2026-08-23T14:57:29.000Z</time>
      </trkpt>
      <trkpt lat="43.35625" lon="-1.56591">
        <ele>19</ele>
        <time>2026-08-23T14:57:34.000Z</time>
      </trkpt>
      <trkpt lat="43.35628" lon="-1.56591">
        <ele>19</ele>
        <time>2026-08-23T14:57:34.000Z</time>
      </trkpt>
      <trkpt lat="43.35634" lon="-1.56599">
        <ele>19</ele>
        <time>2026-08-23T14:57:36.000Z</time>
      </trkpt>
      <trkpt lat="43.35633" lon="-1.56606">
        <ele>19</ele>
        <time>2026-08-23T14:57:37.000Z</time>
      </trkpt>
      <trkpt lat="43.3563" lon="-1.56612">
        <ele>19</ele>
        <time>2026-08-23T14:57:38.000Z</time>
      </trkpt>
      <trkpt lat="43.35625" lon="-1.56614">
        <ele>19</ele>
        <time>2026-08-23T14:57:38.000Z</time>
      </trkpt>
      <trkpt lat="43.35625" lon="-1.56642">
        <ele>19</ele>
        <time>2026-08-23T14:57:42.000Z</time>
      </trkpt>
      <trkpt lat="43.35617" lon="-1.56692">
        <ele>19</ele>
        <time>2026-08-23T14:57:49.000Z</time>
      </trkpt>
      <trkpt lat="43.35592" lon="-1.56778">
        <ele>17</ele>
        <time>2026-08-23T14:58:01.000Z</time>
      </trkpt>
      <trkpt lat="43.35587" lon="-1.56801">
        <ele>17</ele>
        <time>2026-08-23T14:58:04.000Z</time>
      </trkpt>
      <trkpt lat="43.35585" lon="-1.56823">
        <ele>17</ele>
        <time>2026-08-23T14:58:07.000Z</time>
      </trkpt>
      <trkpt lat="43.35588" lon="-1.56851">
        <ele>17</ele>
        <time>2026-08-23T14:58:10.000Z</time>
      </trkpt>
      <trkpt lat="43.35593" lon="-1.56864">
        <ele>17</ele>
        <time>2026-08-23T14:58:12.000Z</time>
      </trkpt>
      <trkpt lat="43.35608" lon="-1.56893">
        <ele>17</ele>
        <time>2026-08-23T14:58:17.000Z</time>
      </trkpt>
      <trkpt lat="43.35625" lon="-1.56922">
        <ele>17</ele>
        <time>2026-08-23T14:58:22.000Z</time>
      </trkpt>
      <trkpt lat="43.35723" lon="-1.5713">
        <ele>15</ele>
        <time>2026-08-23T14:58:54.000Z</time>
      </trkpt>
      <trkpt lat="43.35733" lon="-1.5716">
        <ele>15</ele>
        <time>2026-08-23T14:58:58.000Z</time>
      </trkpt>
      <trkpt lat="43.3574" lon="-1.57189">
        <ele>15</ele>
        <time>2026-08-23T14:59:02.000Z</time>
      </trkpt>
      <trkpt lat="43.35745" lon="-1.57225">
        <ele>14</ele>
        <time>2026-08-23T14:59:07.000Z</time>
      </trkpt>
      <trkpt lat="43.35763" lon="-1.57418">
        <ele>13</ele>
        <time>2026-08-23T14:59:32.000Z</time>
      </trkpt>
      <trkpt lat="43.35767" lon="-1.57433">
        <ele>13</ele>
        <time>2026-08-23T14:59:34.000Z</time>
      </trkpt>
      <trkpt lat="43.35781" lon="-1.57455">
        <ele>13</ele>
        <time>2026-08-23T14:59:38.000Z</time>
      </trkpt>
      <trkpt lat="43.35786" lon="-1.57459">
        <ele>13</ele>
        <time>2026-08-23T14:59:39.000Z</time>
      </trkpt>
      <trkpt lat="43.35788" lon="-1.57464">
        <ele>13</ele>
        <time>2026-08-23T14:59:39.000Z</time>
      </trkpt>
      <trkpt lat="43.35789" lon="-1.5747">
        <ele>13</ele>
        <time>2026-08-23T14:59:40.000Z</time>
      </trkpt>
      <trkpt lat="43.35784" lon="-1.57479">
        <ele>13</ele>
        <time>2026-08-23T14:59:42.000Z</time>
      </trkpt>
      <trkpt lat="43.35779" lon="-1.57482">
        <ele>13</ele>
        <time>2026-08-23T14:59:43.000Z</time>
      </trkpt>
      <trkpt lat="43.35774" lon="-1.5748">
        <ele>13</ele>
        <time>2026-08-23T14:59:44.000Z</time>
      </trkpt>
      <trkpt lat="43.3577" lon="-1.57476">
        <ele>13</ele>
        <time>2026-08-23T14:59:44.000Z</time>
      </trkpt>
      <trkpt lat="43.35768" lon="-1.57469">
        <ele>13</ele>
        <time>2026-08-23T14:59:45.000Z</time>
      </trkpt>
      <trkpt lat="43.35771" lon="-1.57459">
        <ele>13</ele>
        <time>2026-08-23T14:59:47.000Z</time>
      </trkpt>
      <trkpt lat="43.35767" lon="-1.57433">
        <ele>13</ele>
        <time>2026-08-23T14:59:50.000Z</time>
      </trkpt>
      <trkpt lat="43.35767" lon="-1.57433">
        <ele>13</ele>
        <time>2026-08-23T14:59:50.000Z</time>
      </trkpt>
      <trkpt lat="43.35781" lon="-1.57455">
        <ele>13</ele>
        <time>2026-08-23T14:59:54.000Z</time>
      </trkpt>
      <trkpt lat="43.35786" lon="-1.57459">
        <ele>13</ele>
        <time>2026-08-23T14:59:55.000Z</time>
      </trkpt>
      <trkpt lat="43.35788" lon="-1.57464">
        <ele>13</ele>
        <time>2026-08-23T14:59:56.000Z</time>
      </trkpt>
      <trkpt lat="43.35789" lon="-1.5747">
        <ele>13</ele>
        <time>2026-08-23T14:59:57.000Z</time>
      </trkpt>
      <trkpt lat="43.35784" lon="-1.57479">
        <ele>13</ele>
        <time>2026-08-23T14:59:58.000Z</time>
      </trkpt>
      <trkpt lat="43.35781" lon="-1.57496">
        <ele>13</ele>
        <time>2026-08-23T15:00:00.000Z</time>
      </trkpt>
      <trkpt lat="43.35779" lon="-1.57526">
        <ele>13</ele>
        <time>2026-08-23T15:00:04.000Z</time>
      </trkpt>
      <trkpt lat="43.35779" lon="-1.57552">
        <ele>13</ele>
        <time>2026-08-23T15:00:08.000Z</time>
      </trkpt>
      <trkpt lat="43.35782" lon="-1.57586">
        <ele>13</ele>
        <time>2026-08-23T15:00:12.000Z</time>
      </trkpt>
      <trkpt lat="43.35827" lon="-1.57821">
        <ele>11</ele>
        <time>2026-08-23T15:00:44.000Z</time>
      </trkpt>
      <trkpt lat="43.35838" lon="-1.57869">
        <ele>11</ele>
        <time>2026-08-23T15:00:50.000Z</time>
      </trkpt>
      <trkpt lat="43.35852" lon="-1.57913">
        <ele>12</ele>
        <time>2026-08-23T15:00:56.000Z</time>
      </trkpt>
      <trkpt lat="43.35864" lon="-1.57937">
        <ele>12</ele>
        <time>2026-08-23T15:01:00.000Z</time>
      </trkpt>
      <trkpt lat="43.35894" lon="-1.57993">
        <ele>11</ele>
        <time>2026-08-23T15:01:09.000Z</time>
      </trkpt>
      <trkpt lat="43.36003" lon="-1.58148">
        <ele>11</ele>
        <time>2026-08-23T15:01:37.000Z</time>
      </trkpt>
      <trkpt lat="43.36109" lon="-1.58303">
        <ele>12</ele>
        <time>2026-08-23T15:02:04.000Z</time>
      </trkpt>
      <trkpt lat="43.36129" lon="-1.58341">
        <ele>12</ele>
        <time>2026-08-23T15:02:11.000Z</time>
      </trkpt>
      <trkpt lat="43.36139" lon="-1.58363">
        <ele>12</ele>
        <time>2026-08-23T15:02:14.000Z</time>
      </trkpt>
      <trkpt lat="43.36164" lon="-1.58429">
        <ele>12</ele>
        <time>2026-08-23T15:02:23.000Z</time>
      </trkpt>
      <trkpt lat="43.36257" lon="-1.58723">
        <ele>14</ele>
        <time>2026-08-23T15:03:05.000Z</time>
      </trkpt>
      <trkpt lat="43.3628" lon="-1.58766">
        <ele>18</ele>
        <time>2026-08-23T15:03:12.000Z</time>
      </trkpt>
      <trkpt lat="43.36308" lon="-1.58801">
        <ele>19</ele>
        <time>2026-08-23T15:03:19.000Z</time>
      </trkpt>
      <trkpt lat="43.36402" lon="-1.58885">
        <ele>17</ele>
        <time>2026-08-23T15:03:39.000Z</time>
      </trkpt>
      <trkpt lat="43.36427" lon="-1.58913">
        <ele>13</ele>
        <time>2026-08-23T15:03:44.000Z</time>
      </trkpt>
      <trkpt lat="43.36444" lon="-1.58941">
        <ele>12</ele>
        <time>2026-08-23T15:03:49.000Z</time>
      </trkpt>
      <trkpt lat="43.3646" lon="-1.58976">
        <ele>11</ele>
        <time>2026-08-23T15:03:54.000Z</time>
      </trkpt>
      <trkpt lat="43.36482" lon="-1.59044">
        <ele>9</ele>
        <time>2026-08-23T15:04:04.000Z</time>
      </trkpt>
      <trkpt lat="43.36538" lon="-1.59228">
        <ele>10</ele>
        <time>2026-08-23T15:04:30.000Z</time>
      </trkpt>
      <trkpt lat="43.36581" lon="-1.59376">
        <ele>9</ele>
        <time>2026-08-23T15:04:50.000Z</time>
      </trkpt>
      <trkpt lat="43.36589" lon="-1.5943">
        <ele>9</ele>
        <time>2026-08-23T15:04:58.000Z</time>
      </trkpt>
      <trkpt lat="43.36592" lon="-1.59482">
        <ele>9</ele>
        <time>2026-08-23T15:05:04.000Z</time>
      </trkpt>
      <trkpt lat="43.36588" lon="-1.59546">
        <ele>11</ele>
        <time>2026-08-23T15:05:13.000Z</time>
      </trkpt>
      <trkpt lat="43.36567" lon="-1.59809">
        <ele>18</ele>
        <time>2026-08-23T15:05:47.000Z</time>
      </trkpt>
      <trkpt lat="43.36562" lon="-1.59843">
        <ele>18</ele>
        <time>2026-08-23T15:05:51.000Z</time>
      </trkpt>
      <trkpt lat="43.36549" lon="-1.59873">
        <ele>17</ele>
        <time>2026-08-23T15:05:56.000Z</time>
      </trkpt>
      <trkpt lat="43.36533" lon="-1.59897">
        <ele>16</ele>
        <time>2026-08-23T15:06:00.000Z</time>
      </trkpt>
      <trkpt lat="43.36476" lon="-1.5994">
        <ele>14</ele>
        <time>2026-08-23T15:06:12.000Z</time>
      </trkpt>
      <trkpt lat="43.36426" lon="-1.59985">
        <ele>13</ele>
        <time>2026-08-23T15:06:22.000Z</time>
      </trkpt>
      <trkpt lat="43.36392" lon="-1.60032">
        <ele>14</ele>
        <time>2026-08-23T15:06:31.000Z</time>
      </trkpt>
      <trkpt lat="43.36369" lon="-1.60073">
        <ele>15</ele>
        <time>2026-08-23T15:06:37.000Z</time>
      </trkpt>
      <trkpt lat="43.36345" lon="-1.6014">
        <ele>16</ele>
        <time>2026-08-23T15:06:47.000Z</time>
      </trkpt>
      <trkpt lat="43.36326" lon="-1.60185">
        <ele>18</ele>
        <time>2026-08-23T15:06:54.000Z</time>
      </trkpt>
      <trkpt lat="43.36299" lon="-1.60225">
        <ele>21</ele>
        <time>2026-08-23T15:07:01.000Z</time>
      </trkpt>
      <trkpt lat="43.36265" lon="-1.60257">
        <ele>19</ele>
        <time>2026-08-23T15:07:08.000Z</time>
      </trkpt>
      <trkpt lat="43.36203" lon="-1.60308">
        <ele>15</ele>
        <time>2026-08-23T15:07:21.000Z</time>
      </trkpt>
      <trkpt lat="43.36173" lon="-1.60338">
        <ele>13</ele>
        <time>2026-08-23T15:07:28.000Z</time>
      </trkpt>
      <trkpt lat="43.36152" lon="-1.60365">
        <ele>14</ele>
        <time>2026-08-23T15:07:33.000Z</time>
      </trkpt>
      <trkpt lat="43.36125" lon="-1.6041">
        <ele>15</ele>
        <time>2026-08-23T15:07:40.000Z</time>
      </trkpt>
      <trkpt lat="43.36109" lon="-1.60457">
        <ele>16</ele>
        <time>2026-08-23T15:07:47.000Z</time>
      </trkpt>
      <trkpt lat="43.36102" lon="-1.60521">
        <ele>17</ele>
        <time>2026-08-23T15:07:55.000Z</time>
      </trkpt>
      <trkpt lat="43.36104" lon="-1.60586">
        <ele>18</ele>
        <time>2026-08-23T15:08:04.000Z</time>
      </trkpt>
      <trkpt lat="43.36118" lon="-1.607">
        <ele>18</ele>
        <time>2026-08-23T15:08:19.000Z</time>
      </trkpt>
      <trkpt lat="43.36119" lon="-1.6075">
        <ele>18</ele>
        <time>2026-08-23T15:08:25.000Z</time>
      </trkpt>
      <trkpt lat="43.36112" lon="-1.6083">
        <ele>16</ele>
        <time>2026-08-23T15:08:36.000Z</time>
      </trkpt>
      <trkpt lat="43.36113" lon="-1.60838">
        <ele>16</ele>
        <time>2026-08-23T15:08:37.000Z</time>
      </trkpt>
      <trkpt lat="43.36105" lon="-1.61018">
        <ele>17</ele>
        <time>2026-08-23T15:09:00.000Z</time>
      </trkpt>
      <trkpt lat="43.361" lon="-1.61078">
        <ele>15</ele>
        <time>2026-08-23T15:09:08.000Z</time>
      </trkpt>
      <trkpt lat="43.36097" lon="-1.61097">
        <ele>14</ele>
        <time>2026-08-23T15:09:10.000Z</time>
      </trkpt>
      <trkpt lat="43.36097" lon="-1.61097">
        <ele>14</ele>
        <time>2026-08-23T15:09:10.000Z</time>
      </trkpt>
      <trkpt lat="43.36091" lon="-1.61139">
        <ele>13</ele>
        <time>2026-08-23T15:09:16.000Z</time>
      </trkpt>
      <trkpt lat="43.36075" lon="-1.61188">
        <ele>12</ele>
        <time>2026-08-23T15:09:23.000Z</time>
      </trkpt>
      <trkpt lat="43.36058" lon="-1.61224">
        <ele>11</ele>
        <time>2026-08-23T15:09:28.000Z</time>
      </trkpt>
      <trkpt lat="43.36042" lon="-1.61253">
        <ele>11</ele>
        <time>2026-08-23T15:09:33.000Z</time>
      </trkpt>
      <trkpt lat="43.36026" lon="-1.61276">
        <ele>11</ele>
        <time>2026-08-23T15:09:37.000Z</time>
      </trkpt>
      <trkpt lat="43.35934" lon="-1.61396">
        <ele>16</ele>
        <time>2026-08-23T15:10:00.000Z</time>
      </trkpt>
      <trkpt lat="43.35913" lon="-1.61419">
        <ele>16</ele>
        <time>2026-08-23T15:10:05.000Z</time>
      </trkpt>
      <trkpt lat="43.35815" lon="-1.61503">
        <ele>12</ele>
        <time>2026-08-23T15:10:25.000Z</time>
      </trkpt>
      <trkpt lat="43.35787" lon="-1.61535">
        <ele>14</ele>
        <time>2026-08-23T15:10:32.000Z</time>
      </trkpt>
      <trkpt lat="43.35515" lon="-1.61963">
        <ele>18</ele>
        <time>2026-08-23T15:11:45.000Z</time>
      </trkpt>
      <trkpt lat="43.35486" lon="-1.62001">
        <ele>18</ele>
        <time>2026-08-23T15:11:52.000Z</time>
      </trkpt>
      <trkpt lat="43.35449" lon="-1.62032">
        <ele>20</ele>
        <time>2026-08-23T15:12:00.000Z</time>
      </trkpt>
      <trkpt lat="43.35406" lon="-1.62059">
        <ele>21</ele>
        <time>2026-08-23T15:12:08.000Z</time>
      </trkpt>
      <trkpt lat="43.35384" lon="-1.6207">
        <ele>21</ele>
        <time>2026-08-23T15:12:13.000Z</time>
      </trkpt>
      <trkpt lat="43.35298" lon="-1.62102">
        <ele>17</ele>
        <time>2026-08-23T15:12:28.000Z</time>
      </trkpt>
      <trkpt lat="43.3523" lon="-1.62131">
        <ele>13</ele>
        <time>2026-08-23T15:12:41.000Z</time>
      </trkpt>
      <trkpt lat="43.35201" lon="-1.62156">
        <ele>12</ele>
        <time>2026-08-23T15:12:47.000Z</time>
      </trkpt>
      <trkpt lat="43.35181" lon="-1.62184">
        <ele>11</ele>
        <time>2026-08-23T15:12:52.000Z</time>
      </trkpt>
      <trkpt lat="43.35127" lon="-1.62289">
        <ele>11</ele>
        <time>2026-08-23T15:13:09.000Z</time>
      </trkpt>
      <trkpt lat="43.35116" lon="-1.62311">
        <ele>11</ele>
        <time>2026-08-23T15:13:12.000Z</time>
      </trkpt>
      <trkpt lat="43.35111" lon="-1.62332">
        <ele>11</ele>
        <time>2026-08-23T15:13:15.000Z</time>
      </trkpt>
      <trkpt lat="43.35104" lon="-1.62406">
        <ele>11</ele>
        <time>2026-08-23T15:13:25.000Z</time>
      </trkpt>
      <trkpt lat="43.35104" lon="-1.62447">
        <ele>11</ele>
        <time>2026-08-23T15:13:30.000Z</time>
      </trkpt>
      <trkpt lat="43.3511" lon="-1.62496">
        <ele>11</ele>
        <time>2026-08-23T15:13:37.000Z</time>
      </trkpt>
      <trkpt lat="43.35115" lon="-1.62529">
        <ele>11</ele>
        <time>2026-08-23T15:13:41.000Z</time>
      </trkpt>
      <trkpt lat="43.35207" lon="-1.62759">
        <ele>8</ele>
        <time>2026-08-23T15:14:15.000Z</time>
      </trkpt>
      <trkpt lat="43.35258" lon="-1.62906">
        <ele>6</ele>
        <time>2026-08-23T15:14:36.000Z</time>
      </trkpt>
      <trkpt lat="43.35279" lon="-1.62957">
        <ele>6</ele>
        <time>2026-08-23T15:14:44.000Z</time>
      </trkpt>
      <trkpt lat="43.35291" lon="-1.62977">
        <ele>6</ele>
        <time>2026-08-23T15:14:47.000Z</time>
      </trkpt>
      <trkpt lat="43.35332" lon="-1.63028">
        <ele>7</ele>
        <time>2026-08-23T15:14:57.000Z</time>
      </trkpt>
      <trkpt lat="43.35365" lon="-1.63059">
        <ele>7</ele>
        <time>2026-08-23T15:15:04.000Z</time>
      </trkpt>
      <trkpt lat="43.35403" lon="-1.63082">
        <ele>7</ele>
        <time>2026-08-23T15:15:11.000Z</time>
      </trkpt>
      <trkpt lat="43.35615" lon="-1.63147">
        <ele>5</ele>
        <time>2026-08-23T15:15:50.000Z</time>
      </trkpt>
      <trkpt lat="43.35639" lon="-1.63145">
        <ele>6</ele>
        <time>2026-08-23T15:15:54.000Z</time>
      </trkpt>
      <trkpt lat="43.35647" lon="-1.63139">
        <ele>6</ele>
        <time>2026-08-23T15:15:56.000Z</time>
      </trkpt>
      <trkpt lat="43.35653" lon="-1.63131">
        <ele>7</ele>
        <time>2026-08-23T15:15:57.000Z</time>
      </trkpt>
      <trkpt lat="43.35661" lon="-1.63129">
        <ele>7</ele>
        <time>2026-08-23T15:15:59.000Z</time>
      </trkpt>
      <trkpt lat="43.35668" lon="-1.63133">
        <ele>7</ele>
        <time>2026-08-23T15:16:00.000Z</time>
      </trkpt>
      <trkpt lat="43.35672" lon="-1.63143">
        <ele>7</ele>
        <time>2026-08-23T15:16:02.000Z</time>
      </trkpt>
      <trkpt lat="43.35673" lon="-1.63149">
        <ele>7</ele>
        <time>2026-08-23T15:16:02.000Z</time>
      </trkpt>
      <trkpt lat="43.35681" lon="-1.63159">
        <ele>6</ele>
        <time>2026-08-23T15:16:04.000Z</time>
      </trkpt>
      <trkpt lat="43.35699" lon="-1.63173">
        <ele>6</ele>
        <time>2026-08-23T15:16:08.000Z</time>
      </trkpt>
      <trkpt lat="43.35749" lon="-1.63192">
        <ele>7</ele>
        <time>2026-08-23T15:16:17.000Z</time>
      </trkpt>
      <trkpt lat="43.35789" lon="-1.63219">
        <ele>9</ele>
        <time>2026-08-23T15:16:25.000Z</time>
      </trkpt>
      <trkpt lat="43.35827" lon="-1.63249">
        <ele>8</ele>
        <time>2026-08-23T15:16:33.000Z</time>
      </trkpt>
      <trkpt lat="43.35866" lon="-1.63286">
        <ele>9</ele>
        <time>2026-08-23T15:16:41.000Z</time>
      </trkpt>
      <trkpt lat="43.35866" lon="-1.63286">
        <ele>9</ele>
        <time>2026-08-23T15:16:41.000Z</time>
      </trkpt>
      <trkpt lat="43.35932" lon="-1.63351">
        <ele>9</ele>
        <time>2026-08-23T15:16:56.000Z</time>
      </trkpt>
      <trkpt lat="43.35991" lon="-1.63443">
        <ele>8</ele>
        <time>2026-08-23T15:17:12.000Z</time>
      </trkpt>
      <trkpt lat="43.36011" lon="-1.63495">
        <ele>6</ele>
        <time>2026-08-23T15:17:19.000Z</time>
      </trkpt>
      <trkpt lat="43.36029" lon="-1.63532">
        <ele>6</ele>
        <time>2026-08-23T15:17:25.000Z</time>
      </trkpt>
      <trkpt lat="43.36042" lon="-1.63555">
        <ele>6</ele>
        <time>2026-08-23T15:17:29.000Z</time>
      </trkpt>
      <trkpt lat="43.36061" lon="-1.63577">
        <ele>5</ele>
        <time>2026-08-23T15:17:33.000Z</time>
      </trkpt>
      <trkpt lat="43.36075" lon="-1.63589">
        <ele>5</ele>
        <time>2026-08-23T15:17:36.000Z</time>
      </trkpt>
      <trkpt lat="43.36111" lon="-1.63609">
        <ele>5</ele>
        <time>2026-08-23T15:17:43.000Z</time>
      </trkpt>
      <trkpt lat="43.36233" lon="-1.63654">
        <ele>6</ele>
        <time>2026-08-23T15:18:06.000Z</time>
      </trkpt>
      <trkpt lat="43.36273" lon="-1.63671">
        <ele>6</ele>
        <time>2026-08-23T15:18:13.000Z</time>
      </trkpt>
      <trkpt lat="43.36317" lon="-1.63673">
        <ele>7</ele>
        <time>2026-08-23T15:18:21.000Z</time>
      </trkpt>
      <trkpt lat="43.36639" lon="-1.63578">
        <ele>7</ele>
        <time>2026-08-23T15:19:19.000Z</time>
      </trkpt>
      <trkpt lat="43.36679" lon="-1.63572">
        <ele>8</ele>
        <time>2026-08-23T15:19:27.000Z</time>
      </trkpt>
      <trkpt lat="43.36707" lon="-1.63575">
        <ele>8</ele>
        <time>2026-08-23T15:19:32.000Z</time>
      </trkpt>
      <trkpt lat="43.36745" lon="-1.63592">
        <ele>7</ele>
        <time>2026-08-23T15:19:39.000Z</time>
      </trkpt>
      <trkpt lat="43.37063" lon="-1.63793">
        <ele>6</ele>
        <time>2026-08-23T15:20:41.000Z</time>
      </trkpt>
      <trkpt lat="43.37085" lon="-1.63801">
        <ele>6</ele>
        <time>2026-08-23T15:20:45.000Z</time>
      </trkpt>
      <trkpt lat="43.37111" lon="-1.63806">
        <ele>5</ele>
        <time>2026-08-23T15:20:50.000Z</time>
      </trkpt>
      <trkpt lat="43.37409" lon="-1.63788">
        <ele>4</ele>
        <time>2026-08-23T15:21:43.000Z</time>
      </trkpt>
      <trkpt lat="43.37444" lon="-1.63779">
        <ele>4</ele>
        <time>2026-08-23T15:21:49.000Z</time>
      </trkpt>
      <trkpt lat="43.37508" lon="-1.63777">
        <ele>4</ele>
        <time>2026-08-23T15:22:01.000Z</time>
      </trkpt>
      <trkpt lat="43.37526" lon="-1.63781">
        <ele>5</ele>
        <time>2026-08-23T15:22:04.000Z</time>
      </trkpt>
      <trkpt lat="43.37541" lon="-1.63773">
        <ele>5</ele>
        <time>2026-08-23T15:22:07.000Z</time>
      </trkpt>
      <trkpt lat="43.37607" lon="-1.63771">
        <ele>6</ele>
        <time>2026-08-23T15:22:18.000Z</time>
      </trkpt>
      <trkpt lat="43.37642" lon="-1.63776">
        <ele>6</ele>
        <time>2026-08-23T15:22:25.000Z</time>
      </trkpt>
      <trkpt lat="43.37738" lon="-1.63772">
        <ele>8</ele>
        <time>2026-08-23T15:22:42.000Z</time>
      </trkpt>
      <trkpt lat="43.37759" lon="-1.63774">
        <ele>8</ele>
        <time>2026-08-23T15:22:45.000Z</time>
      </trkpt>
      <trkpt lat="43.37776" lon="-1.63786">
        <ele>8</ele>
        <time>2026-08-23T15:22:49.000Z</time>
      </trkpt>
      <trkpt lat="43.37906" lon="-1.63917">
        <ele>6</ele>
        <time>2026-08-23T15:23:18.000Z</time>
      </trkpt>
      <trkpt lat="43.38056" lon="-1.64058">
        <ele>9</ele>
        <time>2026-08-23T15:23:50.000Z</time>
      </trkpt>
      <trkpt lat="43.3812" lon="-1.64193">
        <ele>6</ele>
        <time>2026-08-23T15:24:11.000Z</time>
      </trkpt>
      <trkpt lat="43.38155" lon="-1.6423">
        <ele>6</ele>
        <time>2026-08-23T15:24:19.000Z</time>
      </trkpt>
      <trkpt lat="43.38212" lon="-1.64283">
        <ele>5</ele>
        <time>2026-08-23T15:24:31.000Z</time>
      </trkpt>
      <trkpt lat="43.38232" lon="-1.64309">
        <ele>5</ele>
        <time>2026-08-23T15:24:36.000Z</time>
      </trkpt>
      <trkpt lat="43.3825" lon="-1.64341">
        <ele>5</ele>
        <time>2026-08-23T15:24:41.000Z</time>
      </trkpt>
      <trkpt lat="43.38264" lon="-1.64383">
        <ele>7</ele>
        <time>2026-08-23T15:24:47.000Z</time>
      </trkpt>
      <trkpt lat="43.38272" lon="-1.64424">
        <ele>8</ele>
        <time>2026-08-23T15:24:52.000Z</time>
      </trkpt>
      <trkpt lat="43.38278" lon="-1.64507">
        <ele>10</ele>
        <time>2026-08-23T15:25:03.000Z</time>
      </trkpt>
      <trkpt lat="43.38279" lon="-1.6461">
        <ele>7</ele>
        <time>2026-08-23T15:25:17.000Z</time>
      </trkpt>
      <trkpt lat="43.38253" lon="-1.64877">
        <ele>9</ele>
        <time>2026-08-23T15:25:51.000Z</time>
      </trkpt>
      <trkpt lat="43.3825" lon="-1.64928">
        <ele>8</ele>
        <time>2026-08-23T15:25:58.000Z</time>
      </trkpt>
      <trkpt lat="43.38258" lon="-1.64969">
        <ele>8</ele>
        <time>2026-08-23T15:26:03.000Z</time>
      </trkpt>
      <trkpt lat="43.3833" lon="-1.6517">
        <ele>12</ele>
        <time>2026-08-23T15:26:32.000Z</time>
      </trkpt>
      <trkpt lat="43.38344" lon="-1.65206">
        <ele>12</ele>
        <time>2026-08-23T15:26:38.000Z</time>
      </trkpt>
      <trkpt lat="43.38356" lon="-1.65227">
        <ele>13</ele>
        <time>2026-08-23T15:26:41.000Z</time>
      </trkpt>
      <trkpt lat="43.38379" lon="-1.65254">
        <ele>14</ele>
        <time>2026-08-23T15:26:47.000Z</time>
      </trkpt>
      <trkpt lat="43.384" lon="-1.6527">
        <ele>14</ele>
        <time>2026-08-23T15:26:51.000Z</time>
      </trkpt>
      <trkpt lat="43.38412" lon="-1.65283">
        <ele>13</ele>
        <time>2026-08-23T15:26:54.000Z</time>
      </trkpt>
      <trkpt lat="43.38412" lon="-1.65302">
        <ele>10</ele>
        <time>2026-08-23T15:26:56.000Z</time>
      </trkpt>
      <trkpt lat="43.38409" lon="-1.65317">
        <ele>8</ele>
        <time>2026-08-23T15:26:58.000Z</time>
      </trkpt>
      <trkpt lat="43.38398" lon="-1.65336">
        <ele>6</ele>
        <time>2026-08-23T15:27:01.000Z</time>
      </trkpt>
      <trkpt lat="43.38398" lon="-1.65336">
        <ele>6</ele>
        <time>2026-08-23T15:27:01.000Z</time>
      </trkpt>
      <trkpt lat="43.38339" lon="-1.65457">
        <ele>4</ele>
        <time>2026-08-23T15:27:20.000Z</time>
      </trkpt>
      <trkpt lat="43.38363" lon="-1.65494">
        <ele>4</ele>
        <time>2026-08-23T15:27:26.000Z</time>
      </trkpt>
      <trkpt lat="43.38362" lon="-1.65503">
        <ele>4</ele>
        <time>2026-08-23T15:27:28.000Z</time>
      </trkpt>
      <trkpt lat="43.38236" lon="-1.65679">
        <ele>4</ele>
        <time>2026-08-23T15:28:00.000Z</time>
      </trkpt>
      <trkpt lat="43.38233" lon="-1.65699">
        <ele>4</ele>
        <time>2026-08-23T15:28:02.000Z</time>
      </trkpt>
      <trkpt lat="43.38298" lon="-1.65877">
        <ele>4</ele>
        <time>2026-08-23T15:28:28.000Z</time>
      </trkpt>
      <trkpt lat="43.38313" lon="-1.6591">
        <ele>5</ele>
        <time>2026-08-23T15:28:33.000Z</time>
      </trkpt>
      <trkpt lat="43.38335" lon="-1.65933">
        <ele>6</ele>
        <time>2026-08-23T15:28:38.000Z</time>
      </trkpt>
      <trkpt lat="43.38347" lon="-1.65961">
        <ele>6</ele>
        <time>2026-08-23T15:28:42.000Z</time>
      </trkpt>
      <trkpt lat="43.38406" lon="-1.66041">
        <ele>5</ele>
        <time>2026-08-23T15:28:57.000Z</time>
      </trkpt>
      <trkpt lat="43.38406" lon="-1.66041">
        <ele>5</ele>
        <time>2026-08-23T15:28:57.000Z</time>
      </trkpt>
      <trkpt lat="43.38445" lon="-1.66095">
        <ele>5</ele>
        <time>2026-08-23T15:29:07.000Z</time>
      </trkpt>
      <trkpt lat="43.38462" lon="-1.66121">
        <ele>5</ele>
        <time>2026-08-23T15:29:11.000Z</time>
      </trkpt>
      <trkpt lat="43.38479" lon="-1.66155">
        <ele>5</ele>
        <time>2026-08-23T15:29:17.000Z</time>
      </trkpt>
      <trkpt lat="43.38485" lon="-1.66152">
        <ele>5</ele>
        <time>2026-08-23T15:29:18.000Z</time>
      </trkpt>
      <trkpt lat="43.38491" lon="-1.66155">
        <ele>5</ele>
        <time>2026-08-23T15:29:19.000Z</time>
      </trkpt>
      <trkpt lat="43.38493" lon="-1.6616">
        <ele>5</ele>
        <time>2026-08-23T15:29:20.000Z</time>
      </trkpt>
      <trkpt lat="43.38493" lon="-1.66166">
        <ele>5</ele>
        <time>2026-08-23T15:29:20.000Z</time>
      </trkpt>
      <trkpt lat="43.38491" lon="-1.66171">
        <ele>5</ele>
        <time>2026-08-23T15:29:21.000Z</time>
      </trkpt>
      <trkpt lat="43.38487" lon="-1.66173">
        <ele>5</ele>
        <time>2026-08-23T15:29:22.000Z</time>
      </trkpt>
      <trkpt lat="43.38493" lon="-1.66191">
        <ele>5</ele>
        <time>2026-08-23T15:29:24.000Z</time>
      </trkpt>
      <trkpt lat="43.38503" lon="-1.66208">
        <ele>4</ele>
        <time>2026-08-23T15:29:27.000Z</time>
      </trkpt>
      <trkpt lat="43.38603" lon="-1.66297">
        <ele>1</ele>
        <time>2026-08-23T15:29:48.000Z</time>
      </trkpt>
    </trkseg>
  </trk>
</gpx>